ftp/pub/palmer/observations_modified/2019/November/AR191128_BASE.txt

Download

Sample DateTime	Unit Id	WS Avg 2min	WD Avg 2min	WGS 10min	WGD 10min	Air Temp	Rel Humidity	Dew Point	Pyranometer	Quantum	Air Pressure	Snow Level	Rainfall	PW Current	Visibility	CBase 1	CBase 2	CBase 3	Vert Vis
2019/11/28 00:00:00	BASE	0.00	142	1.49	92	2.2	100	2.2	168	0	999.8	NA	0.0000		9999	850	0	0	0
2019/11/28 00:01:00	BASE	0.00	140	1.49	92	2.1	100	2.1	151	0	999.8	NA	0.0000		9999	820	0	0	0
2019/11/28 00:02:00	BASE	0.00	111	1.49	92	2.1	100	2.1	182	0	999.8	NA	0.0000		9999	890	7870	0	0
2019/11/28 00:03:00	BASE	0.00	80	1.49	92	2.1	100	2.1	179	0	999.8	NA	0.0000		9999	920	7840	0	0
2019/11/28 00:04:00	BASE	0.00	52	1.39	133	2.1	100	2.1	187	0	999.8	NA	0.0000		9999	890	7910	0	0
2019/11/28 00:05:00	BASE	0.09	38	1.39	133	2.2	100	2.2	154	0	999.8	NA	0.0000		9999	850	7910	0	0
2019/11/28 00:06:00	BASE	0.68	48	1.80	50	2.2	100	2.2	122	0	999.7	NA	0.0000		9999	820	7940	0	0
2019/11/28 00:07:00	BASE	1.20	38	1.80	50	2.2	100	2.2	154	0	999.7	NA	0.0000		9999	890	7870	0	0
2019/11/28 00:08:00	BASE	1.41	34	2.06	47	2.2	100	2.2	121	0	999.7	NA	0.0000		9999	890	7870	0	0
2019/11/28 00:09:00	BASE	1.61	39	2.06	47	2.1	100	2.1	154	0	999.7	NA	0.0000		9999	850	7910	0	0
2019/11/28 00:10:00	BASE	1.52	36	2.06	47	2.1	100	2.1	161	0	999.8	NA	0.0000		9999	850	7870	0	0
2019/11/28 00:11:00	BASE	1.19	28	2.06	47	2.1	100	2.1	151	0	999.8	NA	0.0000		9999	850	7840	0	0
2019/11/28 00:12:00	BASE	0.58	43	2.06	47	2.1	100	2.1	151	0	999.8	NA	0.0000		9999	850	7870	0	0
2019/11/28 00:13:00	BASE	0.61	56	2.06	47	2.2	100	2.2	163	0	999.8	NA	0.0000		9999	890	7810	0	0
2019/11/28 00:14:00	BASE	0.56	51	2.06	47	2.2	100	2.2	150	0	999.8	NA	0.0000		9999	890	7780	0	0
2019/11/28 00:15:00	BASE	0.05	49	2.06	47	2.2	100	2.2	132	0	999.8	NA	0.0000		9999	890	7840	0	0
2019/11/28 00:16:00	BASE	0.00	25	2.06	47	2.2	100	2.2	131	0	999.7	NA	0.0000		9999	7580	0	0	0
2019/11/28 00:17:00	BASE	0.09	25	2.06	47	2.3	100	2.3	127	0	999.7	NA	0.0000		9999	7580	0	0	0
2019/11/28 00:18:00	BASE	0.09	64	1.90	43	2.3	100	2.3	81	0	999.7	NA	0.0000		9999	7680	0	0	0
2019/11/28 00:19:00	BASE	0.00	84	1.54	55	2.4	100	2.4	86	0	999.7	NA	0.0000		9999	950	7710	0	0
2019/11/28 00:20:00	BASE	0.00	106	1.54	55	2.5	100	2.5	107	0	999.7	NA	0.0000		9999	7680	0	0	0
2019/11/28 00:21:00	BASE	0.00	112	1.54	55	2.5	100	2.5	116	0	999.7	NA	0.0000		9999	7640	0	0	0
2019/11/28 00:22:00	BASE	0.15	106	1.54	55	2.6	100	2.6	111	0	999.7	NA	0.0000		9999	890	7710	0	0
2019/11/28 00:23:00	BASE	0.58	106	1.29	104	2.7	100	2.7	112	0	999.7	NA	0.0000		9999	820	7710	0	0
2019/11/28 00:24:00	BASE	0.99	111	1.29	122	2.7	100	2.7	103	0	999.7	NA	0.0000		9999	850	7680	0	0
2019/11/28 00:25:00	BASE	0.60	122	1.29	122	2.7	100	2.7	79	0	999.7	NA	0.0000		9999	920	7610	0	0
2019/11/28 00:26:00	BASE	0.29	121	1.75	133	2.7	100	2.7	86	0	999.7	NA	0.0000		9999	7610	0	0	0
2019/11/28 00:27:00	BASE	0.48	127	1.75	133	2.7	100	2.7	87	0	999.7	NA	0.0000		9999	7640	0	0	0
2019/11/28 00:28:00	BASE	0.28	157	1.75	133	2.7	100	2.7	81	0	999.7	NA	0.0000		9999	7610	0	0	0
2019/11/28 00:29:00	BASE	0.04	231	1.75	133	2.7	100	2.7	85	0	999.7	NA	0.0000		9999	7580	0	0	0
2019/11/28 00:30:00	BASE	0.00	288	1.75	133	2.7	100	2.7	81	0	999.7	NA	0.0000		9999	7610	0	0	0
2019/11/28 00:31:00	BASE	0.00	305	1.75	133	2.7	100	2.7	75	0	999.7	NA	0.0000		9999	7580	0	0	0
2019/11/28 00:32:00	BASE	0.04	338	1.75	133	2.7	100	2.7	70	0	999.7	NA	0.0000		9999	7550	0	0	0
2019/11/28 00:33:00	BASE	0.04	355	1.75	133	2.7	100	2.7	65	0	999.7	NA	0.0000		9999	7510	0	0	0
2019/11/28 00:34:00	BASE	0.00	283	1.75	133	2.8	100	2.8	62	0	999.7	NA	0.0000		9999	7580	0	0	0
2019/11/28 00:35:00	BASE	0.00	258	1.75	133	2.8	100	2.8	58	0	999.7	NA	0.0000		9999	7480	0	0	0
2019/11/28 00:36:00	BASE	0.24	278	1.29	142	2.7	100	2.7	55	0	999.7	NA	0.0000		9999	7480	0	0	0
2019/11/28 00:37:00	BASE	0.61	289	1.23	288	2.6	100	2.6	53	0	999.7	NA	0.0000		9999	7510	0	0	0
2019/11/28 00:38:00	BASE	0.42	297	1.23	288	2.6	100	2.6	52	0	999.7	NA	0.0000		9999	7510	0	0	0
2019/11/28 00:39:00	BASE	0.05	307	1.23	288	2.5	100	2.5	51	0	999.7	NA	0.0000		9999	7450	0	0	0
2019/11/28 00:40:00	BASE	0.00	308	1.23	288	2.5	100	2.5	50	0	999.7	NA	0.0000		9999	7480	0	0	0
2019/11/28 00:41:00	BASE	0.00	305	1.23	288	2.5	100	2.5	49	0	999.7	NA	0.0000		9999	7480	0	0	0
2019/11/28 00:42:00	BASE	0.00	312	1.23	288	2.5	100	2.5	48	0	999.7	NA	0.0000		9999	7450	0	0	0
2019/11/28 00:43:00	BASE	0.00	325	1.23	288	2.5	100	2.5	47	0	999.7	NA	0.0000		9999	7450	0	0	0
2019/11/28 00:44:00	BASE	0.00	326	1.23	288	2.5	100	2.5	46	0	999.7	NA	0.0000		9999	7450	0	0	0
2019/11/28 00:45:00	BASE	0.00	305	1.23	288	2.5	100	2.5	46	0	999.7	NA	0.0000		9999	7480	0	0	0
2019/11/28 00:46:00	BASE	0.00	291	1.18	286	2.6	100	2.6	45	0	999.7	NA	0.0000		9999	7480	0	0	0
2019/11/28 00:47:00	BASE	0.73	294	1.65	293	2.6	100	2.6	45	0	999.7	NA	0.0000		9999	7450	0	0	0
2019/11/28 00:48:00	BASE	1.37	298	1.65	293	2.6	100	2.6	45	0	999.7	NA	0.0000		9999	7450	0	0	0
2019/11/28 00:49:00	BASE	0.94	297	1.65	293	2.7	100	2.7	45	0	999.7	NA	0.0000		9999	7420	0	0	0
2019/11/28 00:50:00	BASE	0.67	300	1.65	293	2.7	100	2.7	45	0	999.7	NA	0.0000		9999	7350	0	0	0
2019/11/28 00:51:00	BASE	0.61	301	1.65	293	2.7	100	2.7	43	0	999.7	NA	0.0000		9999	7420	0	0	0
2019/11/28 00:52:00	BASE	0.23	295	1.65	293	2.6	100	2.6	41	0	999.7	NA	0.0000		9999	7420	0	0	0
2019/11/28 00:53:00	BASE	0.00	294	1.65	293	2.6	100	2.6	36	0	999.7	NA	0.0000		9999	7380	0	0	0
2019/11/28 00:54:00	BASE	0.00	295	1.65	293	2.6	100	2.6	31	0	999.7	NA	0.0000		9999	0	0	0	0
2019/11/28 00:55:00	BASE	0.22	304	1.65	293	2.6	100	2.6	28	0	999.7	NA	0.0000		9999	0	0	0	0
2019/11/28 00:56:00	BASE	0.71	315	1.65	293	2.5	100	2.5	27	0	999.7	NA	0.0000		9999	0	0	0	0
2019/11/28 00:57:00	BASE	1.27	321	1.75	326	2.5	100	2.5	27	0	999.7	NA	0.0000		9999	0	0	0	0
2019/11/28 00:58:00	BASE	1.64	324	1.85	327	2.4	100	2.4	26	0	999.7	NA	0.0000		9999	7350	0	0	0
2019/11/28 00:59:00	BASE	1.56	321	1.85	327	2.3	100	2.3	25	0	999.7	NA	0.0000		9999	7420	0	0	0
2019/11/28 01:00:00	BASE	1.28	313	1.85	327	2.3	100	2.3	24	0	999.7	NA	0.0000		9999	0	0	0	0
2019/11/28 01:01:00	BASE	1.06	301	1.85	327	2.3	100	2.3	22	0	999.7	NA	0.0000		9999	0	0	0	0
2019/11/28 01:02:00	BASE	0.68	299	1.85	327	2.3	100	2.3	20	0	999.7	NA	0.0000		9999	7510	0	0	0
2019/11/28 01:03:00	BASE	0.75	310	1.85	327	2.3	100	2.3	18	0	999.7	NA	0.0000		9999	0	0	0	0
2019/11/28 01:04:00	BASE	1.15	319	1.85	327	2.2	100	2.2	16	0	999.7	NA	0.0000		9999	7580	0	0	0
2019/11/28 01:05:00	BASE	0.82	319	1.85	327	2.2	100	2.2	15	0	999.7	NA	0.0000		9999	0	0	0	0
2019/11/28 01:06:00	BASE	0.23	315	1.85	327	2.2	100	2.2	15	0	999.7	NA	0.0000		9999	0	0	0	0
2019/11/28 01:07:00	BASE	0.00	310	1.85	327	2.2	100	2.2	14	0	999.7	NA	0.0000		9999	0	0	0	0
2019/11/28 01:08:00	BASE	0.00	312	1.70	325	2.2	100	2.2	14	0	999.7	NA	0.0000		9999	0	0	0	0
2019/11/28 01:09:00	BASE	0.00	327	1.29	321	2.1	100	2.1	14	0	999.7	NA	0.0000		9999	0	0	0	0
2019/11/28 01:10:00	BASE	0.04	334	1.29	321	2.2	100	2.2	14	0	999.7	NA	0.0000		9999	0	0	0	0
2019/11/28 01:11:00	BASE	0.13	330	1.29	321	2.2	100	2.2	13	0	999.7	NA	0.0000		9999	0	0	0	0
2019/11/28 01:12:00	BASE	0.22	328	1.29	321	2.1	100	2.1	13	0	999.7	NA	0.0000		9999	0	0	0	0
2019/11/28 01:13:00	BASE	0.62	325	1.29	314	2.2	100	2.2	13	0	999.7	NA	0.0000		9999	0	0	0	0
2019/11/28 01:14:00	BASE	1.10	318	1.34	313	2.2	100	2.2	13	0	999.7	NA	0.0000		9999	0	0	0	0
2019/11/28 01:15:00	BASE	1.21	315	1.34	313	2.2	100	2.2	13	0	999.8	NA	0.0000		9999	0	0	0	0
2019/11/28 01:16:00	BASE	1.23	312	1.34	313	2.1	100	2.1	13	0	999.8	NA	0.0000		9999	0	0	0	0
2019/11/28 01:17:00	BASE	1.25	315	1.34	328	2.1	100	2.1	12	0	999.8	NA	0.0000		9999	0	0	0	0
2019/11/28 01:18:00	BASE	1.36	322	1.65	329	2.0	100	2.0	12	0	999.8	NA	0.0000		9999	0	0	0	0
2019/11/28 01:19:00	BASE	1.57	323	1.80	324	1.9	100	1.9	12	0	999.8	NA	0.0000		9999	0	0	0	0
2019/11/28 01:20:00	BASE	1.71	323	1.85	317	1.9	100	1.9	12	0	999.8	NA	0.0000		9999	0	0	0	0
2019/11/28 01:21:00	BASE	1.69	321	1.85	317	1.9	100	1.9	11	0	999.8	NA	0.0000		9999	0	0	0	0
2019/11/28 01:22:00	BASE	1.50	319	1.85	317	1.9	100	1.9	11	0	999.8	NA	0.0000		9999	0	0	0	0
2019/11/28 01:23:00	BASE	1.21	309	1.85	317	1.8	100	1.8	10	0	999.8	NA	0.0000		9999	0	0	0	0
2019/11/28 01:24:00	BASE	1.09	297	1.85	317	1.8	100	1.8	10	0	999.8	NA	0.0000		9999	0	0	0	0
2019/11/28 01:25:00	BASE	0.90	293	1.85	317	1.7	100	1.7	10	0	999.8	NA	0.0000		9999	0	0	0	0
2019/11/28 01:26:00	BASE	0.54	298	1.85	317	1.7	100	1.7	9	0	999.8	NA	0.0000		9999	0	0	0	0
2019/11/28 01:27:00	BASE	0.82	300	1.85	317	1.6	100	1.6	9	0	999.8	NA	0.0000		9999	0	0	0	0
2019/11/28 01:28:00	BASE	1.20	296	1.85	317	1.6	100	1.6	8	0	999.8	NA	0.0000		9999	0	0	0	0
2019/11/28 01:29:00	BASE	0.74	292	1.85	317	1.7	100	1.7	8	0	999.8	NA	0.0000		9999	0	0	0	0
2019/11/28 01:30:00	BASE	0.15	284	1.80	317	1.7	100	1.7	8	0	999.8	NA	0.0000		9999	0	0	0	0
2019/11/28 01:31:00	BASE	0.18	280	1.54	315	1.7	100	1.7	8	0	999.8	NA	0.0000		9999	0	0	0	0
2019/11/28 01:32:00	BASE	0.18	281	1.44	304	1.7	100	1.7	8	0	999.8	NA	0.0000		9999	0	0	0	0
2019/11/28 01:33:00	BASE	0.24	287	1.44	304	1.7	100	1.7	7	0	999.8	NA	0.0000		9999	0	0	0	0
2019/11/28 01:34:00	BASE	0.82	292	1.39	298	1.7	100	1.7	7	0	999.8	NA	0.0000		9999	0	0	0	0
2019/11/28 01:35:00	BASE	0.81	289	1.39	298	1.7	100	1.7	7	0	999.8	NA	0.0000		9999	0	0	0	0
2019/11/28 01:36:00	BASE	0.36	292	1.39	298	1.6	100	1.6	7	0	999.8	NA	0.0000		9999	0	0	0	0
2019/11/28 01:37:00	BASE	0.13	301	1.34	294	1.6	100	1.6	7	0	999.8	NA	0.0000		9999	0	0	0	0
2019/11/28 01:38:00	BASE	0.00	303	1.29	296	1.6	100	1.6	7	0	999.8	NA	0.0000		9999	0	0	0	0
2019/11/28 01:39:00	BASE	0.00	301	1.29	296	1.6	100	1.6	7	0	999.8	NA	0.0000		9999	0	0	0	0
2019/11/28 01:40:00	BASE	0.00	296	1.29	296	1.7	100	1.7	6	0	999.8	NA	0.0000		9999	0	0	0	0
2019/11/28 01:41:00	BASE	0.32	292	1.29	296	1.7	100	1.7	6	0	999.8	NA	0.0000		9999	0	0	0	0
2019/11/28 01:42:00	BASE	0.59	294	1.29	296	1.7	100	1.7	6	0	999.8	NA	0.0000		9999	0	0	0	0
2019/11/28 01:43:00	BASE	0.31	297	1.29	296	1.7	100	1.7	6	0	999.7	NA	0.0000		9999	0	0	0	0
2019/11/28 01:44:00	BASE	0.04	306	1.18	290	1.7	100	1.7	6	0	999.8	NA	0.0000		9999	0	0	0	0
2019/11/28 01:45:00	BASE	0.00	320	1.18	290	1.7	100	1.7	6	0	999.8	NA	0.0000		9999	0	0	0	0
2019/11/28 01:46:00	BASE	0.00	322	1.18	290	1.6	100	1.6	6	0	999.8	NA	0.0000		9999	0	0	0	0
2019/11/28 01:47:00	BASE	0.00	317	1.18	290	1.5	100	1.5	6	0	999.8	NA	0.0000		9999	0	0	0	0
2019/11/28 01:48:00	BASE	0.00	315	1.18	290	1.5	100	1.5	6	0	999.9	NA	0.0000		9999	0	0	0	0
2019/11/28 01:49:00	BASE	0.00	311	1.18	290	1.4	100	1.4	6	0	999.9	NA	0.0000		9999	0	0	0	0
2019/11/28 01:50:00	BASE	0.00	306	1.18	290	1.4	100	1.4	6	0	999.9	NA	0.0000		9999	0	0	0	0
2019/11/28 01:51:00	BASE	0.00	301	1.13	295	1.4	100	1.4	6	0	999.9	NA	0.0000		9999	0	0	0	0
2019/11/28 01:52:00	BASE	0.00	294	1.03	297	1.3	100	1.3	6	0	999.9	NA	0.0000		9999	0	0	0	0
2019/11/28 01:53:00	BASE	0.09	293	1.03	298	1.3	100	1.3	6	0	999.9	NA	0.0000		9999	0	0	0	0
2019/11/28 01:54:00	BASE	0.13	298	1.03	302	1.2	100	1.2	6	0	999.9	NA	0.0000		9999	0	0	0	0
2019/11/28 01:55:00	BASE	0.13	302	1.08	302	1.1	100	1.1	6	0	999.9	NA	0.0000		9999	0	0	0	0
2019/11/28 01:56:00	BASE	0.09	304	1.08	302	1.1	100	1.1	5	0	999.9	NA	0.0000		9999	0	0	0	0
2019/11/28 01:57:00	BASE	0.00	308	1.08	302	1.1	100	1.1	5	0	999.9	NA	0.0000		9999	0	0	0	0
2019/11/28 01:58:00	BASE	0.40	314	1.18	315	1.2	100	1.2	5	0	999.9	NA	0.0000		9999	0	0	0	0
2019/11/28 01:59:00	BASE	0.76	322	1.18	315	1.2	100	1.2	5	0	999.9	NA	0.0000		9999	0	0	0	0
2019/11/28 02:00:00	BASE	0.90	326	1.18	326	1.3	100	1.3	5	0	999.9	NA	0.0000		9999	0	0	0	0
2019/11/28 02:01:00	BASE	1.10	327	1.18	327	1.3	100	1.3	5	0	999.9	NA	0.0000		9999	0	0	0	0
2019/11/28 02:02:00	BASE	0.77	328	1.18	327	1.2	100	1.2	5	0	999.9	NA	0.0000		9999	0	0	0	0
2019/11/28 02:03:00	BASE	0.22	329	1.18	327	1.2	100	1.2	5	0	999.9	NA	0.0000		9999	0	0	0	0
2019/11/28 02:04:00	BASE	0.00	328	1.18	327	1.2	100	1.2	5	0	999.9	NA	0.0000		9999	0	0	0	0
2019/11/28 02:05:00	BASE	0.00	327	1.18	327	1.2	100	1.2	5	0	999.9	NA	0.0000		9999	0	0	0	0
2019/11/28 02:06:00	BASE	0.00	326	1.18	327	1.2	100	1.2	4	0	999.9	NA	0.0000		9999	0	0	0	0
2019/11/28 02:07:00	BASE	0.00	326	1.18	327	1.2	100	1.2	4	0	999.9	NA	0.0000		9999	0	0	0	0
2019/11/28 02:08:00	BASE	0.00	327	1.18	327	1.2	100	1.2	4	0	999.9	NA	0.0000		9999	0	0	0	0
2019/11/28 02:09:00	BASE	0.00	341	1.18	327	1.3	100	1.3	4	0	999.9	NA	0.0000		9999	0	0	0	0
2019/11/28 02:10:00	BASE	0.00	7	1.18	327	1.3	100	1.3	4	0	1000.0	NA	0.0000		9999	0	0	0	0
2019/11/28 02:11:00	BASE	0.00	11	1.08	328	1.3	100	1.3	4	0	1000.1	NA	0.0000		9999	0	0	0	0
2019/11/28 02:12:00	BASE	0.00	1	M	M	1.3	100	1.3	4	0	1000.1	NA	0.0000		9999	0	0	0	0
2019/11/28 02:13:00	BASE	0.00	1	M	M	1.3	100	1.3	4	0	1000.1	NA	0.0000		9999	0	0	0	0
2019/11/28 02:14:00	BASE	0.00	0	M	M	1.4	100	1.4	4	0	1000.1	NA	0.0000		9999	0	0	0	0
2019/11/28 02:15:00	BASE	0.00	357	M	M	1.4	100	1.4	4	0	1000.1	NA	0.0000		9999	0	0	0	0
2019/11/28 02:16:00	BASE	0.00	355	M	M	1.4	100	1.4	4	0	1000.1	NA	0.0000		9999	0	0	0	0
2019/11/28 02:17:00	BASE	0.00	356	M	M	1.5	100	1.5	4	0	1000.1	NA	0.0000		9999	0	0	0	0
2019/11/28 02:18:00	BASE	0.00	359	M	M	1.5	100	1.5	3	0	1000.1	NA	0.0000		9999	0	0	0	0
2019/11/28 02:19:00	BASE	0.00	359	M	M	1.5	100	1.5	3	0	1000.0	NA	0.0000		9999	0	0	0	0
2019/11/28 02:20:00	BASE	0.00	3	M	M	1.5	100	1.5	3	0	999.9	NA	0.0000		9999	0	0	0	0
2019/11/28 02:21:00	BASE	0.00	8	M	M	1.5	100	1.5	3	0	999.9	NA	0.0000		9999	0	0	0	0
2019/11/28 02:22:00	BASE	0.00	14	M	M	1.6	100	1.6	3	0	999.9	NA	0.0000		9999	0	0	0	0
2019/11/28 02:23:00	BASE	0.00	21	M	M	1.6	100	1.6	3	0	1000.0	NA	0.0000		9999	0	0	0	0
2019/11/28 02:24:00	BASE	0.00	21	M	M	1.7	100	1.7	3	0	1000.1	NA	0.0000		9999	0	0	0	0
2019/11/28 02:25:00	BASE	0.00	20	M	M	1.7	100	1.7	3	0	1000.1	NA	0.0000		9999	0	0	0	0
2019/11/28 02:26:00	BASE	0.00	18	M	M	1.8	100	1.8	3	0	1000.1	NA	0.0000		9999	0	0	0	0
2019/11/28 02:27:00	BASE	0.00	17	M	M	1.8	100	1.8	3	0	1000.1	NA	0.0000		9999	0	0	0	0
2019/11/28 02:28:00	BASE	0.00	17	M	M	1.8	100	1.8	3	0	1000.1	NA	0.0000		9999	0	0	0	0
2019/11/28 02:29:00	BASE	0.00	17	M	M	1.8	100	1.8	3	0	1000.1	NA	0.0000		9999	0	0	0	0
2019/11/28 02:30:00	BASE	0.00	17	M	M	1.8	100	1.8	3	0	1000.1	NA	0.0000		9999	0	0	0	0
2019/11/28 02:31:00	BASE	0.00	17	M	M	1.8	100	1.8	3	0	1000.1	NA	0.0000		9999	0	0	0	0
2019/11/28 02:32:00	BASE	0.00	17	M	M	1.8	100	1.8	3	0	1000.1	NA	0.0000		9999	0	0	0	0
2019/11/28 02:33:00	BASE	0.00	17	M	M	1.8	100	1.8	4	0	1000.0	NA	0.0000		9999	0	0	0	0
2019/11/28 02:34:00	BASE	0.00	12	M	M	1.8	100	1.8	4	0	999.9	NA	0.0000		9999	0	0	0	0
2019/11/28 02:35:00	BASE	0.00	353	M	M	1.8	100	1.8	4	0	999.9	NA	0.0000		9999	0	0	0	0
2019/11/28 02:36:00	BASE	0.00	325	M	M	1.9	100	1.9	4	0	999.9	NA	0.0000		9999	0	0	0	0
2019/11/28 02:37:00	BASE	0.00	302	M	M	1.9	100	1.9	4	0	999.9	NA	0.0000		9999	0	0	0	0
2019/11/28 02:38:00	BASE	0.00	289	M	M	1.9	100	1.9	4	0	999.9	NA	0.0000		9999	0	0	0	0
2019/11/28 02:39:00	BASE	0.00	287	M	M	1.9	100	1.9	4	0	1000.0	NA	0.0000		9999	0	0	0	0
2019/11/28 02:40:00	BASE	0.00	287	M	M	1.8	100	1.8	4	0	1000.1	NA	0.0000		9999	0	0	0	0
2019/11/28 02:41:00	BASE	0.00	287	M	M	1.8	100	1.8	4	0	1000.1	NA	0.0000		9999	0	0	0	0
2019/11/28 02:42:00	BASE	0.00	287	M	M	1.7	100	1.7	4	0	1000.1	NA	0.0000		9999	0	0	0	0
2019/11/28 02:43:00	BASE	0.00	287	M	M	1.7	100	1.7	4	0	1000.1	NA	0.0000		9999	0	0	0	0
2019/11/28 02:44:00	BASE	0.00	287	M	M	1.6	100	1.6	4	0	1000.1	NA	0.0000		9999	0	0	0	0
2019/11/28 02:45:00	BASE	0.00	287	M	M	1.6	100	1.6	4	0	1000.1	NA	0.0000		9999	0	0	0	0
2019/11/28 02:46:00	BASE	0.00	287	M	M	1.6	100	1.6	4	0	1000.1	NA	0.0000		9999	0	0	0	0
2019/11/28 02:47:00	BASE	0.00	287	M	M	1.6	100	1.6	4	0	1000.1	NA	0.0000		9999	0	0	0	0
2019/11/28 02:48:00	BASE	0.00	279	M	M	1.6	100	1.6	4	0	1000.1	NA	0.0000		9999	0	0	0	0
2019/11/28 02:49:00	BASE	0.00	260	M	M	1.6	100	1.6	4	0	1000.1	NA	0.0000		9999	0	0	0	0
2019/11/28 02:50:00	BASE	0.00	251	M	M	1.6	100	1.6	4	0	1000.1	NA	0.0000		9999	0	0	0	0
2019/11/28 02:51:00	BASE	0.00	261	M	M	1.6	100	1.6	3	0	1000.1	NA	0.0000		9999	0	0	0	0
2019/11/28 02:52:00	BASE	0.00	292	M	M	1.6	100	1.6	3	0	1000.1	NA	0.0000		9999	0	0	0	0
2019/11/28 02:53:00	BASE	0.00	338	M	M	1.6	100	1.6	3	0	1000.1	NA	0.0000		9999	0	0	0	0
2019/11/28 02:54:00	BASE	0.00	7	M	M	1.5	100	1.5	3	0	1000.1	NA	0.0000		9999	0	0	0	0
2019/11/28 02:55:00	BASE	0.00	22	M	M	1.4	100	1.4	3	0	1000.1	NA	0.0000		9999	0	0	0	0
2019/11/28 02:56:00	BASE	0.00	40	M	M	1.3	100	1.3	3	0	1000.1	NA	0.0000		9999	0	0	0	0
2019/11/28 02:57:00	BASE	0.00	49	M	M	1.2	100	1.2	2	0	1000.1	NA	0.0000		9999	0	0	0	0
2019/11/28 02:58:00	BASE	0.00	46	M	M	1.2	100	1.2	2	0	1000.1	NA	0.0000		9999	0	0	0	0
2019/11/28 02:59:00	BASE	0.00	36	M	M	1.3	100	1.3	2	0	1000.1	NA	0.0000		9999	0	0	0	0
2019/11/28 03:00:00	BASE	0.00	31	M	M	1.4	100	1.4	2	0	1000.1	NA	0.0000		9999	0	0	0	0
2019/11/28 03:01:00	BASE	0.00	31	M	M	1.4	100	1.4	2	0	1000.1	NA	0.0000		9999	0	0	0	0
2019/11/28 03:02:00	BASE	0.00	31	M	M	1.4	100	1.4	2	0	1000.0	NA	0.0000		9999	0	0	0	0
2019/11/28 03:03:00	BASE	0.00	31	M	M	1.3	100	1.3	2	0	999.9	NA	0.0000		9999	0	0	0	0
2019/11/28 03:04:00	BASE	0.00	31	M	M	1.2	100	1.2	2	0	999.9	NA	0.0000		9999	0	0	0	0
2019/11/28 03:05:00	BASE	0.00	31	M	M	1.2	100	1.2	1	0	999.9	NA	0.0000		9999	0	0	0	0
2019/11/28 03:06:00	BASE	0.00	33	M	M	1.2	100	1.2	1	0	999.9	NA	0.0000		9999	0	0	0	0
2019/11/28 03:07:00	BASE	0.00	54	M	M	1.3	100	1.3	1	0	999.9	NA	0.0000		9999	0	0	0	0
2019/11/28 03:08:00	BASE	0.00	81	M	M	1.3	100	1.3	1	0	999.9	NA	0.0000		9999	0	0	0	0
2019/11/28 03:09:00	BASE	0.00	105	M	M	1.4	100	1.4	1	0	999.9	NA	0.0000		9999	0	0	0	0
2019/11/28 03:10:00	BASE	0.00	134	M	M	1.4	100	1.4	1	0	999.9	NA	0.0000		9999	0	0	0	0
2019/11/28 03:11:00	BASE	0.00	140	M	M	1.4	100	1.4	1	0	999.9	NA	0.0000		9999	0	0	0	0
2019/11/28 03:12:00	BASE	0.00	139	M	M	1.4	100	1.4	1	0	999.9	NA	0.0000		9999	0	0	0	0
2019/11/28 03:13:00	BASE	0.00	146	M	M	1.4	100	1.4	1	0	999.9	NA	0.0000		9999	0	0	0	0
2019/11/28 03:14:00	BASE	0.00	164	M	M	1.4	100	1.4	1	0	999.8	NA	0.0000		9999	0	0	0	0
2019/11/28 03:15:00	BASE	0.00	166	M	M	1.4	100	1.4	1	0	999.8	NA	0.0000		9999	0	0	0	0
2019/11/28 03:16:00	BASE	0.00	156	M	M	1.4	100	1.4	1	0	999.8	NA	0.0000		9999	0	0	0	0
2019/11/28 03:17:00	BASE	0.00	155	M	M	1.4	100	1.4	1	0	999.8	NA	0.0000		9999	0	0	0	0
2019/11/28 03:18:00	BASE	0.00	155	M	M	1.4	100	1.4	1	0	999.8	NA	0.0000		9999	0	0	0	0
2019/11/28 03:19:00	BASE	0.00	155	M	M	1.4	100	1.4	1	0	999.8	NA	0.0000		9999	0	0	0	0
2019/11/28 03:20:00	BASE	0.00	155	M	M	1.4	100	1.4	1	0	999.8	NA	0.0000		9999	0	0	0	0
2019/11/28 03:21:00	BASE	0.00	164	M	M	1.4	100	1.4	1	0	999.8	NA	0.0000		9999	0	0	0	0
2019/11/28 03:22:00	BASE	0.00	186	M	M	1.4	100	1.4	1	0	999.8	NA	0.0000		9999	0	0	0	0
2019/11/28 03:23:00	BASE	0.00	198	M	M	1.3	100	1.3	1	0	999.8	NA	0.0000		9999	0	0	0	0
2019/11/28 03:24:00	BASE	0.00	200	M	M	1.2	100	1.2	1	0	999.7	NA	0.0000		9999	0	0	0	0
2019/11/28 03:25:00	BASE	0.00	204	M	M	1.1	100	1.1	1	0	999.7	NA	0.0000		9999	0	0	0	0
2019/11/28 03:26:00	BASE	0.00	206	M	M	1.1	100	1.1	1	0	999.7	NA	0.0000		9999	0	0	0	0
2019/11/28 03:27:00	BASE	0.00	212	M	M	1.0	100	1.0	1	0	999.7	NA	0.0000		9999	0	0	0	0
2019/11/28 03:28:00	BASE	0.00	213	M	M	0.9	100	0.9	1	0	999.8	NA	0.0000		9999	0	0	0	0
2019/11/28 03:29:00	BASE	0.00	208	M	M	0.9	100	0.9	1	0	999.8	NA	0.0000		9999	0	0	0	0
2019/11/28 03:30:00	BASE	0.00	208	M	M	0.9	100	0.9	1	0	999.8	NA	0.0000		9999	0	0	0	0
2019/11/28 03:31:00	BASE	0.00	208	M	M	0.9	100	0.9	1	0	999.8	NA	0.0000		9999	0	0	0	0
2019/11/28 03:32:00	BASE	0.00	208	M	M	0.9	100	0.9	1	0	999.8	NA	0.0000		9999	0	0	0	0
2019/11/28 03:33:00	BASE	0.00	197	M	M	0.9	100	0.9	1	0	999.8	NA	0.0000		9999	0	0	0	0
2019/11/28 03:34:00	BASE	0.00	184	M	M	0.9	100	0.9	1	0	999.8	NA	0.0000		9999	0	0	0	0
2019/11/28 03:35:00	BASE	0.27	191	1.13	202	0.9	100	0.9	1	0	999.8	NA	0.0000		9999	0	0	0	0
2019/11/28 03:36:00	BASE	0.32	201	1.13	202	0.9	100	0.9	1	0	999.8	NA	0.0000		9999	0	0	0	0
2019/11/28 03:37:00	BASE	0.04	203	1.13	202	0.9	100	0.9	1	0	999.8	NA	0.0000		9999	0	0	0	0
2019/11/28 03:38:00	BASE	0.00	205	1.13	202	0.8	100	0.8	1	0	999.8	NA	0.0000		9999	0	0	0	0
2019/11/28 03:39:00	BASE	0.00	212	1.13	202	0.8	100	0.8	1	0	999.7	NA	0.0000		9999	0	0	0	0
2019/11/28 03:40:00	BASE	0.04	221	1.13	202	0.8	100	0.8	0	0	999.7	NA	0.0000		9999	0	0	0	0
2019/11/28 03:41:00	BASE	0.17	229	1.13	202	0.8	100	0.8	1	0	999.7	NA	0.0000		9999	0	0	0	0
2019/11/28 03:42:00	BASE	0.13	245	1.13	202	0.8	100	0.8	1	0	999.7	NA	0.0000		9999	0	0	0	0
2019/11/28 03:43:00	BASE	0.00	257	1.13	202	0.8	100	0.8	1	0	999.8	NA	0.0000		9999	0	0	0	0
2019/11/28 03:44:00	BASE	0.00	235	1.13	202	0.8	100	0.8	0	0	999.8	NA	0.0000		9999	0	0	0	0
2019/11/28 03:45:00	BASE	0.00	164	1.08	228	0.8	100	0.8	0	0	999.8	NA	0.0000		9999	0	0	0	0
2019/11/28 03:46:00	BASE	0.00	141	1.08	228	0.8	100	0.8	0	0	999.8	NA	0.0000		9999	0	0	0	0
2019/11/28 03:47:00	BASE	0.00	140	1.08	228	0.8	100	0.8	0	0	999.8	NA	0.0000		9999	0	0	0	0
2019/11/28 03:48:00	BASE	0.00	163	1.08	228	0.9	100	0.9	0	0	999.8	NA	0.0000		9999	0	0	0	0
2019/11/28 03:49:00	BASE	0.00	227	1.08	228	0.9	100	0.9	0	0	999.8	NA	0.0000		9999	0	0	0	0
2019/11/28 03:50:00	BASE	0.00	248	1.08	228	0.9	100	0.9	0	0	999.8	NA	0.0000		9999	0	0	0	0
2019/11/28 03:51:00	BASE	0.00	256	M	M	0.9	100	0.9	0	0	999.8	NA	0.0000		9999	0	0	0	0
2019/11/28 03:52:00	BASE	0.00	259	M	M	0.9	100	0.9	0	0	999.8	NA	0.0000		9999	0	0	0	0
2019/11/28 03:53:00	BASE	0.00	259	M	M	0.9	100	0.9	0	0	999.8	NA	0.0000		9999	0	0	0	0
2019/11/28 03:54:00	BASE	0.00	259	M	M	0.9	100	0.9	0	0	999.8	NA	0.0000		9999	0	0	0	0
2019/11/28 03:55:00	BASE	0.00	259	M	M	0.9	100	0.9	0	0	999.8	NA	0.0000		9999	0	0	0	0
2019/11/28 03:56:00	BASE	0.00	298	M	M	0.9	100	0.9	0	0	999.8	NA	0.0000		9999	0	0	0	0
2019/11/28 03:57:00	BASE	0.00	6	M	M	1.0	100	1.0	0	0	999.8	NA	0.0000		9999	0	0	0	0
2019/11/28 03:58:00	BASE	0.00	20	M	M	1.0	100	1.0	0	0	999.8	NA	0.0000		9999	0	0	0	0
2019/11/28 03:59:00	BASE	0.00	22	M	M	1.0	100	1.0	0	0	999.8	NA	0.0000		9999	0	0	0	0
2019/11/28 04:00:00	BASE	0.00	37	M	M	0.9	100	0.9	0	0	999.8	NA	0.0000		9999	0	0	0	0
2019/11/28 04:02:02	BASE	0.00	50	M	M	0.8	100	0.8	0	0	999.8	NA	0.0000		9999	0	0	0	0
2019/11/28 04:03:01	BASE	0.00	50	M	M	0.8	100	0.8	0	0	999.8	NA	0.0000		9999	0	0	0	0
2019/11/28 04:04:01	BASE	0.00	51	M	M	0.8	100	0.8	0	0	999.8	NA	0.0000		9999	0	0	0	0
2019/11/28 04:05:01	BASE	0.00	64	M	M	0.8	100	0.8	0	0	999.8	NA	0.0000		9999	0	0	0	0
2019/11/28 04:06:02	BASE	0.00	76	M	M	0.9	100	0.9	0	0	999.8	NA	0.0000		9999	0	0	0	0
2019/11/28 04:07:01	BASE	0.00	85	M	M	1.0	100	1.0	0	0	999.8	NA	0.0000		9999	0	0	0	0
2019/11/28 04:08:01	BASE	0.00	96	M	M	1.0	100	1.0	0	0	999.7	NA	0.0000		9999	0	0	0	0
2019/11/28 04:09:01	BASE	0.00	100	M	M	1.0	100	1.0	0	0	999.7	NA	0.0000		9999	0	0	0	0
2019/11/28 04:10:01	BASE	0.00	107	M	M	1.0	100	1.0	0	0	999.7	NA	0.0000		9999	0	0	0	0
2019/11/28 04:11:02	BASE	0.00	123	M	M	0.9	100	0.9	0	0	999.7	NA	0.0000		9999	0	0	0	0
2019/11/28 04:12:01	BASE	0.00	140	M	M	0.9	100	0.9	0	0	999.7	NA	0.0000		9999	0	0	0	0
2019/11/28 04:13:00	BASE	0.00	160	M	M	1.0	100	1.0	0	0	999.7	NA	0.0000		9999	0	0	0	0
2019/11/28 04:14:01	BASE	0.00	169	M	M	1.0	100	1.0	0	0	999.7	NA	0.0000		9999	0	0	0	0
2019/11/28 04:15:00	BASE	0.00	165	M	M	1.0	100	1.0	0	0	999.7	NA	0.0000		9999	0	0	0	0
2019/11/28 04:16:01	BASE	0.00	157	M	M	1.0	100	1.0	0	0	999.7	NA	0.0000		9999	0	0	0	0
2019/11/28 04:17:01	BASE	0.00	142	M	M	1.1	100	1.1	0	0	999.7	NA	0.0000		9999	0	0	0	0
2019/11/28 04:18:00	BASE	0.00	115	M	M	1.1	100	1.1	0	0	999.7	NA	0.0000		9999	0	0	0	0
2019/11/28 04:19:01	BASE	0.17	61	1.39	30	1.1	100	1.1	0	0	999.8	NA	0.0000		9999	0	0	0	0
2019/11/28 04:20:01	BASE	1.03	40	1.95	43	1.1	100	1.1	0	0	999.8	NA	0.0000		9999	0	0	0	0
2019/11/28 04:21:00	BASE	1.89	44	2.16	47	1.0	100	1.0	0	0	999.8	NA	0.0000		9999	0	0	0	0
2019/11/28 04:22:00	BASE	1.91	44	2.16	47	0.8	100	0.8	0	0	999.8	NA	0.0000		9999	0	0	0	0
2019/11/28 04:23:01	BASE	1.59	38	2.16	47	0.7	100	0.7	0	0	999.8	NA	0.0000		9999	0	0	0	0
2019/11/28 04:24:01	BASE	1.32	32	2.16	47	0.6	100	0.6	0	0	999.8	NA	0.0000		9999	0	0	0	0
2019/11/28 04:25:01	BASE	0.65	29	2.16	47	0.6	100	0.6	0	0	999.8	NA	0.0000		9999	0	0	0	0
2019/11/28 04:26:01	BASE	0.05	28	2.16	47	0.6	100	0.6	0	0	999.8	NA	0.0000		9999	0	0	0	0
2019/11/28 04:27:01	BASE	0.00	24	2.16	47	0.7	100	0.7	0	0	999.7	NA	0.0000		9999	0	0	0	0
2019/11/28 04:28:01	BASE	0.00	21	2.16	47	0.8	100	0.8	0	0	999.8	NA	0.0000		9999	0	0	0	0
2019/11/28 04:29:01	BASE	0.00	22	2.16	47	0.8	100	0.8	0	0	999.8	NA	0.0000		9999	0	0	0	0
2019/11/28 04:30:01	BASE	0.00	24	2.16	47	0.9	100	0.9	0	0	999.8	NA	0.0000		9999	0	0	0	0
2019/11/28 04:31:01	BASE	0.00	24	1.95	39	0.9	100	0.9	0	0	999.8	NA	0.0000		9999	0	0	0	0
2019/11/28 04:32:01	BASE	0.00	24	1.49	37	1.0	100	1.0	0	0	999.8	NA	0.0000		9999	0	0	0	0
2019/11/28 04:33:01	BASE	0.00	24	1.39	30	1.0	100	1.0	0	0	999.8	NA	0.0000		9999	0	0	0	0
2019/11/28 04:34:01	BASE	0.00	16	1.08	30	1.0	100	1.0	0	0	999.8	NA	0.0000		9999	0	0	0	0
2019/11/28 04:35:01	BASE	0.00	356	M	M	1.0	100	1.0	0	0	999.8	NA	0.0000		9999	0	0	0	0
2019/11/28 04:36:02	BASE	0.00	350	M	M	1.0	100	1.0	0	0	999.8	NA	0.0000		9999	0	0	0	0
2019/11/28 04:37:01	BASE	0.00	356	M	M	1.0	100	1.0	0	0	999.8	NA	0.0000		9999	0	0	0	0
2019/11/28 04:38:01	BASE	0.00	359	M	M	1.0	100	1.0	0	0	999.8	NA	0.0000		9999	0	0	0	0
2019/11/28 04:39:01	BASE	0.00	1	M	M	1.0	100	1.0	0	0	999.7	NA	0.0000		9999	0	0	0	0
2019/11/28 04:40:01	BASE	0.00	356	M	M	1.0	100	1.0	0	0	999.7	NA	0.0000		9999	0	0	0	0
2019/11/28 04:41:02	BASE	0.00	343	M	M	1.0	100	1.0	0	0	999.7	NA	0.0000		9999	16500	0	0	0
2019/11/28 04:42:01	BASE	0.00	331	M	M	1.0	100	1.0	1	0	999.8	NA	0.0000		9999	16440	0	0	0
2019/11/28 04:43:02	BASE	0.00	328	M	M	1.0	100	1.0	1	0	999.8	NA	0.0000		9999	16410	0	0	0
2019/11/28 04:44:01	BASE	0.00	329	M	M	1.0	100	1.0	1	0	999.8	NA	0.0000		9999	16370	0	0	0
2019/11/28 04:45:02	BASE	0.00	333	M	M	1.0	100	1.0	1	0	999.8	NA	0.0000		9999	16310	0	0	0
2019/11/28 04:46:02	BASE	0.00	334	M	M	1.0	100	1.0	1	0	999.8	NA	0.0000		9999	16370	0	0	0
2019/11/28 04:47:02	BASE	0.00	323	M	M	1.0	100	1.0	1	0	999.7	NA	0.0000		9999	0	0	0	0
2019/11/28 04:48:01	BASE	0.00	307	M	M	1.0	100	1.0	1	0	999.7	NA	0.0000		9999	16470	0	0	0
2019/11/28 04:49:01	BASE	0.00	295	M	M	0.9	100	0.9	1	0	999.8	NA	0.0000		9999	16370	0	0	0
2019/11/28 04:50:01	BASE	0.00	290	M	M	0.9	100	0.9	1	0	999.8	NA	0.0000		9999	16500	0	0	0
2019/11/28 04:51:01	BASE	0.00	290	M	M	0.9	100	0.9	1	0	999.8	NA	0.0000		9999	16500	0	0	0
2019/11/28 04:52:01	BASE	0.00	290	M	M	0.9	100	0.9	1	0	999.8	NA	0.0000		9999	16370	0	0	0
2019/11/28 04:53:01	BASE	0.00	290	M	M	1.0	100	1.0	1	0	999.8	NA	0.0000		9999	14860	16370	0	0
2019/11/28 04:54:03	BASE	0.00	290	M	M	1.0	100	1.0	1	0	999.8	NA	0.0000		9999	14760	16370	0	0
2019/11/28 04:55:02	BASE	0.00	290	M	M	1.0	100	1.0	1	0	999.8	NA	0.0000		9999	13650	14670	16440	0
2019/11/28 04:56:02	BASE	0.00	291	M	M	1.0	100	1.0	1	0	999.8	NA	0.0000		9999	14630	0	0	0
2019/11/28 04:57:01	BASE	0.00	292	M	M	1.0	100	1.0	1	0	999.8	NA	0.0000		9999	14570	0	0	0
2019/11/28 04:58:01	BASE	0.00	289	M	M	0.9	100	0.9	1	0	999.8	NA	0.0000		9999	13580	14470	0	0
2019/11/28 04:59:01	BASE	0.00	284	M	M	0.9	100	0.9	1	0	999.8	NA	0.0000		9999	13520	16370	0	0
2019/11/28 05:00:01	BASE	0.00	281	M	M	0.9	100	0.9	1	0	999.8	NA	0.0000		9999	13550	0	0	0
2019/11/28 05:01:01	BASE	0.00	281	M	M	0.9	100	0.9	1	0	999.8	NA	0.0000		9999	14370	0	0	0
2019/11/28 05:02:01	BASE	0.00	278	M	M	0.9	100	0.9	1	0	999.8	NA	0.0000		9999	14310	0	0	0
2019/11/28 05:03:01	BASE	0.00	276	M	M	0.9	100	0.9	1	0	999.8	NA	0.0000		9999	14310	0	0	0
2019/11/28 05:04:01	BASE	0.00	276	M	M	0.9	100	0.9	1	0	999.8	NA	0.0000		9999	14270	0	0	0
2019/11/28 05:05:01	BASE	0.00	277	M	M	0.9	100	0.9	1	0	999.8	NA	0.0000		9999	14240	0	0	0
2019/11/28 05:06:01	BASE	0.00	281	M	M	0.9	100	0.9	1	0	999.8	NA	0.0000		9999	16410	0	0	0
2019/11/28 05:07:01	BASE	0.00	297	M	M	0.8	100	0.8	1	0	999.7	NA	0.0000		9999	14310	16340	0	0
2019/11/28 05:08:00	BASE	0.00	308	M	M	0.8	100	0.8	1	0	999.7	NA	0.0000		9999	14270	16270	0	0
2019/11/28 05:09:01	BASE	0.00	303	M	M	0.7	100	0.7	1	0	999.7	NA	0.0000		9999	14170	0	0	0
2019/11/28 05:10:00	BASE	0.00	300	M	M	0.7	100	0.7	1	0	999.7	NA	0.0000		9999	14170	16500	0	0
2019/11/28 05:11:02	BASE	0.00	299	M	M	0.7	100	0.7	1	0	999.7	NA	0.0000		9999	14170	16370	0	0
2019/11/28 05:12:00	BASE	0.00	310	M	M	0.6	100	0.6	1	0	999.7	NA	0.0000		9999	14140	0	0	0
2019/11/28 05:13:01	BASE	0.00	324	M	M	0.6	100	0.6	1	0	999.7	NA	0.0000		9999	14140	16270	0	0
2019/11/28 05:14:01	BASE	0.09	323	1.03	305	0.5	100	0.5	1	0	999.7	NA	0.0000		9999	14080	16240	0	0
2019/11/28 05:15:01	BASE	0.09	320	1.03	305	0.4	100	0.4	1	0	999.7	NA	0.0000		9999	14040	16370	0	0
2019/11/28 05:16:01	BASE	0.17	327	1.08	337	0.2	100	0.2	1	0	999.7	NA	0.0000		9999	14040	16410	0	0
2019/11/28 05:17:01	BASE	0.45	337	1.23	337	0.1	100	0.1	1	0	999.7	NA	0.0000		9999	13980	0	0	0
2019/11/28 05:18:01	BASE	0.28	344	1.23	337	0.1	100	0.1	1	0	999.7	NA	0.0000		9999	13940	16440	0	0
2019/11/28 05:19:00	BASE	0.00	344	1.23	337	0.0	100	0.0	1	0	999.7	NA	0.0000		9999	16340	0	0	0
2019/11/28 05:20:01	BASE	0.00	342	1.23	337	0.0	100	0.0	1	0	999.7	NA	0.0000		9999	16310	0	0	0
2019/11/28 05:21:01	BASE	0.00	333	1.23	337	0.0	100	0.0	1	0	999.7	NA	0.0000		9999	16210	0	0	0
2019/11/28 05:22:01	BASE	0.00	312	1.23	337	0.0	100	0.0	1	0	999.7	NA	0.0000		9999	16110	0	0	0
2019/11/28 05:23:00	BASE	0.00	288	1.23	337	0.0	100	0.0	1	0	999.7	NA	0.0000		9999	16240	0	0	0
2019/11/28 05:24:01	BASE	0.00	263	1.23	337	0.1	100	0.1	1	0	999.7	NA	0.0000		9999	13880	16340	0	0
2019/11/28 05:25:01	BASE	0.00	257	1.23	337	0.1	100	0.1	1	0	999.7	NA	0.0000		9999	16240	0	0	0
2019/11/28 05:26:01	BASE	0.00	252	1.23	337	0.1	100	0.1	1	0	999.7	NA	0.0000		9999	13680	16180	0	0
2019/11/28 05:27:01	BASE	0.00	241	M	M	0.1	100	0.1	1	0	999.6	NA	0.0000		9999	13620	16140	0	0
2019/11/28 05:28:01	BASE	0.00	238	M	M	0.2	100	0.2	1	0	999.6	NA	0.0000		9999	13650	0	0	0
2019/11/28 05:29:02	BASE	0.00	243	M	M	0.1	100	0.1	1	0	999.6	NA	0.0000		9999	13620	16370	0	0
2019/11/28 05:30:01	BASE	0.18	252	1.13	256	0.1	100	0.1	1	0	999.6	NA	0.0000		9999	13550	0	0	0
2019/11/28 05:31:01	BASE	0.52	254	1.29	250	0.1	100	0.1	1	0	999.6	NA	0.0000		9999	13390	0	0	0
2019/11/28 05:32:00	BASE	0.34	250	1.29	250	0.1	100	0.1	1	0	999.6	NA	0.0000		9999	13420	0	0	0
2019/11/28 05:33:01	BASE	0.00	251	1.29	250	0.1	100	0.1	1	0	999.6	NA	0.0000		9999	13320	0	0	0
2019/11/28 05:34:01	BASE	0.00	246	1.29	250	0.2	100	0.2	1	0	999.6	NA	0.0000		9999	13350	0	0	0
2019/11/28 05:35:01	BASE	0.00	244	1.29	250	0.2	100	0.2	1	0	999.6	NA	0.0000		9999	13320	0	0	0
2019/11/28 05:36:00	BASE	0.00	244	1.29	250	0.2	100	0.2	2	0	999.6	NA	0.0000		9999	13320	0	0	0
2019/11/28 05:37:01	BASE	0.00	230	1.29	250	0.2	100	0.2	2	0	999.6	NA	0.0000		9999	13290	16470	0	0
2019/11/28 05:38:00	BASE	0.00	220	1.29	250	0.3	100	0.3	2	0	999.6	NA	0.0000		9999	13060	0	0	0
2019/11/28 05:39:01	BASE	0.00	209	1.29	250	0.3	100	0.3	2	0	999.6	NA	0.0000		9999	13190	0	0	0
2019/11/28 05:40:01	BASE	0.00	201	1.29	250	0.3	100	0.3	2	0	999.6	NA	0.0000		9999	12990	0	0	0
2019/11/28 05:41:01	BASE	0.00	191	M	M	0.2	100	0.2	2	0	999.6	NA	0.0000		9999	12760	13390	0	0
2019/11/28 05:42:01	BASE	0.00	179	M	M	0.2	100	0.2	2	0	999.5	NA	0.0000		9999	13290	16270	0	0
2019/11/28 05:43:01	BASE	0.00	180	M	M	0.2	100	0.2	2	0	999.5	NA	0.0000		9999	12860	13780	16310	0
2019/11/28 05:44:01	BASE	0.00	185	M	M	0.2	100	0.2	2	0	999.5	NA	0.0000		9999	13390	16340	0	0
2019/11/28 05:45:01	BASE	0.00	195	M	M	0.2	100	0.2	2	0	999.5	NA	0.0000		9999	12570	13260	16310	0
2019/11/28 05:46:01	BASE	0.00	204	M	M	0.2	100	0.2	3	0	999.5	NA	0.0000		9999	12140	13390	16310	0
2019/11/28 05:47:01	BASE	0.00	200	M	M	0.2	100	0.2	3	0	999.5	NA	0.0000		9999	11710	13620	16180	0
2019/11/28 05:48:02	BASE	0.00	199	M	M	0.2	100	0.2	3	0	999.5	NA	0.0000		9999	11710	13060	0	0
2019/11/28 05:49:01	BASE	0.00	200	M	M	0.2	100	0.2	3	0	999.5	NA	0.0000		9999	11480	12660	0	0
2019/11/28 05:50:01	BASE	0.00	117	M	M	0.2	100	0.2	3	0	999.5	NA	0.0000		9999	11290	0	0	0
2019/11/28 05:51:01	BASE	0.00	33	M	M	0.2	100	0.2	4	0	999.4	NA	0.0000		9999	11190	0	0	0
2019/11/28 05:52:02	BASE	0.00	41	M	M	0.2	100	0.2	4	0	999.4	NA	0.0000		9999	11090	12660	0	0
2019/11/28 05:53:02	BASE	0.00	41	M	M	0.2	100	0.2	4	0	999.5	NA	0.0000		9999	10990	12210	13260	0
2019/11/28 05:54:02	BASE	0.00	41	M	M	0.1	100	0.1	5	0	999.5	NA	0.0000		9999	11090	12040	0	0
2019/11/28 05:55:01	BASE	0.00	45	M	M	0.1	100	0.1	5	0	999.5	NA	0.0000		9999	11250	12240	0	0
2019/11/28 05:56:02	BASE	0.00	49	M	M	0.0	100	0.0	5	0	999.5	NA	0.0000		9999	11060	12240	0	0
2019/11/28 05:57:01	BASE	0.18	51	1.08	62	0.0	100	0.0	5	0	999.5	NA	0.0000		9999	10830	12140	0	0
2019/11/28 05:58:01	BASE	0.46	61	1.18	68	0.0	100	0.0	5	0	999.5	NA	0.0000		9999	12140	0	0	0
2019/11/28 05:59:01	BASE	0.68	66	1.29	61	0.0	100	0.0	5	0	999.5	NA	0.0000		9999	12140	0	0	0
2019/11/28 06:00:01	BASE	1.00	63	1.34	63	0.1	100	0.1	5	0	999.5	NA	0.0000		9999	12040	0	0	0
2019/11/28 06:01:02	BASE	1.16	58	1.34	63	0.1	100	0.1	5	0	999.6	NA	0.0000		9999	12070	0	0	0
2019/11/28 06:02:01	BASE	0.65	51	1.34	63	0.1	100	0.1	5	0	999.6	NA	0.0000		9999	12070	0	0	0
2019/11/28 06:03:01	BASE	0.09	47	1.34	63	0.1	100	0.1	5	0	999.6	NA	0.0000		9999	12010	0	0	0
2019/11/28 06:04:02	BASE	0.13	44	1.34	63	0.1	100	0.1	5	0	999.6	NA	0.0000		9999	11910	0	0	0
2019/11/28 06:05:01	BASE	0.57	45	1.34	63	0.2	100	0.2	4	0	999.6	NA	0.0000		9999	11750	0	0	0
2019/11/28 06:06:01	BASE	0.44	51	1.34	63	0.2	100	0.2	4	0	999.6	NA	0.0000		9999	11710	0	0	0
2019/11/28 06:07:01	BASE	0.00	55	1.34	63	0.2	100	0.2	4	0	999.6	NA	0.0000		9999	11610	0	0	0
2019/11/28 06:08:01	BASE	0.00	61	1.34	63	0.2	100	0.2	4	0	999.6	NA	0.0000		9999	11580	0	0	0
2019/11/28 06:09:01	BASE	0.00	67	1.34	63	0.3	100	0.2	3	0	999.6	NA	0.0000		9999	11480	0	0	0
2019/11/28 06:10:01	BASE	0.00	69	1.18	53	0.3	100	0.3	3	0	999.5	NA	0.0000		9999	11550	0	0	0
2019/11/28 06:11:01	BASE	0.00	76	1.08	49	0.3	100	0.3	3	0	999.5	NA	0.0000		9999	11550	0	0	0
2019/11/28 06:12:00	BASE	0.00	90	1.08	49	0.3	100	0.3	3	0	999.5	NA	0.0000		9999	11550	12340	0	0
2019/11/28 06:13:01	BASE	0.00	107	1.08	49	0.4	100	0.4	3	0	999.5	NA	0.0000		9999	11550	0	0	0
2019/11/28 06:14:01	BASE	0.00	124	1.08	49	0.4	100	0.4	2	0	999.5	NA	0.0000		9999	11520	12340	0	0
2019/11/28 06:15:01	BASE	0.00	113	M	M	0.5	100	0.5	2	0	999.6	NA	0.0000		9999	11520	12210	0	0
2019/11/28 06:16:00	BASE	0.00	92	M	M	0.5	100	0.5	2	0	999.6	NA	0.0000		9999	11550	12040	0	0
2019/11/28 06:17:01	BASE	0.00	79	M	M	0.5	100	0.5	2	0	999.6	NA	0.0000		9999	11580	0	0	0
2019/11/28 06:18:00	BASE	0.00	63	M	M	0.5	100	0.5	2	0	999.6	NA	0.0000		9999	11420	11910	0	0
2019/11/28 06:19:00	BASE	0.18	54	1.18	53	0.6	100	0.6	2	0	999.6	NA	0.0000		9999	11390	0	0	0
2019/11/28 06:20:00	BASE	0.32	50	1.18	53	0.6	100	0.6	2	0	999.6	NA	0.0000		9999	11320	0	0	0
2019/11/28 06:21:00	BASE	0.13	48	1.18	53	0.6	100	0.6	2	0	999.6	NA	0.0000		9999	11350	0	0	0
2019/11/28 06:22:01	BASE	0.00	47	1.18	53	0.6	100	0.6	2	0	999.6	NA	0.0000		9999	11420	0	0	0
2019/11/28 06:23:01	BASE	0.00	47	1.18	53	0.6	100	0.6	2	0	999.6	NA	0.0000		9999	11350	0	0	0
2019/11/28 06:24:01	BASE	0.09	50	1.18	53	0.6	100	0.6	2	0	999.6	NA	0.0000		9999	11320	0	0	0
2019/11/28 06:25:01	BASE	0.09	52	1.18	53	0.6	100	0.6	3	0	999.6	NA	0.0000		9999	11350	0	0	0
2019/11/28 06:26:01	BASE	0.00	49	1.18	53	0.7	100	0.7	3	0	999.6	NA	0.0000		9999	11320	0	0	0
2019/11/28 06:27:02	BASE	0.00	43	1.18	53	0.7	100	0.7	3	0	999.6	NA	0.0000		9999	11290	0	0	0
2019/11/28 06:28:01	BASE	0.00	38	1.18	53	0.7	100	0.7	3	0	999.6	NA	0.0000		9999	11220	0	0	0
2019/11/28 06:29:01	BASE	0.00	34	1.13	46	0.7	100	0.7	3	0	999.6	NA	0.0000		9999	11250	0	0	0
2019/11/28 06:30:00	BASE	0.00	31	1.08	54	0.7	100	0.7	3	0	999.7	NA	0.0000		9999	11250	0	0	0
2019/11/28 06:31:01	BASE	0.00	37	1.08	54	0.6	100	0.6	3	0	999.7	NA	0.0000		9999	11190	0	0	0
2019/11/28 06:32:01	BASE	0.00	45	1.08	54	0.6	100	0.6	3	0	999.7	NA	0.0000		9999	11160	0	0	0
2019/11/28 06:33:01	BASE	0.00	47	1.08	54	0.6	100	0.6	3	0	999.7	NA	0.0000		9999	11090	0	0	0
2019/11/28 06:34:02	BASE	0.00	48	M	M	0.6	100	0.6	3	0	999.7	NA	0.0000		9999	10790	0	0	0
2019/11/28 06:35:01	BASE	0.00	60	M	M	0.6	100	0.6	3	0	999.7	NA	0.0000		9999	10790	0	0	0
2019/11/28 06:36:00	BASE	0.00	75	M	M	0.6	100	0.6	3	0	999.7	NA	0.0000		9999	10790	0	0	0
2019/11/28 06:37:01	BASE	0.00	78	M	M	0.6	100	0.6	3	0	999.7	NA	0.0000		9999	10790	0	0	0
2019/11/28 06:38:01	BASE	0.00	78	M	M	0.7	100	0.7	3	0	999.6	NA	0.0000		9999	10760	0	0	0
2019/11/28 06:39:01	BASE	0.00	88	M	M	0.7	100	0.7	3	0	999.6	NA	0.0000		9999	10730	0	0	0
2019/11/28 06:40:02	BASE	0.00	99	M	M	0.7	100	0.7	3	0	999.6	NA	0.0000		9999	10760	0	0	0
2019/11/28 06:41:01	BASE	0.00	101	M	M	0.7	100	0.7	3	0	999.6	NA	0.0000		9999	10700	0	0	0
2019/11/28 06:42:00	BASE	0.00	100	M	M	0.7	100	0.7	3	0	999.6	NA	0.0000		9999	10600	0	0	0
2019/11/28 06:43:01	BASE	0.00	100	M	M	0.8	100	0.8	3	0	999.6	NA	0.0000		9999	10600	0	0	0
2019/11/28 06:44:01	BASE	0.00	100	M	M	0.8	100	0.8	3	0	999.7	NA	0.0000		9999	10470	0	0	0
2019/11/28 06:45:01	BASE	0.00	108	M	M	0.8	100	0.8	3	0	999.7	NA	0.0000		9999	10530	0	0	0
2019/11/28 06:46:02	BASE	0.00	126	M	M	0.8	100	0.8	4	0	999.7	NA	0.0000		9999	10400	0	0	0
2019/11/28 06:47:02	BASE	0.00	135	M	M	0.9	100	0.9	4	0	999.6	NA	0.0000		9999	10470	0	0	0
2019/11/28 06:48:01	BASE	0.00	135	M	M	0.9	100	0.9	4	0	999.6	NA	0.0000		9999	10270	0	0	0
2019/11/28 06:49:02	BASE	0.00	135	M	M	0.9	100	0.9	4	0	999.6	NA	0.0000		9999	10340	0	0	0
2019/11/28 06:50:00	BASE	0.00	135	M	M	0.9	100	0.9	4	0	999.6	NA	0.0000		9999	10200	0	0	0
2019/11/28 06:51:01	BASE	0.00	135	M	M	0.9	100	0.9	4	0	999.7	NA	0.0000		9999	10140	0	0	0
2019/11/28 06:52:01	BASE	0.00	116	M	M	0.9	100	0.9	4	0	999.7	NA	0.0000		9999	10200	0	0	0
2019/11/28 06:53:01	BASE	0.00	47	M	M	0.9	100	0.9	4	0	999.7	NA	0.0000		9999	10040	0	0	0
2019/11/28 06:54:02	BASE	0.17	18	1.08	11	0.9	100	0.9	5	0	999.7	NA	0.0000		9999	9880	0	0	0
2019/11/28 06:55:01	BASE	0.78	13	1.34	13	0.9	100	0.9	5	0	999.7	NA	0.0000		9999	9740	0	0	0
2019/11/28 06:56:00	BASE	1.29	12	1.39	12	0.8	100	0.8	5	0	999.7	NA	0.0000		9999	9880	0	0	0
2019/11/28 06:57:02	BASE	1.38	12	1.44	11	0.8	100	0.8	5	0	999.7	NA	0.0000		9999	9840	0	0	0
2019/11/28 06:58:01	BASE	1.41	14	1.44	19	0.7	100	0.7	6	0	999.7	NA	0.0000		9999	9610	0	0	0
2019/11/28 06:59:01	BASE	1.48	20	1.54	26	0.7	100	0.7	6	0	999.7	NA	0.0000		9999	9450	0	0	0
2019/11/28 07:00:01	BASE	1.56	25	1.65	27	0.6	100	0.6	7	0	999.7	NA	0.0000		9999	9610	0	0	0
2019/11/28 07:01:00	BASE	1.55	29	1.65	27	0.5	100	0.5	7	0	999.7	NA	0.0000		9999	9480	0	0	0
2019/11/28 07:02:01	BASE	1.50	31	1.65	27	0.5	100	0.5	7	0	999.7	NA	0.0000		9999	9610	0	0	0
2019/11/28 07:03:01	BASE	1.53	30	1.65	27	0.4	100	0.4	8	0	999.7	NA	0.0000		9999	9680	0	0	0
2019/11/28 07:04:01	BASE	1.55	27	1.65	27	0.4	100	0.4	8	0	999.7	NA	0.0000		9999	9380	0	0	0
2019/11/28 07:05:01	BASE	1.58	26	1.65	26	0.4	100	0.4	9	0	999.7	NA	0.0000		9999	9510	0	0	0
2019/11/28 07:06:02	BASE	1.59	25	1.65	24	0.4	100	0.4	9	0	999.7	NA	0.0000		9999	9780	0	0	0
2019/11/28 07:07:02	BASE	1.51	23	1.65	24	0.4	100	0.4	10	0	999.7	NA	0.0000		9999	9680	0	0	0
2019/11/28 07:08:01	BASE	1.40	19	1.65	24	0.4	100	0.4	10	0	999.7	NA	0.0000		9999	9580	0	0	0
2019/11/28 07:09:02	BASE	1.32	14	1.65	24	0.5	100	0.5	10	0	999.7	NA	0.0000		9999	9450	0	0	0
2019/11/28 07:10:01	BASE	1.27	8	1.65	24	0.5	100	0.5	11	0	999.7	NA	0.0000		9999	9650	0	0	0
2019/11/28 07:11:02	BASE	1.32	7	1.65	24	0.5	100	0.5	11	0	999.7	NA	0.0000		9999	9650	0	0	0
2019/11/28 07:12:01	BASE	1.47	14	1.65	24	0.6	100	0.6	11	0	999.7	NA	0.0000		9999	9480	0	0	0
2019/11/28 07:13:01	BASE	1.65	21	1.80	21	0.6	100	0.6	12	0	999.7	NA	0.0000		9999	9450	0	0	0
2019/11/28 07:14:01	BASE	1.66	18	1.80	21	0.6	100	0.6	12	0	999.7	NA	0.0000		9999	9420	0	0	0
2019/11/28 07:15:01	BASE	1.52	12	1.80	21	0.6	100	0.6	12	0	999.6	NA	0.0000		9999	9420	0	0	0
2019/11/28 07:16:01	BASE	1.41	11	1.80	21	0.6	100	0.6	13	0	999.6	NA	0.0000		9999	9480	0	0	0
2019/11/28 07:17:01	BASE	1.31	11	1.80	21	0.6	100	0.6	13	0	999.6	NA	0.0000		9999	9480	0	0	0
2019/11/28 07:18:01	BASE	1.24	3	1.80	21	0.6	100	0.6	14	0	999.6	NA	0.0000		9999	9420	0	0	0
2019/11/28 07:19:01	BASE	0.84	357	1.80	21	0.6	100	0.6	14	0	999.6	NA	0.0000		9999	9450	0	0	0
2019/11/28 07:20:01	BASE	0.64	353	1.80	21	0.7	100	0.7	15	0	999.6	NA	0.0000		9999	9380	0	0	0
2019/11/28 07:21:01	BASE	0.45	350	1.80	21	0.7	100	0.7	15	0	999.6	NA	0.0000		9999	9320	0	0	0
2019/11/28 07:22:00	BASE	0.04	350	1.80	21	0.7	100	0.7	16	0	999.6	NA	0.0000		9999	9350	0	0	0
2019/11/28 07:23:00	BASE	0.00	343	1.75	18	0.7	100	0.7	16	0	999.6	NA	0.0000		9999	9420	0	0	0
2019/11/28 07:24:00	BASE	0.00	335	1.54	9	0.7	100	0.7	17	0	999.6	NA	0.0000		9999	9250	0	0	0
2019/11/28 07:25:01	BASE	0.00	327	1.39	12	0.7	100	0.7	17	0	999.6	NA	0.0000		9999	9190	0	0	0
2019/11/28 07:26:01	BASE	0.00	319	1.34	8	0.7	100	0.7	18	0	999.6	NA	0.0000		9999	9320	0	0	0
2019/11/28 07:27:01	BASE	0.00	312	1.29	355	0.8	100	0.8	18	0	999.6	NA	0.0000		9999	9290	0	0	0
2019/11/28 07:28:02	BASE	0.00	310	1.18	348	0.8	100	0.8	19	0	999.6	NA	0.0000		9999	9220	0	0	0
2019/11/28 07:29:01	BASE	0.00	316	1.13	347	0.8	100	0.8	19	0	999.6	NA	0.0000		9999	9190	0	0	0
2019/11/28 07:30:01	BASE	0.09	325	1.08	336	0.8	100	0.8	19	0	999.6	NA	0.0000		9999	9190	0	0	0
2019/11/28 07:31:01	BASE	0.46	332	1.18	338	0.8	100	0.8	19	0	999.6	NA	0.0000		9999	9150	0	0	0
2019/11/28 07:32:01	BASE	1.00	338	1.34	341	0.7	100	0.7	19	0	999.6	NA	0.0000		9999	9150	0	0	0
2019/11/28 07:33:01	BASE	1.23	339	1.34	340	0.7	100	0.7	20	0	999.7	NA	0.0000		9999	9020	0	0	0
2019/11/28 07:34:01	BASE	0.88	336	1.34	340	0.6	100	0.6	20	0	999.7	NA	0.0000		9999	9060	0	0	0
2019/11/28 07:35:01	BASE	0.28	334	1.34	340	0.5	100	0.5	20	0	999.7	NA	0.0000		9999	9150	0	0	0
2019/11/28 07:36:01	BASE	0.00	335	1.34	340	0.4	100	0.4	20	0	999.7	NA	0.0000		9999	9060	0	0	0
2019/11/28 07:37:01	BASE	0.00	326	1.34	340	0.4	100	0.4	19	0	999.7	NA	0.0000		9999	9020	0	0	0
2019/11/28 07:38:01	BASE	0.00	310	1.34	340	0.3	100	0.3	19	0	999.7	NA	0.0000		9999	9060	0	0	0
2019/11/28 07:39:00	BASE	0.00	304	1.34	340	0.3	100	0.3	19	0	999.7	NA	0.0000		9999	9090	0	0	0
2019/11/28 07:40:01	BASE	0.34	305	1.34	340	0.4	100	0.4	19	0	999.7	NA	0.0000		9999	9060	9650	0	0
2019/11/28 07:41:01	BASE	0.93	309	1.34	340	0.4	100	0.4	19	0	999.7	NA	0.0000		9999	9120	0	0	0
2019/11/28 07:42:00	BASE	1.21	311	1.34	310	0.5	100	0.5	19	0	999.7	NA	0.0000		9999	9060	0	0	0
2019/11/28 07:43:01	BASE	1.32	308	1.54	305	0.5	100	0.5	20	0	999.7	NA	0.0000		9999	8960	0	0	0
2019/11/28 07:44:00	BASE	1.40	302	1.54	305	0.5	100	0.5	20	0	999.7	NA	0.0000		9999	9020	0	0	0
2019/11/28 07:45:01	BASE	1.33	283	1.54	305	0.5	100	0.5	21	0	999.7	NA	0.0000		9999	8990	0	0	0
2019/11/28 07:46:01	BASE	1.26	259	1.54	305	0.5	100	0.5	22	0	999.7	NA	0.0000		9999	8960	0	0	0
2019/11/28 07:47:01	BASE	1.38	248	1.75	250	0.6	100	0.6	22	0	999.7	NA	0.0000		9999	8990	0	0	0
2019/11/28 07:48:01	BASE	1.61	247	1.85	248	0.5	100	0.5	23	0	999.7	NA	0.0000		9999	9020	0	0	0
2019/11/28 07:49:01	BASE	1.71	248	1.85	248	0.5	100	0.5	23	0	999.7	NA	0.0000		9999	8920	0	0	0
2019/11/28 07:50:02	BASE	1.69	248	1.85	248	0.5	100	0.5	24	0	999.7	NA	0.0000		9999	8960	0	0	0
2019/11/28 07:51:01	BASE	1.77	247	2.06	246	0.5	100	0.5	25	0	999.7	NA	0.0000		9999	8960	0	0	0
2019/11/28 07:52:01	BASE	1.79	246	2.06	246	0.5	100	0.5	25	0	999.7	NA	0.0000		9999	8830	9680	0	0
2019/11/28 07:53:01	BASE	1.64	248	2.06	246	0.6	100	0.6	26	0	999.7	NA	0.0000		9999	11290	0	0	0
2019/11/28 07:54:02	BASE	1.43	254	2.06	246	0.6	100	0.6	27	0	999.7	NA	0.0000		9999	8860	0	0	0
2019/11/28 07:55:02	BASE	1.34	267	2.06	246	0.7	100	0.7	27	0	999.7	NA	0.0000		9999	8960	0	0	0
2019/11/28 07:56:02	BASE	1.34	277	2.06	246	0.7	100	0.7	28	0	999.7	NA	0.0000		9999	8830	9740	0	0
2019/11/28 07:57:01	BASE	0.94	289	2.06	246	0.8	100	0.8	29	0	999.7	NA	0.0000		9999	8790	0	0	0
2019/11/28 07:58:00	BASE	0.33	322	2.06	246	0.8	100	0.8	29	0	999.7	NA	0.0000		9999	8790	0	0	0
2019/11/28 07:59:01	BASE	0.19	2	2.06	246	0.8	100	0.8	30	0	999.7	NA	0.0000		9999	8790	0	0	0
2019/11/28 08:00:01	BASE	0.14	15	2.06	246	0.7	100	0.7	30	0	999.7	NA	0.0000		9999	8730	0	0	0
2019/11/28 08:01:01	BASE	0.00	18	1.85	246	0.6	100	0.6	31	0	999.7	NA	0.0000		9999	8730	0	0	0
2019/11/28 08:02:01	BASE	0.00	28	1.65	249	0.5	100	0.5	32	0	999.7	NA	0.0000		9999	8760	0	0	0
2019/11/28 08:03:01	BASE	0.00	34	1.44	272	0.4	100	0.4	33	0	999.7	NA	0.0000		9999	8830	9450	0	0
2019/11/28 08:04:02	BASE	0.00	30	1.44	272	0.4	100	0.4	33	0	999.7	NA	0.0000		9999	9480	0	0	0
2019/11/28 08:05:01	BASE	0.05	32	1.39	281	0.4	100	0.4	34	0	999.7	NA	0.0000		9999	9380	0	0	0
2019/11/28 08:06:01	BASE	0.05	42	1.23	282	0.5	100	0.5	34	0	999.7	NA	0.0000		9999	11290	0	0	0
2019/11/28 08:07:01	BASE	0.00	40	1.18	17	0.5	100	0.5	35	0	999.7	NA	0.0000		9999	7050	0	0	0
2019/11/28 08:08:01	BASE	0.00	28	1.18	17	0.6	100	0.6	35	0	999.7	NA	0.0000		9999	11350	0	0	0
2019/11/28 08:09:01	BASE	0.00	358	1.08	34	0.6	100	0.6	36	0	999.7	NA	0.0000		9999	9380	0	0	0
2019/11/28 08:10:01	BASE	0.00	320	1.08	34	0.6	100	0.6	36	0	999.7	NA	0.0000		9999	11390	0	0	0
2019/11/28 08:11:02	BASE	0.00	306	1.08	34	0.6	100	0.6	37	0	999.7	NA	0.0000		9999	11420	0	0	0
2019/11/28 08:12:01	BASE	0.00	306	1.08	34	0.6	100	0.6	37	0	999.7	NA	0.0000		9999	11450	0	0	0
2019/11/28 08:13:01	BASE	0.00	306	1.08	34	0.7	100	0.7	37	0	999.7	NA	0.0000		9999	11250	0	0	0
2019/11/28 08:14:01	BASE	0.00	306	1.08	34	0.7	100	0.7	38	0	999.7	NA	0.0000		9999	11290	0	0	0
2019/11/28 08:15:02	BASE	0.00	298	M	M	0.7	100	0.7	38	0	999.7	NA	0.0000		9999	12110	0	0	0
2019/11/28 08:16:01	BASE	0.00	254	M	M	0.7	100	0.7	38	0	999.7	NA	0.0000		9999	11550	0	0	0
2019/11/28 08:17:01	BASE	0.00	210	M	M	0.7	100	0.7	38	0	999.7	NA	0.0000		9999	11880	0	0	0
2019/11/28 08:18:01	BASE	0.00	198	M	M	0.7	100	0.7	39	0	999.7	NA	0.0000		9999	11840	0	0	0
2019/11/28 08:19:01	BASE	0.00	200	M	M	0.7	100	0.7	39	0	999.7	NA	0.0000		9999	11780	0	0	0
2019/11/28 08:20:01	BASE	0.00	236	M	M	0.7	100	0.7	39	0	999.7	NA	0.0000		9999	11520	0	0	0
2019/11/28 08:21:00	BASE	0.00	297	M	M	0.8	100	0.8	40	0	999.7	NA	0.0000		9999	11580	0	0	0
2019/11/28 08:22:00	BASE	0.00	309	M	M	0.8	100	0.8	40	0	999.6	NA	0.0000		9999	6630	11710	0	0
2019/11/28 08:23:00	BASE	0.00	298	M	M	0.9	100	0.9	41	0	999.7	NA	0.0000		9999	6590	11450	0	0
2019/11/28 08:24:00	BASE	0.00	268	M	M	0.9	100	0.9	41	0	999.7	NA	0.0000		9999	6690	11520	0	0
2019/11/28 08:25:00	BASE	0.00	245	M	M	0.8	100	0.8	41	0	999.7	NA	0.0000		9999	6730	11580	0	0
2019/11/28 08:26:01	BASE	0.00	240	M	M	0.8	100	0.8	41	0	999.7	NA	0.0000		9999	11750	0	0	0
2019/11/28 08:27:00	BASE	0.00	239	M	M	0.8	100	0.8	42	0	999.7	NA	0.0000		9999	8990	0	0	0
2019/11/28 08:28:02	BASE	0.00	251	M	M	0.8	100	0.8	42	0	999.7	NA	0.0000		9999	9190	11550	0	0
2019/11/28 08:29:02	BASE	0.00	287	M	M	0.8	100	0.8	43	0	999.7	NA	0.0000		9999	11580	0	0	0
2019/11/28 08:30:01	BASE	0.00	324	M	M	0.8	100	0.8	43	0	999.7	NA	0.0000		9999	10830	11580	0	0
2019/11/28 08:31:01	BASE	0.00	352	M	M	0.8	100	0.8	44	0	999.7	NA	0.0000		9999	10600	0	0	0
2019/11/28 08:32:02	BASE	0.00	9	M	M	0.8	100	0.8	44	0	999.7	NA	0.0000		9999	10600	0	0	0
2019/11/28 08:33:01	BASE	0.00	17	M	M	0.8	100	0.8	44	0	999.7	NA	0.0000		9999	10660	0	0	0
2019/11/28 08:34:02	BASE	0.00	16	M	M	0.8	100	0.8	44	0	999.7	NA	0.0000		9999	10760	0	0	0
2019/11/28 08:35:01	BASE	0.00	6	M	M	0.8	100	0.8	44	0	999.7	NA	0.0000		9999	10730	0	0	0
2019/11/28 08:36:02	BASE	0.00	352	M	M	0.8	100	0.8	45	0	999.7	NA	0.0000		9999	10630	0	0	0
2019/11/28 08:37:02	BASE	0.00	327	M	M	0.8	100	0.8	45	0	999.7	NA	0.0000		9999	10790	0	0	0
2019/11/28 08:38:02	BASE	0.00	308	M	M	0.8	100	0.8	45	0	999.7	NA	0.0000		9999	10730	0	0	0
2019/11/28 08:39:02	BASE	0.00	308	M	M	0.8	100	0.8	46	0	999.7	NA	0.0000		9999	10830	0	0	0
2019/11/28 08:40:00	BASE	0.00	292	M	M	0.8	100	0.8	46	0	999.7	NA	0.0000		9999	11550	0	0	0
2019/11/28 08:41:01	BASE	0.00	251	M	M	0.8	100	0.8	46	0	999.7	NA	0.0000		9999	12040	0	0	0
2019/11/28 08:42:00	BASE	0.00	235	M	M	0.8	100	0.8	46	0	999.7	NA	0.0000		9999	11580	0	0	0
2019/11/28 08:43:01	BASE	0.00	240	M	M	0.8	100	0.8	46	0	999.7	NA	0.0000		9999	11190	0	0	0
2019/11/28 08:44:01	BASE	0.00	257	M	M	0.9	100	0.9	46	0	999.7	NA	0.0000		9999	11190	0	0	0
2019/11/28 08:45:01	BASE	0.00	286	M	M	0.9	100	0.9	46	0	999.7	NA	0.0000		9999	11160	0	0	0
2019/11/28 08:46:01	BASE	0.00	337	M	M	0.9	100	0.9	46	0	999.7	NA	0.0000		9999	11090	0	0	0
2019/11/28 08:47:00	BASE	0.00	0	M	M	1.0	100	1.0	47	0	999.7	NA	0.0000		9999	11190	0	0	0
2019/11/28 08:48:01	BASE	0.00	0	M	M	1.0	100	1.0	47	0	999.7	NA	0.0000		9999	12110	0	0	0
2019/11/28 08:49:00	BASE	0.00	0	M	M	1.0	100	1.0	47	0	999.7	NA	0.0000		9999	12530	0	0	0
2019/11/28 08:50:01	BASE	0.00	0	M	M	1.0	100	1.0	48	0	999.7	NA	0.0000		9999	12070	0	0	0
2019/11/28 08:51:01	BASE	0.00	0	M	M	1.0	100	1.0	48	0	999.7	NA	0.0000		9999	12070	0	0	0
2019/11/28 08:52:00	BASE	0.00	359	M	M	1.0	100	1.0	48	0	999.7	NA	0.0000		9999	12010	0	0	0
2019/11/28 08:53:01	BASE	0.00	353	M	M	1.0	100	1.0	49	0	999.7	NA	0.0000		9999	12070	0	0	0
2019/11/28 08:54:02	BASE	0.00	343	M	M	1.0	100	1.0	49	0	999.7	NA	0.0000		9999	12240	0	0	0
2019/11/28 08:55:02	BASE	0.00	337	M	M	1.0	100	1.0	48	0	999.7	NA	0.0000		9999	12170	0	0	0
2019/11/28 08:56:01	BASE	0.00	335	M	M	0.9	100	0.9	48	0	999.7	NA	0.0000		9999	12300	0	0	0
2019/11/28 08:57:01	BASE	0.00	308	M	M	0.9	100	0.9	48	0	999.7	NA	0.0000		9999	12470	0	0	0
2019/11/28 08:58:01	BASE	0.53	255	1.49	227	0.8	100	0.8	47	0	999.7	NA	0.0000		9999	12600	0	0	0
2019/11/28 08:59:01	BASE	1.41	226	1.95	217	0.7	100	0.7	46	0	999.7	NA	0.0000		9999	12600	0	0	0
2019/11/28 09:00:00	BASE	1.76	218	1.95	217	0.6	100	0.6	46	0	999.7	NA	0.0000		9999	12700	0	0	0
2019/11/28 09:01:01	BASE	1.52	215	1.95	217	0.5	100	0.5	45	0	999.7	NA	0.0000		9999	12700	0	0	0
2019/11/28 09:02:00	BASE	0.64	206	1.95	217	0.5	100	0.5	44	0	999.7	NA	0.0000		9999	11160	0	0	0
2019/11/28 09:03:00	BASE	0.00	193	1.95	217	0.4	100	0.4	43	0	999.7	NA	0.0000		9999	11420	0	0	0
2019/11/28 09:04:00	BASE	0.00	187	1.95	217	0.4	100	0.4	43	0	999.7	NA	0.0000		9999	11420	0	0	0
2019/11/28 09:05:00	BASE	0.00	119	1.95	217	0.5	100	0.5	43	0	999.7	NA	0.0000		9999	11450	0	0	0
2019/11/28 09:06:02	BASE	0.00	21	1.95	217	0.5	100	0.5	43	0	999.7	NA	0.0000		9999	11190	0	0	0
2019/11/28 09:07:01	BASE	0.00	19	1.95	217	0.6	100	0.6	43	0	999.7	NA	0.0000		9999	11190	0	0	0
2019/11/28 09:08:01	BASE	0.00	18	1.95	217	0.6	100	0.6	43	0	999.7	NA	0.0000		9999	11220	0	0	0
2019/11/28 09:09:01	BASE	0.00	18	1.85	217	0.6	100	0.6	44	0	999.7	NA	0.0000		9999	11220	0	0	0
2019/11/28 09:10:01	BASE	0.00	19	1.49	209	0.7	100	0.7	44	0	999.7	NA	0.0000		9999	11290	0	0	0
2019/11/28 09:11:02	BASE	0.00	65	M	M	0.7	100	0.7	44	0	999.7	NA	0.0000		9999	8760	0	0	0
2019/11/28 09:12:01	BASE	0.00	128	M	M	0.6	100	0.6	45	0	999.7	NA	0.0000		9999	8170	0	0	0
2019/11/28 09:13:02	BASE	0.00	145	M	M	0.6	100	0.6	45	0	999.7	NA	0.0000		9999	9120	0	0	0
2019/11/28 09:14:01	BASE	0.00	170	M	M	0.6	100	0.6	46	0	999.7	NA	0.0000		9999	8560	0	0	0
2019/11/28 09:15:01	BASE	0.00	175	M	M	0.6	100	0.6	46	0	999.7	NA	0.0000		9999	7870	0	0	0
2019/11/28 09:16:02	BASE	0.00	148	M	M	0.6	100	0.6	47	0	999.7	NA	0.0000		9999	7970	0	0	0
2019/11/28 09:17:02	BASE	0.00	130	M	M	0.5	100	0.5	48	0	999.7	NA	0.0000		9999	7610	0	0	0
2019/11/28 09:18:02	BASE	0.00	133	M	M	0.5	100	0.5	49	0	999.7	NA	0.0000		9999	7250	0	0	0
2019/11/28 09:19:02	BASE	0.00	142	M	M	0.5	100	0.5	50	0	999.7	NA	0.0000		9999	6690	0	0	0
2019/11/28 09:20:02	BASE	0.43	154	1.23	162	0.5	100	0.5	51	0	999.7	NA	0.0000		9999	6140	0	0	0
2019/11/28 09:21:02	BASE	1.11	164	1.44	168	0.5	100	0.5	52	0	999.7	NA	0.0000		9999	7380	0	0	0
2019/11/28 09:22:01	BASE	1.38	175	1.44	185	0.5	100	0.5	53	0	999.7	NA	0.0000		9999	8690	0	0	0
2019/11/28 09:23:01	BASE	1.33	184	1.44	185	0.5	100	0.5	54	0	999.7	NA	0.0000		9999	9480	0	0	0
2019/11/28 09:24:02	BASE	1.12	183	1.44	185	0.5	100	0.5	55	0	999.7	NA	0.0000		9999	10700	0	0	0
2019/11/28 09:25:01	BASE	1.13	183	1.44	185	0.5	100	0.5	56	0	999.7	NA	0.0000		9999	9810	0	0	0
2019/11/28 09:26:01	BASE	1.23	186	1.44	185	0.5	100	0.5	56	0	999.8	NA	0.0000		9999	11450	0	0	0
2019/11/28 09:27:02	BASE	1.20	188	1.44	185	0.5	100	0.5	57	0	999.8	NA	0.0000		9999	11390	0	0	0
2019/11/28 09:28:02	BASE	1.36	181	1.65	170	0.4	100	0.4	57	0	999.8	NA	0.0000		9999	11090	0	0	0
2019/11/28 09:29:02	BASE	1.43	174	1.65	170	0.4	100	0.4	58	0	999.8	NA	0.0000		9999	11090	0	0	0
2019/11/28 09:30:01	BASE	1.39	171	1.65	170	0.4	100	0.4	59	0	999.8	NA	0.0000		9999	11550	0	0	0
2019/11/28 09:31:01	BASE	1.44	167	1.65	170	0.4	100	0.4	59	0	999.8	NA	0.0000		9999	12140	0	0	0
2019/11/28 09:32:01	BASE	1.43	168	1.65	170	0.4	100	0.4	60	0	999.8	NA	0.0000		9999	11680	0	0	0
2019/11/28 09:33:01	BASE	1.41	167	1.65	170	0.4	100	0.4	61	0	999.8	NA	0.0000		9999	9740	0	0	0
2019/11/28 09:34:01	BASE	1.31	162	1.65	170	0.4	100	0.4	62	0	999.8	NA	0.0000		9999	10040	0	0	0
2019/11/28 09:35:01	BASE	0.97	158	1.65	170	0.4	100	0.4	63	0	999.8	NA	0.0000		9999	11160	0	0	0
2019/11/28 09:36:01	BASE	0.75	161	1.65	170	0.4	100	0.4	64	0	999.8	NA	0.0000		9999	11780	0	0	0
2019/11/28 09:37:01	BASE	0.59	162	1.65	170	0.4	100	0.4	65	0	999.8	NA	0.0000		9999	9610	0	0	0
2019/11/28 09:38:01	BASE	0.22	157	1.54	167	0.4	100	0.4	66	0	999.8	NA	0.0000		9999	8960	0	0	0
2019/11/28 09:39:01	BASE	0.00	144	1.54	167	0.4	100	0.4	67	0	999.8	NA	0.0000		9999	9220	0	0	0
2019/11/28 09:40:01	BASE	0.00	135	1.54	167	0.4	100	0.4	67	0	999.8	NA	0.0000		9999	10300	0	0	0
2019/11/28 09:41:01	BASE	0.00	150	1.54	167	0.4	100	0.4	68	0	999.8	NA	0.0000		9999	9710	0	0	0
2019/11/28 09:42:01	BASE	0.00	176	1.54	167	0.4	100	0.4	69	0	999.8	NA	0.0000		9999	10040	0	0	0
2019/11/28 09:43:01	BASE	0.00	193	1.29	160	0.3	100	0.3	70	0	999.8	NA	0.0000		9999	10170	0	0	0
2019/11/28 09:44:01	BASE	0.00	189	1.18	163	0.3	100	0.3	70	0	999.8	NA	0.0000		9999	8300	0	0	0
2019/11/28 09:45:02	BASE	0.00	170	1.18	163	0.4	100	0.4	71	0	999.8	NA	0.0000		9999	10730	0	0	0
2019/11/28 09:46:02	BASE	0.00	151	1.08	160	0.4	100	0.4	72	0	999.8	NA	0.0000		9999	8760	0	0	0
2019/11/28 09:47:02	BASE	0.00	135	M	M	0.4	100	0.4	72	0	999.8	NA	0.0000		9999	8860	0	0	0
2019/11/28 09:48:02	BASE	0.00	110	M	M	0.4	100	0.4	73	0	999.8	NA	0.0000		9999	8330	0	0	0
2019/11/28 09:49:02	BASE	0.00	82	M	M	0.4	100	0.4	73	0	999.8	NA	0.0000		9999	8530	0	0	0
2019/11/28 09:50:01	BASE	0.00	57	M	M	0.4	100	0.4	74	0	999.8	NA	0.0000		9999	12400	0	0	0
2019/11/28 09:51:02	BASE	0.56	45	1.34	45	0.4	100	0.4	74	0	999.8	NA	0.0000		9999	12500	0	0	0
2019/11/28 09:52:01	BASE	1.21	43	1.44	45	0.5	100	0.5	75	0	999.8	NA	0.0000		9999	12570	0	0	0
2019/11/28 09:53:02	BASE	1.19	40	1.44	45	0.6	100	0.6	76	0	999.7	NA	0.0000		9999	12500	0	0	0
2019/11/28 09:54:02	BASE	0.57	36	1.44	45	0.7	100	0.7	77	0	999.7	NA	0.0000		9999	12470	0	0	0
2019/11/28 09:55:01	BASE	0.04	36	1.44	45	0.7	100	0.7	77	0	999.7	NA	0.0000		9999	8370	0	0	0
2019/11/28 09:56:01	BASE	0.00	35	1.44	45	0.7	100	0.7	78	0	999.7	NA	0.0000		9999	11810	0	0	0
2019/11/28 09:57:01	BASE	0.00	34	1.44	45	0.7	100	0.7	79	0	999.7	NA	0.0000		9999	11980	0	0	0
2019/11/28 09:58:00	BASE	0.00	46	1.44	45	0.7	100	0.7	79	0	999.7	NA	0.0000		9999	11450	0	0	0
2019/11/28 09:59:01	BASE	0.00	122	1.44	45	0.7	100	0.7	80	0	999.7	NA	0.0000		9999	8270	0	0	0
2019/11/28 10:00:01	BASE	0.00	193	1.44	45	0.7	100	0.7	81	0	999.7	NA	0.0000		9999	12300	0	0	0
2019/11/28 10:01:02	BASE	0.00	210	1.44	45	0.7	100	0.7	82	0	999.7	NA	0.0000		9999	12430	0	0	0
2019/11/28 10:02:01	BASE	0.00	204	1.29	39	0.6	100	0.6	82	0	999.7	NA	0.0000		9999	11980	0	0	0
2019/11/28 10:03:00	BASE	0.00	188	1.03	36	0.5	100	0.5	83	0	999.7	NA	0.0000		9999	11980	0	0	0
2019/11/28 10:04:00	BASE	0.00	176	M	M	0.4	100	0.4	84	0	999.7	NA	0.0000		9999	12140	0	0	0
2019/11/28 10:05:00	BASE	0.00	177	M	M	0.4	100	0.4	84	0	999.7	NA	0.0000		9999	11910	0	0	0
2019/11/28 10:06:00	BASE	0.00	190	M	M	0.3	100	0.3	85	0	999.7	NA	0.0000		9999	12170	0	0	0
2019/11/28 10:07:01	BASE	0.31	203	1.13	203	0.3	100	0.3	85	0	999.7	NA	0.0000		9999	11910	0	0	0
2019/11/28 10:08:00	BASE	0.36	204	1.13	203	0.2	100	0.2	86	0	999.7	NA	0.0000		9999	12070	0	0	0
2019/11/28 10:09:00	BASE	0.04	201	1.13	203	0.2	100	0.2	86	0	999.7	NA	0.0000		9999	8730	0	0	0
2019/11/28 10:10:00	BASE	0.00	188	1.13	203	0.2	100	0.2	87	0	999.7	NA	0.0000		9999	12070	0	0	0
2019/11/28 10:11:02	BASE	0.00	178	1.13	203	0.2	100	0.2	87	0	999.7	NA	0.0000		9999	12270	0	0	0
2019/11/28 10:12:00	BASE	0.00	159	1.13	203	0.2	100	0.2	87	0	999.8	NA	0.0000		9999	12110	0	0	0
2019/11/28 10:13:01	BASE	0.00	126	1.13	203	0.2	100	0.2	87	0	999.8	NA	0.0000		9999	9420	0	0	0
2019/11/28 10:14:00	BASE	0.00	134	1.13	203	0.2	100	0.2	88	0	999.8	NA	0.0000		9999	8660	0	0	0
2019/11/28 10:15:01	BASE	0.00	157	1.13	203	0.2	100	0.2	88	0	999.8	NA	0.0000		9999	11290	0	0	0
2019/11/28 10:16:01	BASE	0.00	161	1.13	203	0.2	100	0.2	89	0	999.8	NA	0.0000		9999	8600	0	0	0
2019/11/28 10:17:01	BASE	0.00	161	1.03	205	0.2	100	0.2	90	0	999.8	NA	0.0000		9999	12210	0	0	0
2019/11/28 10:18:01	BASE	0.00	157	M	M	0.2	100	0.2	91	0	999.8	NA	0.0000		9999	12570	0	0	0
2019/11/28 10:19:01	BASE	0.00	143	M	M	0.2	100	0.2	91	0	999.8	NA	0.0000		9999	12570	0	0	0
2019/11/28 10:20:01	BASE	0.00	125	M	M	0.2	100	0.2	92	0	999.8	NA	0.0000		9999	12210	0	0	0
2019/11/28 10:21:01	BASE	0.00	112	M	M	0.3	100	0.3	93	0	999.8	NA	0.0000		9999	12930	0	0	0
2019/11/28 10:22:00	BASE	0.00	141	M	M	0.3	100	0.3	94	0	999.8	NA	0.0000		9999	11840	0	0	0
2019/11/28 10:23:00	BASE	0.05	177	1.08	177	0.4	100	0.4	95	0	999.8	NA	0.0000		9999	13060	0	0	0
2019/11/28 10:24:00	BASE	0.05	177	1.08	177	0.4	100	0.4	96	0	999.9	NA	0.0000		9999	12600	0	0	0
2019/11/28 10:25:02	BASE	0.00	173	1.08	177	0.3	100	0.3	98	0	999.9	NA	0.0000		9999	12470	0	0	0
2019/11/28 10:26:02	BASE	0.00	169	1.08	177	0.3	100	0.3	99	0	999.9	NA	0.0000		9999	11420	0	0	0
2019/11/28 10:27:01	BASE	0.00	150	1.08	177	0.3	100	0.3	101	0	999.8	NA	0.0000		9999	12370	0	0	0
2019/11/28 10:28:01	BASE	0.00	125	1.08	177	0.3	100	0.3	103	0	999.9	NA	0.0000		9999	12500	0	0	0
2019/11/28 10:29:01	BASE	0.00	127	1.08	177	0.3	100	0.3	106	0	999.9	NA	0.0000		9999	11610	0	0	0
2019/11/28 10:30:01	BASE	0.00	142	1.08	177	0.4	100	0.4	109	0	999.9	NA	0.0000		9999	11810	0	0	0
2019/11/28 10:31:01	BASE	0.04	152	1.08	177	0.4	100	0.4	112	0	999.9	NA	0.0000		9999	12210	0	0	0
2019/11/28 10:32:01	BASE	0.29	158	1.23	164	0.4	100	0.4	115	0	999.9	NA	0.0000		9999	11810	0	0	0
2019/11/28 10:33:01	BASE	0.84	162	1.34	162	0.4	100	0.4	119	0	999.9	NA	0.0000		9999	11420	0	0	0
2019/11/28 10:34:01	BASE	1.24	162	1.39	164	0.4	100	0.4	123	0	999.9	NA	0.0000		9999	10730	0	0	0
2019/11/28 10:35:00	BASE	1.29	165	1.44	162	0.4	100	0.4	127	0	999.9	NA	0.0000		9999	10660	0	0	0
2019/11/28 10:36:01	BASE	1.31	165	1.85	166	0.3	100	0.3	131	0	999.9	NA	0.0000		9999	10600	0	0	0
2019/11/28 10:37:01	BASE	1.59	164	2.06	162	0.3	100	0.3	135	0	999.9	NA	0.0000		9999	12660	0	0	0
2019/11/28 10:38:02	BASE	1.73	168	2.06	162	0.3	100	0.3	138	0	999.9	NA	0.0000		9999	13060	0	0	0
2019/11/28 10:39:01	BASE	1.49	175	2.06	162	0.3	100	0.3	140	0	999.9	NA	0.0000		9999	12400	0	0	0
2019/11/28 10:40:01	BASE	1.50	181	2.06	162	0.2	100	0.2	142	0	999.9	NA	0.0000		9999	13320	0	0	0
2019/11/28 10:41:00	BASE	1.80	185	2.06	186	0.2	100	0.2	144	0	999.9	NA	0.0000		9999	12890	0	0	0
2019/11/28 10:42:00	BASE	1.98	184	2.31	179	0.2	100	0.2	147	0	999.9	NA	0.0000		9999	12400	0	0	0
2019/11/28 10:43:01	BASE	2.00	178	2.31	179	0.2	100	0.2	149	0	999.9	NA	0.0000		9999	13090	0	0	0
2019/11/28 10:44:01	BASE	2.06	174	2.31	171	0.2	100	0.2	151	0	999.9	NA	0.0000		9999	12760	0	0	0
2019/11/28 10:45:01	BASE	2.08	172	2.31	171	0.2	100	0.2	154	0	999.9	NA	0.0000		9999	10430	0	0	0
2019/11/28 10:46:00	BASE	1.95	171	2.31	171	0.2	100	0.2	156	0	999.9	NA	0.0000		9999	10400	0	0	0
2019/11/28 10:47:00	BASE	1.85	170	2.31	171	0.2	100	0.2	159	0	999.9	NA	0.0000		9999	10430	0	0	0
2019/11/28 10:48:00	BASE	1.84	172	2.31	171	0.3	100	0.2	161	0	999.8	NA	0.0000		9999	10340	0	0	0
2019/11/28 10:49:01	BASE	1.76	173	2.31	171	0.3	100	0.3	163	0	999.8	NA	0.0000		9999	10070	0	0	0
2019/11/28 10:50:01	BASE	1.33	174	2.31	171	0.3	100	0.3	165	0	999.8	NA	0.0000		9999	10660	0	0	0
2019/11/28 10:51:00	BASE	0.54	175	2.31	171	0.3	100	0.3	167	0	999.8	NA	0.0000		9999	10600	11120	0	0
2019/11/28 10:52:00	BASE	0.05	167	2.31	171	0.4	100	0.3	169	0	999.8	NA	0.0000		9999	10660	0	0	0
2019/11/28 10:53:00	BASE	0.00	122	2.31	171	0.4	100	0.4	171	0	999.8	NA	0.0000		9999	10530	0	0	0
2019/11/28 10:54:01	BASE	0.00	62	2.16	178	0.4	100	0.4	172	0	999.9	NA	0.0000		9999	10400	0	0	0
2019/11/28 10:55:00	BASE	0.00	38	2.11	180	0.5	100	0.5	175	0	999.9	NA	0.0000		9999	13620	0	0	0
2019/11/28 10:56:01	BASE	0.40	28	1.95	170	0.6	100	0.6	180	0	999.9	NA	0.0000		9999	13220	0	0	0
2019/11/28 10:57:01	BASE	1.00	25	1.95	170	0.7	100	0.7	184	0	999.9	NA	0.0000		9999	11390	0	0	0
2019/11/28 10:58:01	BASE	1.36	23	1.95	170	0.7	100	0.7	186	0	999.9	NA	0.0000		9999	13650	0	0	0
2019/11/28 10:59:01	BASE	1.58	22	1.75	19	0.6	100	0.6	189	0	999.9	NA	0.0000		9999	11090	12270	0	0
2019/11/28 11:00:02	BASE	1.66	20	1.75	22	0.5	100	0.5	192	0	999.8	NA	0.0000		9999	11160	0	0	0
2019/11/28 11:01:01	BASE	1.57	21	1.75	22	0.4	100	0.4	194	0	999.8	NA	0.0000		9999	13750	0	0	0
2019/11/28 11:02:00	BASE	1.43	23	1.75	22	0.3	100	0.3	196	0	999.9	NA	0.0000		9999	9680	0	0	0
2019/11/28 11:03:01	BASE	1.40	25	1.75	22	0.2	100	0.2	198	0	999.9	NA	0.0000		9999	9650	0	0	0
2019/11/28 11:04:00	BASE	1.37	25	1.75	22	0.2	100	0.2	201	0	999.9	NA	0.0000		9999	9650	0	0	0
2019/11/28 11:05:00	BASE	1.35	23	1.75	22	0.2	100	0.2	205	0	999.9	NA	0.0000		9999	14040	0	0	0
2019/11/28 11:06:01	BASE	1.43	25	1.75	22	0.2	100	0.2	209	0	999.9	NA	0.0000		9999	9650	0	0	0
2019/11/28 11:07:01	BASE	1.34	24	1.75	22	0.2	100	0.2	213	0	999.8	NA	0.0000		9999	9610	0	0	0
2019/11/28 11:08:01	BASE	1.24	19	1.75	22	0.2	100	0.2	218	0	999.8	NA	0.0000		9999	9580	0	0	0
2019/11/28 11:09:01	BASE	1.57	25	2.01	36	0.2	100	0.2	223	0	999.8	NA	0.0000		9999	9550	0	0	0
2019/11/28 11:10:01	BASE	1.88	36	2.01	35	0.2	100	0.2	228	0	999.8	NA	0.0000		9999	9510	0	0	0
2019/11/28 11:11:02	BASE	1.84	37	2.01	35	0.3	100	0.3	232	0	999.8	NA	0.0000		9999	9550	0	0	0
2019/11/28 11:12:01	BASE	1.64	31	2.01	35	0.3	100	0.3	234	0	999.8	NA	0.0000		9999	13390	0	0	0
2019/11/28 11:13:01	BASE	1.42	16	2.01	35	0.3	100	0.3	235	0	999.8	NA	0.0000		9999	13320	0	0	0
2019/11/28 11:14:00	BASE	1.31	10	2.01	35	0.2	100	0.2	236	0	999.8	NA	0.0000		9999	12600	0	0	0
2019/11/28 11:15:01	BASE	1.21	12	2.01	35	0.2	100	0.2	236	0	999.8	NA	0.0000		9999	10700	12500	0	0
2019/11/28 11:16:01	BASE	1.14	14	2.01	35	0.3	100	0.3	238	0	999.8	NA	0.0000		9999	10990	0	0	0
2019/11/28 11:17:00	BASE	1.02	11	2.01	35	0.3	100	0.3	239	0	999.8	NA	0.0000		9999	13350	0	0	0
2019/11/28 11:18:00	BASE	0.82	1	2.01	35	0.4	100	0.4	239	0	999.8	NA	0.0000		9999	10730	0	0	0
2019/11/28 11:19:01	BASE	0.98	357	2.01	35	0.4	100	0.4	239	0	999.8	NA	0.0000		9999	10730	11390	0	0
2019/11/28 11:20:00	BASE	1.33	353	1.85	38	0.5	100	0.5	241	0	999.8	NA	0.0000		9999	10760	0	0	0
2019/11/28 11:21:01	BASE	1.27	352	1.65	34	0.5	100	0.5	243	0	999.8	NA	0.0000		9999	10700	0	0	0
2019/11/28 11:22:01	BASE	0.60	349	1.54	360	0.5	100	0.5	246	0	999.8	NA	0.0000		9999	9420	0	0	0
2019/11/28 11:23:01	BASE	0.04	342	1.54	360	0.6	100	0.6	248	0	999.9	NA	0.0000		9999	9480	0	0	0
2019/11/28 11:24:00	BASE	0.00	342	1.54	360	0.7	100	0.7	250	0	999.9	NA	0.0000		9999	9480	0	0	0
2019/11/28 11:25:00	BASE	0.00	340	1.54	360	0.8	100	0.8	252	0	999.9	NA	0.0000		9999	9420	0	0	0
2019/11/28 11:26:00	BASE	0.00	338	1.54	360	0.8	100	0.8	255	0	999.9	NA	0.0000		9999	9380	0	0	0
2019/11/28 11:27:01	BASE	0.00	329	1.54	360	0.9	100	0.9	260	0	999.9	NA	0.0000		9999	9420	0	0	0
2019/11/28 11:28:00	BASE	0.00	326	1.54	360	0.9	100	0.9	265	0	999.9	NA	0.0000		9999	9380	23160	0	0
2019/11/28 11:29:01	BASE	0.00	333	1.49	352	1.0	100	1.0	270	0	999.9	NA	0.0000		9999	9420	0	0	0
2019/11/28 11:30:00	BASE	0.00	347	1.44	360	1.0	100	1.0	274	0	999.8	NA	0.0000		9999	9420	0	0	0
2019/11/28 11:31:00	BASE	0.00	22	1.03	338	1.1	100	1.1	276	0	999.8	NA	0.0000		9999	9350	0	0	0
2019/11/28 11:32:00	BASE	0.00	60	M	M	1.2	100	1.2	277	0	999.8	NA	0.0000		9999	9350	0	0	0
2019/11/28 11:33:00	BASE	0.00	29	M	M	1.2	100	1.2	278	0	999.8	NA	0.0000		9999	9350	21290	0	0
2019/11/28 11:34:01	BASE	0.19	359	1.18	360	1.1	100	1.1	282	0	999.8	NA	0.0000		9999	9320	0	0	0
2019/11/28 11:35:00	BASE	0.19	11	1.18	360	1.0	100	1.0	287	0	999.8	NA	0.0000		9999	9290	0	0	0
2019/11/28 11:36:01	BASE	0.00	13	1.18	360	0.9	100	0.9	295	0	999.8	NA	0.0000		9999	9250	0	0	0
2019/11/28 11:37:01	BASE	0.62	359	1.39	341	0.8	100	0.8	306	0	999.8	NA	0.0000		9999	9250	0	0	0
2019/11/28 11:38:01	BASE	1.32	352	1.49	354	0.7	100	0.7	321	0	999.8	NA	0.0000		9999	9250	20930	0	0
2019/11/28 11:39:01	BASE	1.32	4	1.49	354	0.6	100	0.6	336	0	999.8	NA	0.0000		9999	9250	0	0	0
2019/11/28 11:40:01	BASE	0.62	11	1.49	354	0.6	100	0.6	348	0	999.8	NA	0.0000		9999	9250	0	0	0
2019/11/28 11:41:01	BASE	0.09	15	1.49	354	0.6	100	0.6	350	0	999.8	NA	0.0000		9999	9220	0	0	0
2019/11/28 11:42:01	BASE	0.73	10	1.49	354	0.6	100	0.6	359	0	999.8	NA	0.0000		9999	9250	0	0	0
2019/11/28 11:43:01	BASE	1.29	5	1.49	354	0.6	100	0.6	381	0	999.8	NA	0.0000		9999	9250	0	0	0
2019/11/28 11:44:01	BASE	1.21	10	1.49	354	0.6	100	0.6	410	0	999.8	NA	0.0000		9999	9250	0	0	0
2019/11/28 11:45:00	BASE	1.16	19	1.49	354	0.6	100	0.6	502	0	999.8	NA	0.0000		9999	9190	0	0	0
2019/11/28 11:46:01	BASE	1.28	28	1.54	36	0.7	100	0.7	492	0	999.8	NA	0.0000		9999	9220	0	0	0
2019/11/28 11:47:01	BASE	1.36	32	1.54	37	0.8	100	0.8	441	0	999.8	NA	0.0000		9999	9190	0	0	0
2019/11/28 11:48:01	BASE	1.34	26	1.54	41	0.9	100	0.9	441	0	999.8	NA	0.0000		9999	9220	0	0	0
2019/11/28 11:49:01	BASE	1.34	15	1.54	41	1.0	100	1.0	434	0	999.8	NA	0.0000		9999	9220	0	0	0
2019/11/28 11:50:00	BASE	1.37	16	1.54	26	1.1	100	1.1	429	0	999.8	NA	0.0000		9999	9220	0	0	0
2019/11/28 11:51:01	BASE	1.36	20	1.54	26	1.1	100	1.1	438	0	999.8	NA	0.0000		9999	9190	0	0	0
2019/11/28 11:52:01	BASE	1.43	13	1.59	6	1.2	100	1.2	423	0	999.8	NA	0.0000		9999	9250	0	0	0
2019/11/28 11:53:00	BASE	1.48	8	1.65	7	1.2	100	1.2	419	0	999.8	NA	0.0000		9999	9250	0	0	0
2019/11/28 11:54:00	BASE	1.49	7	1.65	7	1.3	100	1.3	415	0	999.8	NA	0.0000		9999	9250	0	0	0
2019/11/28 11:55:01	BASE	1.57	9	1.65	7	1.3	100	1.3	416	0	999.8	NA	0.0000		9999	9810	0	0	0
2019/11/28 11:56:01	BASE	1.67	9	1.85	7	1.2	100	1.2	424	0	999.8	NA	0.0000		9999	12470	0	0	0
2019/11/28 11:57:00	BASE	1.74	10	1.85	7	1.2	100	1.2	417	0	999.8	NA	0.0000		9999	13160	0	0	0
2019/11/28 11:58:00	BASE	1.72	11	1.85	7	1.1	100	1.1	414	0	999.8	NA	0.0000		9999	11420	0	0	0
2019/11/28 11:59:01	BASE	1.60	9	1.85	7	1.1	100	1.1	414	0	999.8	NA	0.0000		9999	11350	0	0	0
2019/11/28 12:00:01	BASE	1.22	8	1.85	7	1.0	100	1.0	429	0	999.8	NA	0.0000		9999	11610	0	0	0
2019/11/28 12:01:01	BASE	0.47	10	1.85	7	1.1	100	1.1	442	0	999.8	NA	0.0000		9999	11480	12430	0	0
2019/11/28 12:02:01	BASE	0.00	38	1.85	7	1.1	100	1.1	434	0	999.8	NA	0.0000		9999	13520	0	0	0
2019/11/28 12:03:01	BASE	0.00	49	1.85	7	1.1	100	1.1	439	0	999.8	NA	0.0000		9999	11980	18310	0	0
2019/11/28 12:04:01	BASE	0.00	37	1.85	7	1.2	100	1.2	427	0	999.8	NA	0.0000		9999	13810	0	0	0
2019/11/28 12:05:01	BASE	0.00	80	1.85	7	1.3	100	1.3	447	0	999.8	NA	0.0000		9999	18210	0	0	0
2019/11/28 12:06:01	BASE	0.00	161	1.80	11	1.4	100	1.4	455	0	999.8	NA	0.0000		9999	13350	0	0	0
2019/11/28 12:07:02	BASE	0.00	177	1.75	10	1.5	100	1.5	418	0	999.8	NA	0.0000		9999	18240	0	0	0
2019/11/28 12:08:01	BASE	0.00	182	1.65	7	1.5	100	1.5	406	0	999.8	NA	0.0000		9999	18240	0	0	0
2019/11/28 12:09:01	BASE	0.00	183	1.49	8	1.5	100	1.5	412	0	999.8	NA	0.0000		9999	18280	0	0	0
2019/11/28 12:10:00	BASE	0.00	182	M	M	1.5	100	1.5	418	0	999.8	NA	0.0000		9999	18370	0	0	0
2019/11/28 12:11:01	BASE	0.00	178	M	M	1.4	100	1.4	454	0	999.8	NA	0.0000		9999	18240	0	0	0
2019/11/28 12:12:00	BASE	0.00	174	M	M	1.4	100	1.4	447	0	999.8	NA	0.0000		9999	18240	0	0	0
2019/11/28 12:13:01	BASE	0.00	172	M	M	1.4	100	1.4	448	0	999.8	NA	0.0000		9999	18310	0	0	0
2019/11/28 12:14:00	BASE	0.00	169	M	M	1.4	100	1.4	520	0	999.8	NA	0.0000		9999	18280	0	0	0
2019/11/28 12:15:00	BASE	0.13	157	1.08	146	1.5	100	1.5	567	0	999.8	NA	0.0000		9999	18080	0	0	0
2019/11/28 12:16:01	BASE	0.40	146	1.08	140	1.5	100	1.5	570	0	999.8	NA	0.0000		9999	18240	0	0	0
2019/11/28 12:17:01	BASE	0.74	149	1.29	164	1.6	100	1.6	612	0	999.8	NA	0.0000		9999	18240	0	0	0
2019/11/28 12:18:01	BASE	0.97	159	1.29	164	1.7	100	1.7	509	0	999.8	NA	0.0000		9999	18240	0	0	0
2019/11/28 12:19:01	BASE	0.87	160	1.29	164	1.8	100	1.8	428	0	999.8	NA	0.0000		9999	18310	0	0	0
2019/11/28 12:20:01	BASE	1.01	163	1.39	172	1.9	100	1.9	402	0	999.8	NA	0.0000		9999	18310	0	0	0
2019/11/28 12:21:01	BASE	1.48	167	1.95	159	1.8	100	1.8	421	0	999.8	NA	0.0000		9999	18280	0	0	0
2019/11/28 12:22:01	BASE	1.71	165	1.95	159	1.8	100	1.8	385	0	999.9	NA	0.0000		9999	18280	0	0	0
2019/11/28 12:23:01	BASE	1.71	167	1.95	159	1.7	100	1.7	386	0	999.8	NA	0.0000		9999	18280	0	0	0
2019/11/28 12:24:01	BASE	1.60	170	1.95	159	1.6	100	1.6	418	0	999.8	NA	0.0000		9999	18210	0	0	0
2019/11/28 12:25:02	BASE	1.51	174	1.95	159	1.6	100	1.6	389	0	999.8	NA	0.0000		9999	18180	0	0	0
2019/11/28 12:26:01	BASE	1.72	175	2.06	174	1.5	100	1.5	377	0	999.8	NA	0.0000		9999	18180	0	0	0
2019/11/28 12:27:01	BASE	1.78	173	2.06	174	1.5	100	1.5	405	0	999.8	NA	0.0000		9999	18210	0	0	0
2019/11/28 12:28:01	BASE	1.50	171	2.06	174	1.5	100	1.5	394	0	999.8	NA	0.0000		9999	0	0	0	0
2019/11/28 12:29:02	BASE	1.54	169	2.06	174	1.4	100	1.4	407	0	999.8	NA	0.0000		9999	0	0	0	0
2019/11/28 12:30:01	BASE	1.71	169	2.06	174	1.4	100	1.4	413	0	999.8	NA	0.0000		9999	0	0	0	0
2019/11/28 12:31:02	BASE	1.54	170	2.06	174	1.5	100	1.5	377	0	999.8	NA	0.0000		9999	0	0	0	0
2019/11/28 12:32:01	BASE	1.42	171	2.06	174	1.5	100	1.5	363	0	999.8	NA	0.0000		9999	13120	0	0	0
2019/11/28 12:33:02	BASE	0.71	152	2.06	174	1.6	100	1.6	356	0	999.8	NA	0.0000		9999	13190	0	0	0
2019/11/28 12:34:02	BASE	0.00	97	2.06	174	1.6	100	1.6	351	0	999.8	NA	0.0000		9999	13090	0	0	0
2019/11/28 12:35:02	BASE	0.00	65	2.06	174	1.7	100	1.7	359	0	999.8	NA	0.0000		9999	13190	0	0	0
2019/11/28 12:36:02	BASE	0.00	65	1.95	168	1.8	100	1.8	362	0	999.8	NA	0.0000		9999	13160	0	0	0
2019/11/28 12:37:01	BASE	0.33	59	1.95	168	1.8	100	1.8	356	0	999.8	NA	0.0000		9999	13030	0	0	0
2019/11/28 12:38:01	BASE	0.88	50	1.95	168	1.8	100	1.8	361	0	999.8	NA	0.0000		9999	13030	0	0	0
2019/11/28 12:39:02	BASE	0.93	41	1.80	169	1.8	100	1.8	374	0	999.7	NA	0.0000		9999	12960	0	0	0
2019/11/28 12:40:01	BASE	0.53	42	1.65	174	1.8	100	1.8	388	0	999.8	NA	0.0000		9999	12990	0	0	0
2019/11/28 12:41:01	BASE	0.33	51	1.65	174	1.8	100	1.8	419	0	999.8	NA	0.0000		9999	12960	0	0	0
2019/11/28 12:42:02	BASE	0.23	49	1.29	58	1.8	100	1.8	398	0	999.8	NA	0.0000		9999	12960	0	0	0
2019/11/28 12:43:01	BASE	0.04	40	1.29	58	1.8	100	1.8	389	0	999.8	NA	0.0000		9999	12930	0	0	0
2019/11/28 12:44:01	BASE	0.00	33	1.29	58	1.8	100	1.8	395	0	999.8	NA	0.0000		9999	12930	0	0	0
2019/11/28 12:45:01	BASE	0.00	25	1.29	58	1.8	100	1.8	423	0	999.8	NA	0.0000		9999	12890	0	0	0
2019/11/28 12:46:01	BASE	0.00	17	1.29	58	1.8	100	1.8	501	0	999.8	NA	0.0000		9999	12860	0	0	0
2019/11/28 12:47:01	BASE	0.00	11	1.29	58	1.8	100	1.8	473	0	999.8	NA	0.0000		9999	12860	0	0	0
2019/11/28 12:48:01	BASE	0.00	13	1.29	58	1.9	100	1.9	468	0	999.8	NA	0.0000		9999	12860	0	0	0
2019/11/28 12:49:01	BASE	0.00	17	1.29	58	1.9	100	1.9	429	0	999.8	NA	0.0000		9999	12860	0	0	0
2019/11/28 12:50:01	BASE	0.00	332	1.18	51	2.0	100	2.0	460	0	999.8	NA	0.0000		9999	12760	0	0	0
2019/11/28 12:51:02	BASE	0.00	290	1.03	43	2.2	100	2.2	452	0	999.8	NA	0.0000		9999	12860	0	0	0
2019/11/28 12:52:00	BASE	0.00	264	M	M	2.2	100	2.2	450	0	999.8	NA	0.0000		9999	12860	0	0	0
2019/11/28 12:53:00	BASE	0.00	245	M	M	2.3	100	2.3	441	0	999.8	NA	0.0000		9999	12890	0	0	0
2019/11/28 12:54:00	BASE	0.14	245	1.18	251	2.3	100	2.3	444	0	999.8	NA	0.0000		9999	12890	0	0	0
2019/11/28 12:55:00	BASE	0.14	236	1.18	251	2.2	100	2.2	409	0	999.8	NA	0.0000		9999	12800	0	0	0
2019/11/28 12:56:01	BASE	0.00	216	1.18	251	2.1	100	2.1	410	0	999.8	NA	0.0000		9999	12890	0	0	0
2019/11/28 12:57:01	BASE	0.04	200	1.18	251	2.0	100	2.0	408	0	999.9	NA	0.0000		9999	12800	0	0	0
2019/11/28 12:58:01	BASE	0.04	186	1.18	251	1.9	100	1.9	413	0	999.9	NA	0.0000		9999	12930	0	0	0
2019/11/28 12:59:02	BASE	0.00	178	1.18	251	1.8	100	1.8	411	0	999.9	NA	0.0000		9999	12800	0	0	0
2019/11/28 13:00:01	BASE	0.00	171	1.18	251	1.8	100	1.8	417	0	999.9	NA	0.0000		9999	12700	0	0	0
2019/11/28 13:01:01	BASE	0.00	168	1.18	251	1.7	100	1.7	442	0	999.9	NA	0.0000		9999	12930	0	0	0
2019/11/28 13:02:01	BASE	0.00	165	1.18	251	1.8	100	1.8	434	0	999.9	NA	0.0000		9999	12860	0	0	0
2019/11/28 13:03:01	BASE	0.00	159	1.18	251	1.8	100	1.8	429	0	999.9	NA	0.0000		9999	12830	0	0	0
2019/11/28 13:04:01	BASE	0.00	157	1.03	187	1.9	100	1.9	432	0	999.9	NA	0.0000		9999	12830	0	0	0
2019/11/28 13:05:01	BASE	0.00	163	1.03	187	2.0	100	2.0	424	0	999.9	NA	0.0000		9999	12800	0	0	0
2019/11/28 13:06:01	BASE	0.00	169	1.03	187	2.0	100	2.0	423	0	999.9	NA	0.0000		9999	12800	0	0	0
2019/11/28 13:07:01	BASE	0.00	168	M	M	2.0	100	2.0	423	0	999.9	NA	0.0000		9999	12830	0	0	0
2019/11/28 13:08:01	BASE	0.00	164	M	M	2.0	100	2.0	440	0	999.8	NA	0.0000		9999	12730	0	0	0
2019/11/28 13:09:01	BASE	0.00	154	M	M	2.1	100	2.1	442	0	999.8	NA	0.0000		9999	12890	0	0	0
2019/11/28 13:10:01	BASE	0.00	147	M	M	2.1	100	2.1	474	0	999.9	NA	0.0000		9999	12830	22930	0	0
2019/11/28 13:11:02	BASE	0.00	147	M	M	2.3	100	2.3	445	0	999.9	NA	0.0000		9999	12830	0	0	0
2019/11/28 13:12:01	BASE	0.00	147	M	M	2.3	100	2.3	429	0	999.9	NA	0.0000		9999	12760	0	0	0
2019/11/28 13:13:01	BASE	0.00	156	M	M	2.3	100	2.3	436	0	999.9	NA	0.0000		9999	12760	0	0	0
2019/11/28 13:14:01	BASE	0.00	187	M	M	2.3	100	2.3	455	0	999.9	NA	0.0000		9999	12860	0	0	0
2019/11/28 13:15:01	BASE	0.37	206	1.18	205	2.2	100	2.2	467	0	999.9	NA	0.0000		9999	12860	0	0	0
2019/11/28 13:16:01	BASE	0.82	201	1.18	201	2.1	100	2.1	439	0	999.9	NA	0.0000		9999	12760	20640	0	0
2019/11/28 13:17:00	BASE	1.08	198	1.34	187	2.0	100	2.0	445	0	999.9	NA	0.0000		9999	12760	0	0	0
2019/11/28 13:18:00	BASE	1.39	190	1.85	182	2.0	100	2.0	461	0	999.9	NA	0.0000		9999	12800	0	0	0
2019/11/28 13:19:01	BASE	1.59	180	1.85	182	1.9	100	1.9	478	0	999.9	NA	0.0000		9999	12830	0	0	0
2019/11/28 13:20:00	BASE	1.54	171	1.85	182	1.9	100	1.9	449	0	999.9	NA	0.0000		9999	12830	0	0	0
2019/11/28 13:21:00	BASE	0.99	163	1.85	182	1.9	100	1.9	453	0	999.9	NA	0.0000		9999	12830	0	0	0
2019/11/28 13:22:01	BASE	0.27	150	1.85	182	1.9	100	1.9	442	0	999.9	NA	0.0000		9999	0	0	0	0
2019/11/28 13:23:01	BASE	0.00	104	1.85	182	2.0	100	2.0	439	0	999.9	NA	0.0000		9999	12800	0	0	0
2019/11/28 13:24:00	BASE	0.57	3	1.85	182	2.0	100	2.0	449	0	999.9	NA	0.0000		9999	12760	0	0	0
2019/11/28 13:25:01	BASE	0.57	322	1.85	182	2.1	100	2.1	451	0	999.9	NA	0.0000		9999	12700	0	0	0
2019/11/28 13:26:00	BASE	0.00	269	1.85	182	2.1	100	2.1	457	0	999.9	NA	0.0000		9999	12700	0	0	0
2019/11/28 13:27:01	BASE	0.00	197	1.85	182	2.2	100	2.2	540	0	999.9	NA	0.0000		9999	12730	0	0	0
2019/11/28 13:28:01	BASE	0.41	157	1.75	180	2.2	100	2.2	473	0	999.9	NA	0.0000		9999	12800	0	0	0
2019/11/28 13:29:01	BASE	0.86	153	1.65	354	2.3	100	2.3	451	0	999.9	NA	0.0000		9999	12700	0	0	0
2019/11/28 13:30:01	BASE	0.63	146	1.65	354	2.4	100	2.4	446	0	999.9	NA	0.0000		9999	12700	0	0	0
2019/11/28 13:31:00	BASE	0.17	138	1.65	354	2.4	100	2.4	465	0	999.9	NA	0.0000		9999	12630	0	0	0
2019/11/28 13:32:00	BASE	0.00	127	1.65	354	2.3	100	2.3	452	0	999.9	NA	0.0000		9999	12700	0	0	0
2019/11/28 13:33:00	BASE	0.00	112	1.65	354	2.2	100	2.2	447	0	1000.0	NA	0.0000		9999	12660	0	0	0
2019/11/28 13:34:00	BASE	0.00	132	1.18	153	2.1	100	2.1	438	0	1000.0	NA	0.0000		9999	12630	0	0	0
2019/11/28 13:35:00	BASE	0.00	169	1.18	153	2.0	100	2.0	443	0	1000.1	NA	0.0000		9999	12630	0	0	0
2019/11/28 13:36:01	BASE	0.00	179	1.18	153	2.0	100	2.0	445	0	1000.1	NA	0.0000		9999	12630	0	0	0
2019/11/28 13:37:00	BASE	0.00	179	1.18	153	2.0	100	2.0	441	0	1000.1	NA	0.0000		9999	12600	0	0	0
2019/11/28 13:38:00	BASE	0.00	171	1.18	153	2.0	100	2.0	455	0	1000.0	NA	0.0000		9999	12600	0	0	0
2019/11/28 13:39:00	BASE	0.00	167	1.08	134	2.0	100	2.0	467	0	1000.0	NA	0.0000		9999	12660	17780	21920	0
2019/11/28 13:40:00	BASE	0.00	168	M	M	2.0	100	2.0	491	0	1000.1	NA	0.0000		9999	12570	0	0	0
2019/11/28 13:41:00	BASE	0.00	168	M	M	2.0	100	2.0	516	0	1000.1	NA	0.0000		9999	12660	17880	0	0
2019/11/28 13:42:00	BASE	0.00	169	M	M	2.0	100	2.0	482	0	1000.1	NA	0.0000		9999	12630	0	0	0
2019/11/28 13:43:00	BASE	0.00	164	M	M	2.0	100	2.0	475	0	1000.0	NA	0.0000		9999	12470	0	0	0
2019/11/28 13:44:00	BASE	0.00	161	M	M	2.1	100	2.1	463	0	1000.0	NA	0.0000		9999	12470	0	0	0
2019/11/28 13:45:00	BASE	0.04	165	1.03	169	2.0	100	2.0	446	0	1000.0	NA	0.0000		9999	12400	0	0	0
2019/11/28 13:46:00	BASE	0.04	168	1.03	169	2.0	100	2.0	444	0	1000.0	NA	0.0000		9999	12400	24080	0	0
2019/11/28 13:47:00	BASE	0.00	169	1.03	169	2.1	100	2.1	444	0	999.9	NA	0.0000		9999	12430	0	0	0
2019/11/28 13:48:01	BASE	0.00	170	1.03	169	2.1	100	2.1	448	0	999.9	NA	0.0000		9999	12400	0	0	0
2019/11/28 13:49:02	BASE	0.00	168	1.03	169	2.1	100	2.1	453	0	999.9	NA	0.0000		9999	12340	0	0	0
2019/11/28 13:50:01	BASE	0.00	166	1.03	169	2.2	100	2.2	457	0	999.9	NA	0.0000		9999	12400	0	0	0
2019/11/28 13:51:01	BASE	0.00	150	1.03	169	2.3	100	2.3	461	0	1000.0	NA	0.0000		9999	12400	0	0	0
2019/11/28 13:52:01	BASE	0.00	22	1.03	169	2.4	100	2.4	462	0	1000.0	NA	0.0000		9999	12400	0	0	0
2019/11/28 13:53:01	BASE	0.00	21	1.03	169	2.5	100	2.5	464	0	1000.1	NA	0.0000		9999	12340	0	0	0
2019/11/28 13:54:02	BASE	0.00	27	1.03	169	2.6	100	2.6	466	0	1000.1	NA	0.0000		9999	12300	0	0	0
2019/11/28 13:55:01	BASE	0.00	23	M	M	2.6	100	2.6	465	0	1000.1	NA	0.0000		9999	12340	0	0	0
2019/11/28 13:56:01	BASE	0.00	18	M	M	2.5	100	2.5	463	0	1000.1	NA	0.0000		9999	12300	0	0	0
2019/11/28 13:57:01	BASE	0.09	16	1.08	22	2.4	100	2.4	456	0	1000.1	NA	0.0000		9999	12400	0	0	0
2019/11/28 13:58:01	BASE	0.40	13	1.18	20	2.3	100	2.3	451	0	1000.1	NA	0.0000		9999	12300	0	0	0
2019/11/28 13:59:01	BASE	0.35	15	1.18	20	2.2	100	2.2	450	0	1000.1	NA	0.0000		9999	12430	0	0	0
2019/11/28 14:00:00	BASE	0.45	15	1.18	26	2.2	100	2.2	452	0	1000.1	NA	0.0000		9999	12300	0	0	0
2019/11/28 14:01:00	BASE	1.03	15	1.54	23	2.2	100	2.2	450	0	1000.1	NA	0.0000		9999	12300	0	0	0
2019/11/28 14:02:00	BASE	1.08	11	1.54	23	2.2	100	2.2	447	0	1000.1	NA	0.0000		9999	12270	0	0	0
2019/11/28 14:03:01	BASE	0.96	11	1.54	23	2.2	100	2.2	445	0	1000.1	NA	0.0000		9999	12270	0	0	0
2019/11/28 14:04:01	BASE	1.02	15	1.54	23	2.1	100	2.1	445	0	1000.1	NA	0.0000		9999	12270	0	0	0
2019/11/28 14:05:01	BASE	1.09	15	1.54	23	2.1	100	2.1	442	0	1000.1	NA	0.0000		9999	12210	0	0	0
2019/11/28 14:06:01	BASE	1.25	15	1.54	23	2.1	100	2.1	436	0	1000.1	NA	0.0000		9999	12240	0	0	0
2019/11/28 14:07:01	BASE	1.36	15	1.54	18	2.1	100	2.1	428	0	1000.1	NA	0.0000		9999	12240	0	0	0
2019/11/28 14:08:01	BASE	1.29	10	1.54	18	2.0	100	2.0	423	0	1000.1	NA	0.0000		9999	12170	0	0	0
2019/11/28 14:09:00	BASE	0.73	6	1.54	18	2.0	100	2.0	418	0	1000.1	NA	0.0000		9999	12140	0	0	0
2019/11/28 14:10:00	BASE	0.57	12	1.54	18	2.0	100	2.0	412	0	1000.1	NA	0.0000		9999	12990	0	0	0
2019/11/28 14:11:02	BASE	0.86	17	1.54	18	2.1	100	2.1	404	0	1000.1	NA	0.0000		9999	7510	12170	0	0
2019/11/28 14:12:00	BASE	0.93	20	1.54	18	2.1	100	2.1	396	0	1000.1	NA	0.0000		9999	7550	0	0	0
2019/11/28 14:13:01	BASE	1.14	22	1.54	18	2.2	100	2.2	386	0	1000.1	NA	0.0000		9999	12170	0	0	0
2019/11/28 14:14:01	BASE	1.31	24	1.54	18	2.4	100	2.4	376	0	1000.1	NA	0.0000		9999	12270	0	0	0
2019/11/28 14:15:00	BASE	1.41	23	1.70	18	2.4	100	2.4	368	0	1000.1	NA	0.0000		9999	12660	0	0	0
2019/11/28 14:16:00	BASE	1.64	21	1.95	27	2.4	100	2.4	361	0	1000.1	NA	0.0000		9999	12040	0	0	0
2019/11/28 14:17:01	BASE	1.71	24	1.95	27	2.4	100	2.4	357	0	1000.0	NA	0.0000		9999	12140	0	0	0
2019/11/28 14:18:00	BASE	1.70	27	1.95	23	2.4	100	2.4	354	0	1000.1	NA	0.0000		9999	12070	0	0	0
2019/11/28 14:19:01	BASE	1.70	28	1.95	23	2.4	100	2.4	352	0	1000.1	NA	0.0000		9999	6500	0	0	0
2019/11/28 14:20:01	BASE	1.64	30	1.95	23	2.4	100	2.4	351	0	1000.1	NA	0.0000		9999	6500	12170	0	0
2019/11/28 14:21:00	BASE	1.63	29	1.95	23	2.4	100	2.4	352	0	1000.1	NA	0.0000		9999	6500	0	0	0
2019/11/28 14:22:00	BASE	1.64	27	1.95	23	2.5	100	2.5	353	0	1000.1	NA	0.0000		9999	6460	0	0	0
2019/11/28 14:23:00	BASE	1.70	29	1.95	23	2.5	100	2.5	355	0	1000.1	NA	0.0000		9999	6430	0	0	0
2019/11/28 14:24:00	BASE	1.75	33	2.06	26	2.5	100	2.5	356	0	1000.1	NA	0.0000		9999	6460	0	0	0
2019/11/28 14:25:00	BASE	1.69	37	2.06	26	2.5	100	2.5	358	0	1000.1	NA	0.0000		9999	6400	0	0	0
2019/11/28 14:26:00	BASE	1.55	35	2.06	26	2.5	100	2.5	358	0	1000.1	NA	0.0000		9999	6370	0	0	0
2019/11/28 14:27:00	BASE	1.35	27	2.06	26	2.6	100	2.6	357	0	1000.1	NA	0.0000		9999	6270	0	0	0
2019/11/28 14:28:01	BASE	1.06	17	2.06	26	2.7	100	2.7	358	0	1000.1	NA	0.0000		9999	6300	0	0	0
2019/11/28 14:29:01	BASE	0.50	10	2.06	26	2.8	100	2.8	359	0	1000.1	NA	0.0000		9999	6300	0	0	0
2019/11/28 14:30:00	BASE	0.05	12	2.06	26	2.9	100	2.9	360	0	1000.1	NA	0.0000		9999	6300	0	0	0
2019/11/28 14:31:01	BASE	0.00	21	2.06	26	3.0	100	3.0	362	0	1000.1	NA	0.0000		9999	5770	6300	0	0
2019/11/28 14:32:00	BASE	0.00	359	2.06	26	3.1	100	3.1	362	0	1000.1	NA	0.0000		9999	6270	0	0	0
2019/11/28 14:33:01	BASE	0.00	265	2.06	26	3.3	99	3.2	362	0	1000.1	NA	0.0000		9999	6300	0	0	0
2019/11/28 14:34:00	BASE	0.13	217	1.70	42	3.3	99	3.1	362	0	1000.2	NA	0.0000		9999	5770	6330	0	0
2019/11/28 14:35:01	BASE	0.76	198	1.70	42	3.3	98	3.0	361	0	1000.2	NA	0.0000		9999	6300	0	0	0
2019/11/28 14:36:00	BASE	1.34	183	1.44	178	3.3	97	2.8	360	0	1000.1	NA	0.0000		9999	5770	6330	0	0
2019/11/28 14:37:00	BASE	1.48	181	1.85	183	3.1	96	2.6	360	0	999.6	NA	0.0000		9999	5740	6370	0	0
2019/11/28 14:38:00	BASE	1.45	182	1.85	171	3.0	96	2.4	360	0	1000.1	NA	0.0000		9999	5640	6330	0	0
2019/11/28 14:39:00	BASE	1.37	186	1.85	171	2.9	96	2.3	359	0	1000.2	NA	0.0000		9999	5680	6330	0	0
2019/11/28 14:40:01	BASE	1.69	188	2.37	180	2.8	97	2.3	359	0	1000.2	NA	0.0000		9999	5640	6370	0	0
2019/11/28 14:41:01	BASE	2.08	174	2.42	183	2.7	97	2.3	358	0	1000.2	NA	0.0000		9999	5640	6300	0	0
2019/11/28 14:42:01	BASE	2.07	163	2.42	183	2.7	98	2.4	357	0	1000.2	NA	0.0000		9999	5580	6330	0	0
2019/11/28 14:43:01	BASE	1.91	161	2.42	183	2.7	98	2.4	355	0	1000.2	NA	0.0000		9999	5580	6370	0	0
2019/11/28 14:44:01	BASE	1.84	162	2.42	183	2.7	99	2.5	354	0	1000.2	NA	0.0000		9999	5540	0	0	0
2019/11/28 14:45:02	BASE	1.82	167	2.42	183	2.7	99	2.5	352	0	1000.2	NA	0.0000		9999	5450	0	0	0
2019/11/28 14:46:02	BASE	1.71	170	2.42	183	2.7	99	2.6	351	0	1000.2	NA	0.0000		9999	5450	0	0	0
2019/11/28 14:47:01	BASE	1.61	170	2.42	183	2.7	99	2.6	352	0	1000.3	NA	0.0000		9999	5480	0	0	0
2019/11/28 14:48:01	BASE	1.48	168	2.42	183	2.6	100	2.5	353	0	1000.3	NA	0.0000		9999	5510	0	0	0
2019/11/28 14:49:01	BASE	1.33	167	2.42	183	2.6	100	2.5	355	0	1000.3	NA	0.0000		9999	5380	0	0	0
2019/11/28 14:50:02	BASE	1.30	169	2.42	183	2.6	100	2.6	357	0	1000.3	NA	0.0000		9999	5380	0	0	0
2019/11/28 14:51:01	BASE	0.91	172	2.11	163	2.6	100	2.6	359	0	1000.3	NA	0.0000		9999	5410	0	0	0
2019/11/28 14:52:01	BASE	0.27	169	2.11	163	2.6	100	2.6	363	0	1000.3	NA	0.0000		9999	5380	0	0	0
2019/11/28 14:53:01	BASE	0.00	159	2.11	163	2.6	100	2.6	370	0	1000.3	NA	0.0000		9999	5380	0	0	0
2019/11/28 14:54:01	BASE	0.00	146	2.06	171	2.7	100	2.7	379	0	1000.2	NA	0.0000		9999	5350	24180	0	0
2019/11/28 14:55:01	BASE	0.00	135	1.85	170	2.7	100	2.7	389	0	1000.2	NA	0.0000		9999	5380	0	0	0
2019/11/28 14:56:02	BASE	0.00	121	1.85	170	2.8	100	2.8	399	0	1000.2	NA	0.0000		9999	5410	0	0	0
2019/11/28 14:57:01	BASE	0.00	105	1.49	174	2.9	100	2.9	408	0	1000.2	NA	0.0000		9999	5540	6370	0	0
2019/11/28 14:58:01	BASE	0.29	75	1.54	50	2.9	100	2.9	415	0	1000.2	NA	0.0000		9999	5640	6300	0	0
2019/11/28 14:59:02	BASE	0.72	57	1.54	50	3.0	100	3.0	421	0	1000.2	NA	0.0000		9999	6300	0	0	0
2019/11/28 15:00:01	BASE	0.66	63	1.54	50	3.1	100	3.0	426	0	1000.2	NA	0.0000		9999	6300	0	0	0
2019/11/28 15:01:01	BASE	0.28	64	1.54	50	3.1	99	3.0	431	0	1000.2	NA	0.0000		9999	6270	22570	0	0
2019/11/28 15:02:02	BASE	0.05	67	1.54	50	3.1	99	3.0	436	0	1000.2	NA	0.0000		9999	6330	0	0	0
2019/11/28 15:03:01	BASE	0.18	64	1.54	50	3.0	99	2.9	441	0	1000.2	NA	0.0000		9999	6330	0	0	0
2019/11/28 15:04:01	BASE	0.37	53	1.54	50	3.0	99	2.9	446	0	1000.2	NA	0.0000		9999	6300	0	0	0
2019/11/28 15:05:01	BASE	0.32	47	1.54	50	3.0	99	2.9	450	0	1000.2	NA	0.0000		9999	6370	0	0	0
2019/11/28 15:06:02	BASE	0.13	40	1.54	50	3.0	99	2.9	454	0	1000.2	NA	0.0000		9999	6370	0	0	0
2019/11/28 15:07:02	BASE	0.00	35	1.54	50	3.0	99	3.0	457	0	1000.2	NA	0.0000		9999	6370	0	0	0
2019/11/28 15:08:01	BASE	0.00	33	1.29	76	3.1	99	3.0	459	0	1000.2	NA	0.0000		9999	6300	0	0	0
2019/11/28 15:09:01	BASE	0.00	34	1.18	58	3.1	99	3.0	463	0	1000.2	NA	0.0000		9999	6400	0	0	0
2019/11/28 15:10:01	BASE	0.00	37	1.13	37	3.1	99	3.0	466	0	1000.2	NA	0.0000		9999	6370	0	0	0
2019/11/28 15:11:02	BASE	0.00	34	1.13	37	3.2	99	3.0	471	0	1000.2	NA	0.0000		9999	6370	0	0	0
2019/11/28 15:12:01	BASE	0.00	19	1.13	37	3.3	99	3.2	475	0	1000.2	NA	0.0000		9999	6400	0	0	0
2019/11/28 15:13:01	BASE	0.00	3	1.13	37	3.4	99	3.2	480	0	1000.2	NA	0.0000		9999	6400	0	0	0
2019/11/28 15:14:01	BASE	0.00	333	1.08	42	3.4	98	3.2	485	0	1000.2	NA	0.0000		9999	6430	0	0	0
2019/11/28 15:15:01	BASE	0.00	305	M	M	3.5	98	3.2	491	0	1000.2	NA	0.0000		9999	6430	17450	22110	0
2019/11/28 15:16:01	BASE	0.09	267	1.03	209	3.5	98	3.2	499	0	1000.2	NA	0.0000		9999	6430	0	0	0
2019/11/28 15:17:00	BASE	0.59	215	1.23	200	3.4	97	2.9	506	0	1000.2	NA	0.0000		9999	6430	19460	0	0
2019/11/28 15:18:01	BASE	1.18	196	1.65	187	3.2	97	2.7	514	0	1000.2	NA	0.0000		9999	6460	0	0	0
2019/11/28 15:19:01	BASE	1.49	188	1.85	168	3.1	97	2.7	520	0	1000.2	NA	0.0000		9999	6530	0	0	0
2019/11/28 15:20:01	BASE	1.56	177	1.85	168	2.9	97	2.5	524	0	1000.2	NA	0.0000		9999	6500	23890	0	0
2019/11/28 15:21:01	BASE	1.32	178	1.85	168	2.7	97	2.3	526	0	1000.2	NA	0.0000		9999	6430	0	0	0
2019/11/28 15:22:01	BASE	1.08	183	1.85	168	2.6	98	2.3	527	0	1000.3	NA	0.0000		9999	6500	0	0	0
2019/11/28 15:23:02	BASE	1.22	178	1.85	168	2.5	99	2.3	524	0	1000.3	NA	0.0000		9999	6530	0	0	0
2019/11/28 15:24:01	BASE	1.58	176	1.85	189	2.5	99	2.3	520	0	1000.3	NA	0.0000		9999	6530	0	0	0
2019/11/28 15:25:01	BASE	1.81	178	2.06	179	2.4	99	2.3	515	0	1000.3	NA	0.0000		9999	6660	0	0	0
2019/11/28 15:26:01	BASE	1.83	176	2.06	179	2.3	100	2.3	512	0	999.4	NA	0.0000		9999	6590	17160	21000	0
2019/11/28 15:27:00	BASE	1.80	174	2.06	170	2.3	100	2.3	511	0	1000.2	NA	0.0000		9999	6660	0	0	0
2019/11/28 15:28:01	BASE	1.71	172	2.06	170	2.2	100	2.2	514	0	1000.2	NA	0.0000		9999	0	0	0	0
2019/11/28 15:29:01	BASE	1.61	171	2.06	170	2.1	100	2.1	516	0	999.8	NA	0.0000		9999	6630	0	0	0
2019/11/28 15:30:01	BASE	1.72	174	2.06	170	2.1	100	2.1	512	0	1000.1	NA	0.0000		9999	0	0	0	0
2019/11/28 15:31:00	BASE	1.82	174	2.06	170	2.1	100	2.1	508	0	1000.0	NA	0.0000		9999	0	0	0	0
2019/11/28 15:32:00	BASE	1.86	168	2.16	168	2.1	100	2.1	503	0	1000.3	NA	0.0000		9999	12070	0	0	0
2019/11/28 15:33:00	BASE	1.77	162	2.16	168	2.1	100	2.1	497	0	1000.3	NA	0.0000		9999	12070	0	0	0
2019/11/28 15:34:01	BASE	1.55	163	2.16	168	2.2	100	2.2	490	0	1000.3	NA	0.0000		9999	11980	0	0	0
2019/11/28 15:35:00	BASE	1.55	170	2.16	168	2.2	100	2.2	483	0	1000.3	NA	0.0000		9999	11910	0	0	0
2019/11/28 15:36:00	BASE	1.76	176	2.16	173	2.2	100	2.2	476	0	1000.3	NA	0.0000		9999	0	0	0	0
2019/11/28 15:37:01	BASE	1.79	172	2.16	173	2.2	100	2.2	470	0	1000.0	NA	0.0000		9999	12010	0	0	0
2019/11/28 15:38:00	BASE	1.58	162	2.16	173	2.1	100	2.1	466	0	1000.3	NA	0.0000		9999	11680	0	0	0
2019/11/28 15:39:01	BASE	1.45	157	2.16	173	2.1	100	2.1	464	0	1000.4	NA	0.0000		9999	11710	0	0	0
2019/11/28 15:40:01	BASE	1.53	159	2.16	173	2.1	100	2.1	464	0	1000.4	NA	0.0000		9999	11750	0	0	0
2019/11/28 15:41:01	BASE	1.64	163	2.16	173	2.2	100	2.2	468	0	1000.3	NA	0.0000		9999	11710	0	0	0
2019/11/28 15:42:00	BASE	1.54	166	2.16	173	2.2	100	2.2	473	0	1000.2	NA	0.0000		9999	11650	0	0	0
2019/11/28 15:43:00	BASE	1.33	169	2.16	173	2.2	100	2.2	480	0	1000.3	NA	0.0000		9999	11910	0	0	0
2019/11/28 15:44:00	BASE	0.92	170	2.16	173	2.1	100	2.1	486	0	1000.3	NA	0.0000		9999	11940	0	0	0
2019/11/28 15:45:01	BASE	0.32	161	2.16	173	2.1	100	2.1	491	0	1000.3	NA	0.0000		9999	12010	0	0	0
2019/11/28 15:46:01	BASE	0.00	149	1.85	164	2.2	100	2.2	496	0	1000.3	NA	0.0000		9999	0	0	0	0
2019/11/28 15:47:01	BASE	0.00	150	1.80	166	2.3	100	2.3	501	0	1000.3	NA	0.0000		9999	17230	0	0	0
2019/11/28 15:48:00	BASE	0.05	154	1.80	166	2.4	100	2.4	506	0	999.8	NA	0.0000		9999	17230	0	0	0
2019/11/28 15:49:01	BASE	0.09	154	1.80	166	2.5	100	2.5	510	0	1000.3	NA	0.0000		9999	0	0	0	0
2019/11/28 15:50:01	BASE	0.17	161	1.80	166	2.5	100	2.5	513	0	1000.3	NA	0.0000		9999	17190	0	0	0
2019/11/28 15:51:01	BASE	0.27	172	1.65	171	2.6	100	2.6	515	0	1000.3	NA	0.0000		9999	17720	0	0	0
2019/11/28 15:52:01	BASE	0.81	171	1.65	162	2.6	100	2.6	519	0	999.9	NA	0.0000		9999	17090	21260	0	0
2019/11/28 15:53:00	BASE	1.28	167	1.75	177	2.5	100	2.5	523	0	1000.3	NA	0.0000		9999	17060	0	0	0
2019/11/28 15:54:00	BASE	1.36	171	1.80	169	2.5	100	2.5	527	0	1000.3	NA	0.0000		9999	17090	0	0	0
2019/11/28 15:55:00	BASE	1.59	169	1.95	167	2.5	100	2.5	532	0	1000.3	NA	0.0000		9999	17160	0	0	0
2019/11/28 15:56:01	BASE	1.61	168	1.95	167	2.4	100	2.4	538	0	1000.3	NA	0.0000		9999	17160	0	0	0
2019/11/28 15:57:01	BASE	1.52	172	1.95	167	2.4	100	2.4	542	0	1000.3	NA	0.0000		9999	17290	0	0	0
2019/11/28 15:58:01	BASE	1.37	166	1.95	167	2.4	100	2.4	548	0	1000.3	NA	0.0000		9999	17160	0	0	0
2019/11/28 15:59:01	BASE	0.90	150	1.95	167	2.4	100	2.4	551	0	1000.3	NA	0.0000		9999	0	0	0	0
2019/11/28 16:00:01	BASE	0.28	139	1.95	167	2.4	100	2.4	555	0	1000.3	NA	0.0000		9999	17090	22020	0	0
2019/11/28 16:01:01	BASE	0.00	140	1.95	167	2.4	100	2.4	566	0	1000.3	NA	0.0000		9999	17590	0	0	0
2019/11/28 16:02:01	BASE	0.13	154	1.95	167	2.5	100	2.5	570	0	1000.0	NA	0.0000		9999	17650	0	0	0
2019/11/28 16:03:00	BASE	0.13	161	1.95	167	2.7	100	2.7	576	0	1000.3	NA	0.0000		9999	0	0	0	0
2019/11/28 16:04:01	BASE	0.00	148	1.95	167	2.8	100	2.8	587	0	1000.3	NA	0.0000		9999	18410	0	0	0
2019/11/28 16:05:01	BASE	0.00	125	1.70	170	2.8	100	2.8	615	0	1000.2	NA	0.0000		9999	17910	0	0	0
2019/11/28 16:06:01	BASE	0.09	89	1.65	176	2.9	100	2.9	694	0	1000.3	NA	0.0000		9999	17230	0	0	0
2019/11/28 16:07:01	BASE	0.64	50	1.44	170	2.9	100	2.9	631	0	1000.3	NA	0.0000		9999	17190	0	0	0
2019/11/28 16:08:01	BASE	0.87	46	1.34	47	3.0	100	3.0	651	0	1000.2	NA	0.0000		9999	11120	0	0	0
2019/11/28 16:09:01	BASE	0.87	42	1.34	47	3.0	100	3.0	639	0	1000.3	NA	0.0000		9999	11120	0	0	0
2019/11/28 16:10:01	BASE	1.18	32	1.49	26	3.1	100	3.1	621	0	1000.3	NA	0.0000		9999	11060	0	0	0
2019/11/28 16:11:02	BASE	1.03	30	1.49	26	3.2	100	3.2	617	0	1000.3	NA	0.0000		9999	10990	0	0	0
2019/11/28 16:12:00	BASE	0.83	32	1.49	26	3.2	100	3.2	608	0	1000.3	NA	0.0000		9999	10990	0	0	0
2019/11/28 16:13:01	BASE	1.13	29	1.65	6	3.2	100	3.1	629	0	1000.3	NA	0.0000		9999	10990	0	0	0
2019/11/28 16:14:01	BASE	1.48	25	1.90	47	3.2	100	3.1	602	0	1000.3	NA	0.0000		9999	10960	0	0	0
2019/11/28 16:15:01	BASE	1.57	26	1.90	47	3.2	100	3.1	568	0	1000.3	NA	0.0000		9999	10860	0	0	0
2019/11/28 16:16:01	BASE	1.49	25	1.90	47	3.1	99	3.0	548	0	1000.3	NA	0.0000		9999	10830	0	0	0
2019/11/28 16:17:01	BASE	1.32	26	1.90	47	3.0	99	3.0	538	0	1000.3	NA	0.0000		9999	11980	0	0	0
2019/11/28 16:18:00	BASE	1.09	26	1.90	47	3.0	100	2.9	530	0	1000.3	NA	0.0000		9999	11840	0	0	0
2019/11/28 16:19:00	BASE	0.99	20	1.90	47	2.9	100	2.9	520	0	1000.3	NA	0.0000		9999	11350	0	0	0
2019/11/28 16:20:00	BASE	0.98	17	1.90	47	2.8	100	2.8	511	0	1000.3	NA	0.0000		9999	13160	0	0	0
2019/11/28 16:21:01	BASE	0.65	23	1.90	47	2.8	100	2.8	501	0	1000.3	NA	0.0000		9999	12210	0	0	0
2019/11/28 16:22:00	BASE	0.20	26	1.90	47	2.8	100	2.8	492	0	1000.3	NA	0.0000		9999	11190	0	0	0
2019/11/28 16:23:01	BASE	0.00	21	1.90	47	2.8	100	2.8	484	0	1000.3	NA	0.0000		9999	10930	0	0	0
2019/11/28 16:24:01	BASE	0.00	13	1.75	18	2.8	100	2.8	478	0	1000.3	NA	0.0000		9999	10470	0	0	0
2019/11/28 16:25:00	BASE	0.00	3	1.49	20	2.9	100	2.9	475	0	1000.3	NA	0.0000		9999	10470	0	0	0
2019/11/28 16:26:01	BASE	0.00	349	1.44	18	2.9	100	2.9	472	0	1000.3	NA	0.0000		9999	10500	0	0	0
2019/11/28 16:27:01	BASE	0.00	331	1.44	18	3.0	100	3.0	472	0	1000.3	NA	0.0000		9999	10600	0	0	0
2019/11/28 16:28:00	BASE	0.00	332	1.44	18	3.1	100	3.1	474	0	1000.3	NA	0.0000		9999	10530	0	0	0
2019/11/28 16:29:01	BASE	0.00	338	1.34	21	3.2	100	3.2	479	0	1000.3	NA	0.0000		9999	10400	0	0	0
2019/11/28 16:30:01	BASE	0.00	331	1.18	33	3.3	100	3.3	486	0	1000.3	NA	0.0000		9999	10270	0	0	0
2019/11/28 16:31:01	BASE	0.00	330	M	M	3.5	100	3.4	494	0	1000.3	NA	0.0000		9999	10270	0	0	0
2019/11/28 16:32:00	BASE	0.00	341	M	M	3.5	99	3.4	504	0	1000.3	NA	0.0000		9999	10240	0	0	0
2019/11/28 16:33:00	BASE	0.14	351	1.23	352	3.6	99	3.3	520	0	1000.3	NA	0.0000		9999	10530	0	0	0
2019/11/28 16:34:01	BASE	0.14	1	1.23	352	3.6	98	3.3	532	0	1000.3	NA	0.0000		9999	10300	0	0	0
2019/11/28 16:35:00	BASE	0.00	11	1.23	352	3.6	97	3.2	542	0	1000.3	NA	0.0000		9999	10340	0	0	0
2019/11/28 16:36:01	BASE	0.05	17	1.23	352	3.6	97	3.1	548	0	1000.3	NA	0.0000		9999	10270	0	0	0
2019/11/28 16:37:00	BASE	0.24	27	1.23	352	3.7	96	3.2	561	0	1000.3	NA	0.0000		9999	10370	0	0	0
2019/11/28 16:38:00	BASE	0.24	34	1.23	352	3.8	96	3.2	567	0	1000.3	NA	0.0000		9999	10300	0	0	0
2019/11/28 16:39:01	BASE	0.09	37	1.23	352	3.8	96	3.2	574	0	1000.3	NA	0.0000		9999	10270	0	0	0
2019/11/28 16:40:01	BASE	0.04	39	1.23	352	3.8	96	3.2	580	0	1000.3	NA	0.0000		9999	10300	0	0	0
2019/11/28 16:41:00	BASE	0.09	35	1.23	352	3.8	96	3.2	587	0	1000.3	NA	0.0000		9999	0	0	0	0
2019/11/28 16:42:00	BASE	0.09	31	1.23	352	3.7	96	3.1	581	0	1000.3	NA	0.0000		9999	11250	0	0	0
2019/11/28 16:43:00	BASE	0.39	30	1.29	23	3.6	96	3.0	572	0	1000.3	NA	0.0000		9999	11350	0	0	0
2019/11/28 16:44:01	BASE	0.76	26	1.29	23	3.6	96	3.0	566	0	1000.3	NA	0.0000		9999	11450	0	0	0
2019/11/28 16:45:01	BASE	0.97	25	1.39	8	3.5	96	3.0	568	0	1000.3	NA	0.0000		9999	10660	0	0	0
2019/11/28 16:46:00	BASE	1.19	21	1.65	23	3.5	96	2.9	553	0	1000.2	NA	0.0000		9999	11390	0	0	0
2019/11/28 16:47:00	BASE	1.20	16	1.65	23	3.5	96	2.9	557	0	1000.3	NA	0.0000		9999	17130	0	0	0
2019/11/28 16:48:00	BASE	1.27	13	1.65	23	3.4	97	3.0	577	0	1000.3	NA	0.0000		9999	17680	0	0	0
2019/11/28 16:49:00	BASE	1.10	13	1.65	23	3.4	97	2.9	598	0	1000.3	NA	0.0000		9999	17620	0	0	0
2019/11/28 16:50:01	BASE	0.57	20	1.65	23	3.3	97	2.9	603	0	1000.3	NA	0.0000		9999	18050	0	0	0
2019/11/28 16:51:01	BASE	0.53	19	1.65	23	3.3	97	2.8	632	0	1000.3	NA	0.0000		9999	17130	0	0	0
2019/11/28 16:52:00	BASE	0.53	13	1.65	23	3.2	97	2.8	677	0	1000.3	NA	0.0000		9999	17550	0	0	0
2019/11/28 16:53:01	BASE	0.18	20	1.65	23	3.2	97	2.8	642	0	1000.3	NA	0.0000		9999	17490	0	0	0
2019/11/28 16:54:01	BASE	0.19	22	1.65	23	3.2	97	2.9	649	0	1000.3	NA	0.0000		9999	17590	0	0	0
2019/11/28 16:55:01	BASE	0.23	13	1.65	23	3.2	98	2.9	663	0	1000.3	NA	0.0000		9999	0	0	0	0
2019/11/28 16:56:01	BASE	0.09	12	1.54	22	3.3	98	2.9	681	0	1000.3	NA	0.0000		9999	17650	0	0	0
2019/11/28 16:57:00	BASE	0.13	16	1.54	22	3.3	98	3.0	677	0	1000.1	NA	0.0000		9999	17820	0	0	0
2019/11/28 16:58:02	BASE	0.23	18	1.39	18	3.4	98	3.1	640	0	1000.3	NA	0.0000		9999	0	0	0	0
2019/11/28 16:59:02	BASE	0.15	17	1.34	23	3.4	98	3.0	645	0	1000.3	NA	0.0000		9999	0	0	0	0
2019/11/28 17:00:02	BASE	0.05	11	1.34	23	3.4	98	3.1	659	0	1000.1	NA	0.0000		9999	11810	0	0	0
2019/11/28 17:01:01	BASE	0.00	11	1.34	23	3.5	97	3.1	676	0	1000.3	NA	0.0000		9999	11580	0	0	0
2019/11/28 17:02:01	BASE	0.00	17	1.34	23	3.5	97	3.1	705	0	1000.2	NA	0.0000		9999	17720	0	0	0
2019/11/28 17:03:01	BASE	0.00	19	1.34	23	3.7	97	3.3	703	0	1000.3	NA	0.0000		9999	12400	0	0	0
2019/11/28 17:04:01	BASE	0.00	344	1.34	23	4.0	97	3.5	720	0	1000.2	NA	0.0000		9999	18670	0	0	0
2019/11/28 17:05:01	BASE	0.09	226	1.34	23	4.0	96	3.4	724	0	1000.3	NA	0.0000		9999	17620	0	0	0
2019/11/28 17:06:02	BASE	0.09	218	1.34	23	3.9	95	3.1	709	0	1000.0	NA	0.0000		9999	0	0	0	0
2019/11/28 17:07:02	BASE	0.00	180	1.34	23	3.8	94	2.9	727	0	1000.1	NA	0.0000		9999	0	0	0	0
2019/11/28 17:08:01	BASE	0.00	143	1.18	237	3.4	93	2.4	745	0	1000.2	NA	0.0000		9999	17550	0	0	0
2019/11/28 17:09:02	BASE	0.40	175	1.29	215	3.0	94	2.1	727	0	1000.2	NA	0.0000		9999	18540	0	0	0
2019/11/28 17:10:02	BASE	1.05	216	1.39	209	2.7	95	2.0	721	0	1000.2	NA	0.0000		9999	0	0	0	0
2019/11/28 17:11:03	BASE	1.12	211	1.39	209	2.6	97	2.1	669	0	1000.2	NA	0.0000		9999	0	0	0	0
2019/11/28 17:12:02	BASE	0.99	208	1.39	209	2.5	98	2.2	666	0	1000.2	NA	0.0000		9999	0	0	0	0
2019/11/28 17:13:02	BASE	1.13	200	1.39	209	2.5	99	2.3	665	0	1000.2	NA	0.0000		9999	17550	0	0	0
2019/11/28 17:14:02	BASE	1.16	193	1.39	209	2.5	99	2.4	662	0	1000.2	NA	0.0000		9999	12270	0	0	0
2019/11/28 17:15:02	BASE	1.13	190	1.39	209	2.5	100	2.5	661	0	1000.2	NA	0.0000		9999	0	0	0	0
2019/11/28 17:16:02	BASE	1.17	189	1.39	183	2.5	100	2.5	692	0	1000.2	NA	0.0000		9999	18280	0	0	0
2019/11/28 17:17:02	BASE	1.29	183	1.44	175	2.6	100	2.6	752	0	1000.1	NA	0.0000		9999	18280	0	0	0
2019/11/28 17:18:02	BASE	1.36	177	1.65	179	2.7	100	2.7	679	0	1000.1	NA	0.0000		9999	17720	0	0	0
2019/11/28 17:19:02	BASE	1.44	171	1.65	166	2.7	100	2.7	654	0	1000.1	NA	0.0000		9999	17820	0	0	0
2019/11/28 17:20:02	BASE	1.62	168	1.95	168	2.7	100	2.7	669	0	1000.1	NA	0.0000		9999	0	0	0	0
2019/11/28 17:21:02	BASE	1.71	166	1.95	168	2.7	100	2.7	654	0	999.7	NA	0.0000		9999	18180	0	0	0
2019/11/28 17:22:02	BASE	1.71	165	1.95	168	2.7	100	2.7	677	0	999.9	NA	0.0000		9999	18110	0	0	0
2019/11/28 17:23:02	BASE	1.62	167	1.95	168	2.7	100	2.7	709	0	1000.1	NA	0.0000		9999	0	0	0	0
2019/11/28 17:24:02	BASE	1.58	165	1.95	168	2.7	100	2.7	662	0	1000.1	NA	0.0000		9999	17650	0	0	0
2019/11/28 17:25:02	BASE	1.56	163	1.95	168	2.7	100	2.7	663	0	1000.1	NA	0.0000		9999	17590	20310	0	0
2019/11/28 17:26:02	BASE	1.39	161	1.95	168	2.8	100	2.8	638	0	1000.1	NA	0.0000		9999	0	0	0	0
2019/11/28 17:27:02	BASE	1.28	154	1.95	168	2.9	100	2.9	657	0	999.6	NA	0.0000		9999	17650	23130	0	0
2019/11/28 17:28:00	BASE	1.22	152	1.95	168	3.0	100	3.0	639	0	999.6	NA	0.0000		9999	17780	0	0	0
2019/11/28 17:29:01	BASE	1.18	157	1.95	168	3.1	100	3.1	652	0	1000.1	NA	0.0000		9999	17680	0	0	0
2019/11/28 17:30:00	BASE	1.12	157	1.90	162	3.2	100	3.2	632	0	999.8	NA	0.0000		9999	0	0	0	0
2019/11/28 17:31:00	BASE	0.80	155	1.90	162	3.2	100	3.2	686	0	1000.1	NA	0.0000		9999	17750	0	0	0
2019/11/28 17:32:00	BASE	0.83	157	1.80	168	3.2	100	3.2	616	0	1000.1	NA	0.0000		9999	17910	0	0	0
2019/11/28 17:33:01	BASE	1.20	157	1.80	168	3.1	100	3.1	622	0	1000.0	NA	0.0000		9999	17720	0	0	0
2019/11/28 17:34:01	BASE	1.25	156	1.70	162	3.1	100	3.1	614	0	1000.0	NA	0.0000		9999	17750	0	0	0
2019/11/28 17:35:01	BASE	1.24	157	1.49	165	3.2	100	3.2	627	0	1000.0	NA	0.0000		9999	0	0	0	0
2019/11/28 17:36:01	BASE	1.26	160	1.44	160	3.2	100	3.2	639	0	1000.0	NA	0.0000		9999	17780	0	0	0
2019/11/28 17:37:02	BASE	1.17	161	1.44	162	3.3	100	3.3	642	0	999.9	NA	0.0000		9999	8560	0	0	0
2019/11/28 17:38:01	BASE	0.82	154	1.44	162	3.3	100	3.3	604	0	999.9	NA	0.0000		9999	17680	0	0	0
2019/11/28 17:39:01	BASE	0.33	150	1.44	162	3.3	100	3.3	626	0	1000.0	NA	0.0000		9999	17720	0	0	0
2019/11/28 17:40:01	BASE	0.04	144	1.44	162	3.4	100	3.4	624	0	1000.0	NA	0.0000		9999	17160	0	0	0
2019/11/28 17:41:01	BASE	0.00	134	1.44	162	3.5	100	3.5	611	0	1000.0	NA	0.0000		9999	8330	17780	0	0
2019/11/28 17:42:01	BASE	0.00	123	1.44	162	3.6	100	3.5	586	0	1000.0	NA	0.0000		9999	8300	22080	0	0
2019/11/28 17:43:01	BASE	0.00	114	1.44	162	3.6	99	3.5	602	0	1000.0	NA	0.0000		9999	8370	0	0	0
2019/11/28 17:44:01	BASE	0.00	110	1.44	162	3.6	99	3.5	589	0	1000.0	NA	0.0000		9999	8300	0	0	0
2019/11/28 17:45:01	BASE	0.00	105	1.44	162	3.7	98	3.5	607	0	1000.0	NA	0.0000		9999	8300	0	0	0
2019/11/28 17:46:01	BASE	0.00	87	1.44	162	3.8	98	3.5	641	0	1000.1	NA	0.0000		9999	8400	0	0	0
2019/11/28 17:47:00	BASE	0.24	47	1.29	38	4.0	97	3.6	676	0	1000.1	NA	0.0000		9999	8370	0	0	0
2019/11/28 17:48:01	BASE	0.49	36	1.29	44	4.1	96	3.6	608	0	1000.1	NA	0.0000		9999	8300	0	0	0
2019/11/28 17:49:01	BASE	0.67	46	1.44	48	4.2	96	3.6	596	0	1000.1	NA	0.0000		9999	8330	0	0	0
2019/11/28 17:50:01	BASE	0.42	43	1.44	48	4.3	95	3.5	605	0	1000.1	NA	0.0000		9999	8330	0	0	0
2019/11/28 17:51:02	BASE	0.38	34	1.65	36	4.2	94	3.4	574	0	1000.1	NA	0.0000		9999	8330	0	0	0
2019/11/28 17:52:01	BASE	0.68	31	1.65	36	4.1	94	3.3	595	0	1000.1	NA	0.0000		9999	8300	0	0	0
2019/11/28 17:53:02	BASE	0.30	29	1.65	36	4.1	94	3.3	591	0	1000.1	NA	0.0000		9999	8300	0	0	0
2019/11/28 17:54:02	BASE	0.00	31	1.65	36	4.1	94	3.2	612	0	1000.1	NA	0.0000		9999	8330	0	0	0
2019/11/28 17:55:02	BASE	0.00	22	1.65	36	4.1	94	3.2	603	0	1000.1	NA	0.0000		9999	8370	0	0	0
2019/11/28 17:56:02	BASE	0.00	12	1.65	36	4.1	94	3.3	767	0	1000.0	NA	0.0000		9999	8330	0	0	0
2019/11/28 17:57:01	BASE	0.10	11	1.65	36	4.1	94	3.3	759	0	999.9	NA	0.0000		9999	8330	0	0	0
2019/11/28 17:58:01	BASE	0.53	6	1.65	36	4.1	94	3.3	684	0	1000.0	NA	0.0000		9999	8300	0	0	0
2019/11/28 17:59:02	BASE	0.84	1	1.65	36	4.2	94	3.3	674	0	1000.0	NA	0.0000		9999	8330	0	0	0
2019/11/28 18:00:02	BASE	0.88	357	1.65	36	4.1	94	3.3	866	0	1000.1	NA	0.0000		9999	8330	0	0	0
2019/11/28 18:01:02	BASE	0.89	358	1.54	15	4.0	94	3.2	820	0	1000.0	NA	0.0000		9999	8330	0	0	0
2019/11/28 18:02:01	BASE	0.42	6	1.54	15	4.0	95	3.2	1016	0	1000.1	NA	0.0000		9999	8330	0	0	0
2019/11/28 18:03:01	BASE	0.00	13	1.54	15	3.9	95	3.2	762	0	1000.1	NA	0.0000		9999	8330	0	0	0
2019/11/28 18:04:02	BASE	0.05	14	1.54	15	4.0	95	3.3	1000	0	999.5	NA	0.0000		9999	8330	0	0	0
2019/11/28 18:05:02	BASE	0.05	21	1.54	15	4.2	96	3.6	820	0	999.2	NA	0.0000		9999	8300	0	0	0
2019/11/28 18:06:02	BASE	0.00	35	1.54	15	4.5	96	3.8	820	0	1000.0	NA	0.0000		9999	8370	0	0	0
2019/11/28 18:07:02	BASE	0.00	52	1.54	15	4.7	95	4.0	764	0	1000.1	NA	0.0000		9999	8370	0	0	0
2019/11/28 18:08:01	BASE	0.00	59	1.44	1	4.9	94	4.0	880	0	1000.0	NA	0.0000		9999	8300	0	0	0
2019/11/28 18:09:02	BASE	0.00	55	1.39	353	5.0	93	3.9	870	0	1000.0	NA	0.0000		9999	8370	0	0	0
2019/11/28 18:10:01	BASE	0.00	48	1.39	353	5.2	91	3.8	730	0	999.6	NA	0.0000		9999	8300	0	0	0
2019/11/28 18:11:02	BASE	0.41	39	1.49	34	5.2	89	3.6	719	0	999.4	NA	0.0000		9999	8330	0	0	0
2019/11/28 18:12:01	BASE	0.70	38	1.59	54	5.3	88	3.5	690	0	999.8	NA	0.0000		9999	8330	0	0	0
2019/11/28 18:13:01	BASE	0.68	42	1.59	54	5.3	88	3.4	632	0	1000.0	NA	0.0000		9999	8300	0	0	0
2019/11/28 18:14:02	BASE	1.10	43	1.65	43	5.2	88	3.4	684	0	999.9	NA	0.0000		9999	8270	0	0	0
2019/11/28 18:15:01	BASE	1.17	40	1.65	43	5.1	88	3.2	707	0	999.9	NA	0.0000		9999	8300	0	0	0
2019/11/28 18:16:02	BASE	1.19	25	1.65	43	4.9	88	3.1	728	0	1000.0	NA	0.0000		9999	8330	0	0	0
2019/11/28 18:17:02	BASE	1.50	24	1.90	42	4.8	89	3.2	922	0	1000.0	NA	0.0000		9999	8330	23620	0	0
2019/11/28 18:18:01	BASE	1.19	25	1.90	42	4.6	90	3.1	641	0	1000.1	NA	0.0000		9999	8370	0	0	0
2019/11/28 18:19:02	BASE	1.04	20	1.90	42	4.5	91	3.1	678	0	1000.1	NA	0.0000		9999	8330	0	0	0
2019/11/28 18:20:01	BASE	1.13	23	1.90	42	4.4	91	3.1	632	0	1000.1	NA	0.0000		9999	8300	0	0	0
2019/11/28 18:21:01	BASE	0.69	23	1.90	42	4.4	92	3.1	689	0	1000.1	NA	0.0000		9999	8370	0	0	0
2019/11/28 18:22:01	BASE	0.20	21	1.90	42	4.3	91	3.0	606	0	1000.1	NA	0.0000		9999	8370	0	0	0
2019/11/28 18:23:02	BASE	0.00	22	1.90	42	4.3	91	3.0	577	0	1000.1	NA	0.0000		9999	8370	0	0	0
2019/11/28 18:24:02	BASE	0.00	25	1.90	42	4.5	90	3.1	621	0	1000.1	NA	0.0000		9999	8370	0	0	0
2019/11/28 18:25:01	BASE	0.00	6	1.90	42	4.7	89	3.1	600	0	1000.0	NA	0.0000		9999	8300	0	0	0
2019/11/28 18:26:01	BASE	0.00	342	1.90	42	4.8	88	2.9	552	0	1000.0	NA	0.0000		9999	8330	0	0	0
2019/11/28 18:27:02	BASE	0.00	328	1.59	21	5.1	86	3.0	525	0	999.9	NA	0.0000		9999	8300	0	0	0
2019/11/28 18:28:01	BASE	0.00	320	1.54	28	5.3	85	2.9	505	0	999.9	NA	0.0000		9999	8240	0	0	0
2019/11/28 18:29:02	BASE	0.09	324	1.29	21	5.3	83	2.7	498	0	999.9	NA	0.0000		9999	8300	0	0	0
2019/11/28 18:30:01	BASE	0.09	323	1.29	21	5.4	82	2.6	515	0	999.9	NA	0.0000		9999	8300	0	0	0
2019/11/28 18:31:02	BASE	0.05	323	1.18	312	5.6	82	2.7	524	0	999.9	NA	0.0000		9999	8300	0	0	0
2019/11/28 18:32:01	BASE	0.05	322	1.18	312	5.6	81	2.5	556	0	999.9	NA	0.0000		9999	8300	0	0	0
2019/11/28 18:33:01	BASE	0.00	319	1.18	312	5.6	81	2.5	578	0	999.9	NA	0.0000		9999	8240	0	0	0
2019/11/28 18:34:01	BASE	0.00	314	1.18	312	5.6	80	2.5	586	0	999.9	NA	0.0000		9999	8200	0	0	0
2019/11/28 18:35:01	BASE	0.00	313	1.18	312	5.7	80	2.5	607	0	999.9	NA	0.0000		9999	8240	0	0	0
2019/11/28 18:36:01	BASE	0.00	321	1.18	312	5.6	80	2.3	642	0	999.9	NA	0.0000		9999	8240	0	0	0
2019/11/28 18:37:01	BASE	0.00	330	1.18	312	5.5	80	2.3	669	0	999.9	NA	0.0000		9999	5770	8270	0	0
2019/11/28 18:38:00	BASE	0.00	334	1.18	312	5.3	80	2.1	631	0	999.9	NA	0.0000		9999	8270	0	0	0
2019/11/28 18:39:00	BASE	0.00	338	1.08	315	5.3	80	2.1	662	0	999.9	NA	0.0000		9999	8200	0	0	0
2019/11/28 18:40:00	BASE	0.00	350	1.08	315	5.2	80	2.0	669	0	999.9	NA	0.0000		9999	8270	0	0	0
2019/11/28 18:41:01	BASE	0.00	19	M	M	5.2	81	2.1	624	0	999.9	NA	0.0000		9999	8200	0	0	0
2019/11/28 18:42:00	BASE	0.00	35	M	M	5.2	81	2.2	668	0	999.9	NA	0.0000		9999	8240	0	0	0
2019/11/28 18:43:01	BASE	0.00	46	M	M	5.4	81	2.5	745	0	999.9	NA	0.0000		9999	8200	0	0	0
2019/11/28 18:44:01	BASE	0.00	59	M	M	5.5	81	2.6	819	0	999.9	NA	0.0000		9999	8200	0	0	0
2019/11/28 18:45:01	BASE	0.00	57	M	M	5.6	81	2.7	637	0	999.9	NA	0.0000		9999	8240	0	0	0
2019/11/28 18:46:01	BASE	0.00	78	M	M	5.7	81	2.7	610	0	999.9	NA	0.0000		9999	5610	8240	0	0
2019/11/28 18:47:01	BASE	0.00	92	M	M	5.6	81	2.7	604	0	999.4	NA	0.0000		9999	8270	0	0	0
2019/11/28 18:48:01	BASE	0.00	117	M	M	5.6	81	2.7	655	0	999.9	NA	0.0000		9999	8300	0	0	0
2019/11/28 18:49:01	BASE	0.00	130	M	M	5.6	81	2.6	632	0	999.9	NA	0.0000		9999	5610	8370	0	0
2019/11/28 18:50:01	BASE	0.00	118	M	M	5.6	81	2.6	759	0	999.9	NA	0.0000		9999	5640	8330	0	0
2019/11/28 18:51:01	BASE	0.00	95	M	M	5.6	81	2.6	646	0	999.9	NA	0.0000		9999	8300	0	0	0
2019/11/28 18:52:01	BASE	0.00	69	M	M	5.6	81	2.5	550	0	999.9	NA	0.0000		9999	5610	8300	0	0
2019/11/28 18:53:01	BASE	0.05	48	1.08	49	5.6	80	2.4	535	0	999.7	NA	0.0000		9999	8300	0	0	0
2019/11/28 18:54:00	BASE	0.15	37	1.23	36	5.7	79	2.4	554	0	999.9	NA	0.0000		9999	8330	0	0	0
2019/11/28 18:55:01	BASE	0.10	39	1.23	36	5.8	79	2.4	574	0	1000.0	NA	0.0000		9999	8300	0	0	0
2019/11/28 18:56:01	BASE	0.33	36	1.23	36	5.9	78	2.3	601	0	1000.0	NA	0.0000		9999	8300	22700	0	0
2019/11/28 18:57:00	BASE	0.38	67	1.29	51	6.0	77	2.2	641	0	1000.0	NA	0.0000		9999	8300	0	0	0
2019/11/28 18:58:01	BASE	0.05	61	1.29	51	6.0	76	2.1	620	0	999.9	NA	0.0000		9999	8330	0	0	0
2019/11/28 18:59:01	BASE	0.00	1	1.29	51	6.1	76	2.1	617	0	999.9	NA	0.0000		9999	8300	0	0	0
2019/11/28 19:00:02	BASE	0.00	200	1.29	51	6.1	75	2.0	644	0	1000.0	NA	0.0000		9999	8330	0	0	0
2019/11/28 19:01:02	BASE	0.00	194	1.29	51	6.0	75	1.9	676	0	1000.0	NA	0.0000		9999	8270	0	0	0
2019/11/28 19:02:02	BASE	0.00	204	1.29	51	6.0	75	1.9	627	0	1000.0	NA	0.0000		9999	8270	0	0	0
2019/11/28 19:03:02	BASE	0.00	204	1.29	51	5.9	76	2.0	574	0	999.9	NA	0.0000		9999	8270	0	0	0
2019/11/28 19:04:02	BASE	0.00	200	1.29	51	5.7	77	1.9	604	0	999.6	NA	0.0000		9999	8270	0	0	0
2019/11/28 19:05:02	BASE	0.00	192	1.29	51	5.4	78	1.9	533	0	999.9	NA	0.0000		9999	8300	0	0	0
2019/11/28 19:06:01	BASE	0.00	189	1.29	51	5.2	80	2.1	530	0	999.9	NA	0.0000		9999	8300	0	0	0
2019/11/28 19:07:02	BASE	0.00	190	M	M	5.1	81	2.2	529	0	999.9	NA	0.0000		9999	8300	0	0	0
2019/11/28 19:08:01	BASE	0.00	192	M	M	5.1	83	2.4	544	0	999.9	NA	0.0000		9999	8330	0	0	0
2019/11/28 19:09:02	BASE	0.00	195	M	M	5.3	84	2.7	547	0	999.9	NA	0.0000		9999	8370	0	0	0
2019/11/28 19:10:02	BASE	0.00	196	M	M	5.4	84	3.0	548	0	999.9	NA	0.0000		9999	8330	0	0	0
2019/11/28 19:11:03	BASE	0.00	193	M	M	5.6	84	3.1	547	0	999.9	NA	0.0000		9999	8370	0	0	0
2019/11/28 19:12:02	BASE	0.04	187	1.03	178	5.7	84	3.1	538	0	999.9	NA	0.0000		9999	8330	17230	0	0
2019/11/28 19:13:02	BASE	0.09	178	1.03	170	5.7	83	3.0	531	0	999.9	NA	0.0000		9999	8330	17650	0	0
2019/11/28 19:14:02	BASE	0.14	171	1.29	168	5.6	83	2.8	536	0	999.9	NA	0.0000		9999	8400	0	0	0
2019/11/28 19:15:02	BASE	0.49	167	1.34	163	5.4	82	2.7	541	0	999.9	NA	0.0000		9999	5280	8370	0	0
2019/11/28 19:16:02	BASE	0.43	163	1.34	163	5.4	83	2.7	543	0	999.9	NA	0.0000		9999	8430	0	0	0
2019/11/28 19:17:01	BASE	0.04	162	1.34	163	5.4	83	2.7	539	0	999.9	NA	0.0000		9999	8400	0	0	0
2019/11/28 19:18:01	BASE	0.19	157	1.34	163	5.6	82	2.8	526	0	999.9	NA	0.0000		9999	8400	0	0	0
2019/11/28 19:19:02	BASE	0.63	151	1.34	163	5.7	81	2.7	528	0	999.9	NA	0.0000		9999	8400	0	0	0
2019/11/28 19:20:01	BASE	0.48	149	1.34	163	5.7	80	2.5	520	0	999.9	NA	0.0000		9999	8400	0	0	0
2019/11/28 19:21:02	BASE	0.18	149	1.34	163	5.8	78	2.2	521	0	999.9	NA	0.0000		9999	8370	0	0	0
2019/11/28 19:22:01	BASE	0.42	146	1.34	163	5.7	77	1.9	551	0	999.8	NA	0.0000		9999	8370	0	0	0
2019/11/28 19:23:02	BASE	0.68	148	1.34	163	5.6	76	1.7	538	0	999.8	NA	0.0000		9999	8400	0	0	0
2019/11/28 19:24:01	BASE	1.02	148	1.34	145	5.6	75	1.4	503	0	999.8	NA	0.0000		9999	8430	0	0	0
2019/11/28 19:25:01	BASE	1.29	143	1.44	143	5.6	74	1.3	492	0	999.8	NA	0.0000		9999	8430	0	0	0
2019/11/28 19:26:01	BASE	1.21	140	1.44	142	5.5	73	1.2	480	0	999.8	NA	0.0000		9999	8330	0	0	0
2019/11/28 19:27:01	BASE	0.83	135	1.44	142	5.5	73	1.1	477	0	999.7	NA	0.0000		9999	8370	0	0	0
2019/11/28 19:28:01	BASE	0.52	131	1.44	142	5.5	73	1.0	497	0	999.4	NA	0.0000		9999	8370	0	0	0
2019/11/28 19:29:02	BASE	0.68	126	1.44	142	5.5	73	1.0	488	0	999.7	NA	0.0000		9999	8400	0	0	0
2019/11/28 19:30:01	BASE	1.01	122	1.44	142	5.5	73	1.0	503	0	999.7	NA	0.0000		9999	8370	0	0	0
2019/11/28 19:31:01	BASE	0.81	114	1.44	142	5.5	73	1.0	493	0	999.7	NA	0.0000		9999	8460	0	0	0
2019/11/28 19:32:01	BASE	0.24	99	1.44	142	5.5	72	0.9	516	0	999.7	NA	0.0000		9999	8500	0	0	0
2019/11/28 19:33:01	BASE	0.00	101	1.44	142	5.6	72	0.9	497	0	999.7	NA	0.0000		9999	8460	0	0	0
2019/11/28 19:34:02	BASE	0.00	109	1.44	142	5.7	71	0.8	484	0	999.7	NA	0.0000		9999	8430	0	0	0
2019/11/28 19:35:02	BASE	0.00	116	1.44	142	5.8	70	0.7	465	0	999.6	NA	0.0000		9999	8330	0	0	0
2019/11/28 19:36:01	BASE	0.00	113	1.39	119	5.9	68	0.5	468	0	999.7	NA	0.0000		9999	8370	0	0	0
2019/11/28 19:37:02	BASE	0.00	110	1.39	119	6.0	67	0.3	463	0	999.6	NA	0.0000		9999	8400	0	0	0
2019/11/28 19:38:01	BASE	0.00	147	1.39	119	6.0	66	0.1	492	0	999.7	NA	0.0000		9999	8430	0	0	0
2019/11/28 19:39:01	BASE	0.00	164	1.34	128	6.0	66	0.1	511	0	999.7	NA	0.0000		9999	8430	0	0	0
2019/11/28 19:40:01	BASE	0.00	61	1.23	115	6.1	66	0.2	431	0	999.7	NA	0.0000		9999	8460	0	0	0
2019/11/28 19:41:01	BASE	0.00	11	M	M	6.2	67	0.4	421	0	999.7	NA	0.0000		9999	8460	0	0	0
2019/11/28 19:42:02	BASE	0.00	18	M	M	6.2	68	0.7	408	0	999.7	NA	0.0000		9999	8370	17520	0	0
2019/11/28 19:43:01	BASE	0.00	19	M	M	6.2	69	0.9	395	0	999.7	NA	0.0000		9999	8500	0	0	0
2019/11/28 19:44:01	BASE	0.21	30	1.29	40	6.2	70	1.0	381	0	999.7	NA	0.0000		9999	8430	0	0	0
2019/11/28 19:45:01	BASE	0.40	54	1.29	40	6.2	70	1.0	376	0	999.7	NA	0.0000		9999	8430	0	0	0
2019/11/28 19:46:02	BASE	0.33	61	1.29	40	6.2	69	0.9	372	0	999.7	NA	0.0000		9999	8430	0	0	0
2019/11/28 19:47:01	BASE	0.32	63	1.29	40	6.2	68	0.7	374	0	999.7	NA	0.0000		9999	8330	0	0	0
2019/11/28 19:48:01	BASE	0.22	60	1.29	40	6.3	67	0.6	370	0	999.7	NA	0.0000		9999	8370	0	0	0
2019/11/28 19:49:02	BASE	0.10	50	1.34	35	6.3	67	0.5	357	0	999.7	NA	0.0000		9999	8330	0	0	0
2019/11/28 19:50:01	BASE	0.06	49	1.34	35	6.3	67	0.5	350	0	999.7	NA	0.0000		9999	8330	0	0	0
2019/11/28 19:51:02	BASE	0.00	43	1.34	35	6.2	67	0.5	344	0	999.7	NA	0.0000		9999	8270	0	0	0
2019/11/28 19:52:02	BASE	0.00	39	1.34	35	6.1	67	0.5	341	0	999.7	NA	0.0000		9999	8370	0	0	0
2019/11/28 19:53:01	BASE	0.00	59	1.34	35	6.1	68	0.6	341	0	999.7	NA	0.0000		9999	8370	0	0	0
2019/11/28 19:54:02	BASE	0.05	57	1.34	35	6.1	68	0.6	345	0	999.7	NA	0.0000		9999	8400	0	0	0
2019/11/28 19:55:02	BASE	0.05	57	1.34	35	6.1	68	0.6	351	0	999.7	NA	0.0000		9999	0	0	0	0
2019/11/28 19:56:01	BASE	0.00	67	1.34	35	6.3	67	0.6	360	0	999.7	NA	0.0000		9999	0	0	0	0
2019/11/28 19:57:01	BASE	0.00	86	1.34	35	6.5	66	0.7	395	0	999.7	NA	0.0000		9999	0	0	0	0
2019/11/28 19:58:01	BASE	0.00	69	1.34	35	6.6	65	0.5	431	0	999.7	NA	0.0000		9999	17450	0	0	0
2019/11/28 19:59:02	BASE	0.00	68	1.08	73	6.8	64	0.5	472	0	999.7	NA	0.0000		9999	17520	0	0	0
2019/11/28 20:00:02	BASE	0.00	236	1.08	73	6.7	64	0.3	430	0	999.7	NA	0.0000		9999	8500	17520	0	0
2019/11/28 20:01:01	BASE	0.15	288	1.34	326	6.6	64	0.3	423	0	999.7	NA	0.0000		9999	0	0	0	0
2019/11/28 20:02:02	BASE	0.57	314	1.44	325	6.5	65	0.4	417	0	999.7	NA	0.0000		9999	17550	0	0	0
2019/11/28 20:03:02	BASE	0.70	332	1.44	325	6.4	66	0.4	420	0	999.7	NA	0.0000		9999	0	0	0	0
2019/11/28 20:04:02	BASE	0.77	338	1.44	325	6.1	66	0.3	423	0	999.6	NA	0.0000		9999	0	0	0	0
2019/11/28 20:05:02	BASE	0.87	328	1.44	325	5.9	67	0.4	443	0	999.7	NA	0.0000		9999	0	0	0	0
2019/11/28 20:06:01	BASE	0.45	328	1.44	325	5.7	68	0.3	477	0	999.7	NA	0.0000		9999	16960	0	0	0
2019/11/28 20:07:02	BASE	0.14	328	1.44	325	5.6	68	0.2	479	0	999.6	NA	0.0000		9999	17520	0	0	0
2019/11/28 20:08:02	BASE	0.10	330	1.44	325	5.5	69	0.4	519	0	999.5	NA	0.0000		9999	17550	0	0	0
2019/11/28 20:09:02	BASE	0.00	338	1.44	325	5.6	70	0.6	562	0	999.7	NA	0.0000		9999	0	0	0	0
2019/11/28 20:10:02	BASE	0.48	339	2.06	325	5.6	71	0.7	540	0	999.7	NA	0.0000		9999	17620	0	0	0
2019/11/28 20:11:04	BASE	1.38	333	2.06	325	5.5	72	0.8	473	0	999.7	NA	0.0000		9999	17590	0	0	0
2019/11/28 20:12:02	BASE	1.32	328	2.06	325	5.4	73	0.8	481	0	999.7	NA	0.0000		9999	17620	0	0	0
2019/11/28 20:13:02	BASE	0.42	327	2.06	325	5.1	74	0.8	508	0	999.7	NA	0.0000		9999	17590	0	0	0
2019/11/28 20:14:01	BASE	0.04	328	2.06	325	5.0	75	0.9	487	0	999.7	NA	0.0000		9999	17550	0	0	0
2019/11/28 20:15:01	BASE	0.04	320	2.06	325	4.9	77	1.1	698	0	999.7	NA	0.0000		9999	17590	0	0	0
2019/11/28 20:16:01	BASE	0.00	316	2.06	325	4.9	78	1.3	691	0	999.7	NA	0.0000		9999	17520	0	0	0
2019/11/28 20:17:01	BASE	0.15	328	2.06	325	5.0	78	1.6	761	0	999.7	NA	0.0000		9999	17520	0	0	0
2019/11/28 20:18:02	BASE	0.52	340	2.06	325	5.2	78	1.7	744	0	999.7	NA	0.0000		9999	17650	0	0	0
2019/11/28 20:19:02	BASE	0.61	345	2.06	325	5.3	77	1.7	667	0	999.7	NA	0.0000		9999	17520	0	0	0
2019/11/28 20:20:01	BASE	0.55	346	1.95	333	5.4	77	1.7	607	0	999.7	NA	0.0000		9999	17550	0	0	0
2019/11/28 20:21:01	BASE	0.47	343	1.59	323	5.5	77	1.8	439	0	999.7	NA	0.0000		9999	17520	0	0	0
2019/11/28 20:22:01	BASE	0.17	344	1.44	342	5.5	77	1.8	519	0	999.7	NA	0.0000		9999	17550	0	0	0
2019/11/28 20:23:02	BASE	0.00	343	1.44	342	5.5	77	1.7	559	0	999.7	NA	0.0000		9999	17550	0	0	0
2019/11/28 20:24:01	BASE	0.00	349	1.44	342	5.5	77	1.8	719	0	999.7	NA	0.0000		9999	17590	0	0	0
2019/11/28 20:25:01	BASE	0.05	353	1.44	342	5.6	76	1.7	789	0	999.7	NA	0.0000		9999	17590	0	0	0
2019/11/28 20:26:02	BASE	0.05	351	1.44	342	5.6	75	1.5	519	0	999.7	NA	0.0000		9999	17550	0	0	0
2019/11/28 20:27:01	BASE	0.00	356	1.44	342	5.6	75	1.4	490	0	999.7	NA	0.0000		9999	17450	0	0	0
2019/11/28 20:28:02	BASE	0.00	7	1.39	341	5.7	74	1.5	555	0	999.6	NA	0.0000		9999	17590	0	0	0
2019/11/28 20:29:02	BASE	0.00	15	1.39	341	5.7	74	1.4	516	0	999.6	NA	0.0000		9999	17490	0	0	0
2019/11/28 20:30:02	BASE	0.00	3	1.39	341	5.8	74	1.5	467	0	999.6	NA	0.0000		9999	17450	0	0	0
2019/11/28 20:31:01	BASE	0.00	355	1.08	346	5.9	73	1.5	527	0	999.6	NA	0.0000		9999	17490	0	0	0
2019/11/28 20:32:01	BASE	0.04	6	1.08	346	5.9	73	1.4	483	0	999.6	NA	0.0000		9999	17520	0	0	0
2019/11/28 20:33:02	BASE	0.04	7	1.08	346	5.9	73	1.4	485	0	999.6	NA	0.0000		9999	17420	0	0	0
2019/11/28 20:34:02	BASE	0.00	358	1.08	346	6.0	72	1.4	654	0	999.6	NA	0.0000		9999	17420	0	0	0
2019/11/28 20:35:01	BASE	0.00	356	1.03	18	5.9	72	1.2	513	0	999.6	NA	0.0000		9999	17390	0	0	0
2019/11/28 20:36:01	BASE	0.00	357	1.03	18	6.0	72	1.2	594	0	999.6	NA	0.0000		9999	17290	0	0	0
2019/11/28 20:37:01	BASE	0.00	12	1.03	18	6.0	71	1.1	658	0	999.6	NA	0.0000		9999	17320	0	0	0
2019/11/28 20:38:01	BASE	0.00	14	1.03	18	6.0	71	1.0	429	0	999.6	NA	0.0000		9999	17390	0	0	0
2019/11/28 20:39:01	BASE	0.00	358	1.03	18	6.0	71	1.1	441	0	999.6	NA	0.0000		9999	17390	0	0	0
2019/11/28 20:40:01	BASE	0.00	345	1.03	18	6.1	70	1.1	552	0	999.6	NA	0.0000		9999	17520	0	0	0
2019/11/28 20:41:01	BASE	0.00	330	1.03	18	6.1	70	1.2	429	0	999.6	NA	0.0000		9999	17420	0	0	0
2019/11/28 20:42:01	BASE	0.00	310	M	M	6.1	71	1.2	419	0	999.6	NA	0.0000		9999	17520	0	0	0
2019/11/28 20:43:01	BASE	0.00	289	M	M	6.0	71	1.2	390	0	999.6	NA	0.0000		9999	17490	0	0	0
2019/11/28 20:44:01	BASE	0.00	284	M	M	5.9	71	1.1	387	0	999.6	NA	0.0000		9999	17450	0	0	0
2019/11/28 20:45:01	BASE	0.00	283	M	M	5.8	72	1.0	406	0	999.6	NA	0.0000		9999	17550	0	0	0
2019/11/28 20:46:01	BASE	0.00	295	M	M	5.9	72	1.1	506	0	999.6	NA	0.0000		9999	17590	0	0	0
2019/11/28 20:47:02	BASE	0.00	344	M	M	6.0	71	1.2	429	0	999.6	NA	0.0000		9999	17620	0	0	0
2019/11/28 20:48:01	BASE	0.00	324	M	M	6.2	70	1.2	365	0	999.6	NA	0.0000		9999	17520	0	0	0
2019/11/28 20:49:02	BASE	0.00	259	M	M	6.3	70	1.2	354	0	999.6	NA	0.0000		9999	17490	0	0	0
2019/11/28 20:50:01	BASE	0.00	277	M	M	6.5	69	1.3	347	0	999.6	NA	0.0000		9999	17520	0	0	0
2019/11/28 20:51:01	BASE	0.00	302	M	M	6.4	69	1.1	333	0	999.6	NA	0.0000		9999	17590	0	0	0
2019/11/28 20:52:01	BASE	0.00	268	M	M	6.1	70	1.0	325	0	999.6	NA	0.0000		9999	17590	0	0	0
2019/11/28 20:53:01	BASE	0.00	268	M	M	5.9	71	1.0	322	0	999.5	NA	0.0000		9999	17550	0	0	0
2019/11/28 20:54:02	BASE	0.00	308	M	M	5.9	72	1.1	330	0	999.5	NA	0.0000		9999	17490	0	0	0
2019/11/28 20:55:01	BASE	0.00	326	M	M	5.8	72	1.2	308	0	999.5	NA	0.0000		9999	17590	0	0	0
2019/11/28 20:56:01	BASE	0.00	322	M	M	5.8	73	1.3	303	0	999.5	NA	0.0000		9999	18210	0	0	0
2019/11/28 20:57:02	BASE	0.00	320	M	M	5.9	73	1.5	303	0	999.5	NA	0.0000		9999	17520	0	0	0
2019/11/28 20:58:01	BASE	0.00	317	M	M	6.0	74	1.7	301	0	999.5	NA	0.0000		9999	17030	0	0	0
2019/11/28 20:59:01	BASE	0.14	319	1.13	324	6.0	74	1.7	299	0	999.5	NA	0.0000		9999	17650	0	0	0
2019/11/28 21:00:01	BASE	0.14	321	1.13	324	5.9	74	1.6	300	0	999.5	NA	0.0000		9999	17620	0	0	0
2019/11/28 21:01:02	BASE	0.00	323	1.13	324	5.9	74	1.5	303	0	999.5	NA	0.0000		9999	17520	0	0	0
2019/11/28 21:02:02	BASE	0.00	325	1.13	324	5.8	74	1.4	306	0	999.4	NA	0.0000		9999	17590	0	0	0
2019/11/28 21:03:02	BASE	0.00	325	1.13	324	5.7	73	1.3	304	0	999.4	NA	0.0000		9999	17450	0	0	0
2019/11/28 21:04:02	BASE	0.00	313	1.13	324	5.6	73	1.2	300	0	999.4	NA	0.0000		9999	17520	0	0	0
2019/11/28 21:05:02	BASE	0.00	311	1.13	324	5.5	73	1.1	300	0	999.4	NA	0.0000		9999	17450	0	0	0
2019/11/28 21:06:02	BASE	0.00	332	1.13	324	5.5	73	1.1	291	0	999.4	NA	0.0000		9999	17650	0	0	0
2019/11/28 21:07:02	BASE	0.00	1	1.13	324	5.4	74	1.1	288	0	999.4	NA	0.0000		9999	17590	0	0	0
2019/11/28 21:08:01	BASE	0.00	10	1.13	324	5.4	74	1.1	290	0	999.4	NA	0.0000		9999	17650	0	0	0
2019/11/28 21:09:01	BASE	0.00	22	M	M	5.4	74	1.1	288	0	999.4	NA	0.0000		9999	17590	0	0	0
2019/11/28 21:10:01	BASE	0.00	24	M	M	5.5	74	1.2	289	0	999.4	NA	0.0000		9999	17590	0	0	0
2019/11/28 21:11:02	BASE	0.00	21	M	M	5.5	73	1.1	301	0	999.4	NA	0.0000		9999	17620	0	0	0
2019/11/28 21:12:01	BASE	0.00	26	M	M	5.6	73	1.1	290	0	999.4	NA	0.0000		9999	17650	0	0	0
2019/11/28 21:13:01	BASE	0.15	27	1.29	36	5.7	72	1.1	311	0	999.4	NA	0.0000		9999	17720	0	0	0
2019/11/28 21:14:01	BASE	0.29	38	1.29	36	5.8	72	1.0	337	0	999.3	NA	0.0000		9999	17590	0	0	0
2019/11/28 21:15:02	BASE	0.33	44	1.29	57	5.8	71	1.0	283	0	999.2	NA	0.0000		9999	17620	0	0	0
2019/11/28 21:16:01	BASE	0.69	48	1.39	53	5.8	72	1.0	287	0	999.2	NA	0.0000		9999	17650	0	0	0
2019/11/28 21:17:01	BASE	0.84	56	1.39	63	5.8	72	1.1	325	0	999.2	NA	0.0000		9999	17620	0	0	0
2019/11/28 21:18:01	BASE	0.87	64	1.39	58	5.8	72	1.1	316	0	999.2	NA	0.0000		9999	17590	23720	0	0
2019/11/28 21:19:02	BASE	0.52	65	1.39	58	5.9	72	1.2	308	0	999.2	NA	0.0000		9999	17680	0	0	0
2019/11/28 21:20:01	BASE	0.23	68	1.39	58	5.9	72	1.3	440	0	999.2	NA	0.0000		9999	17650	0	0	0
2019/11/28 21:21:02	BASE	0.50	68	1.39	49	6.1	72	1.4	418	0	999.2	NA	0.0000		9999	0	0	0	0
2019/11/28 21:22:01	BASE	0.84	63	1.49	61	6.2	72	1.6	282	0	999.2	NA	0.0000		9999	17590	0	0	0
2019/11/28 21:23:01	BASE	1.22	58	1.49	61	6.4	72	1.8	310	0	999.2	NA	0.0000		9999	17490	0	0	0
2019/11/28 21:24:01	BASE	1.34	58	1.54	63	6.5	72	1.7	306	0	999.2	NA	0.0000		9999	17550	0	0	0
2019/11/28 21:25:01	BASE	1.10	69	1.54	63	6.6	71	1.6	280	0	999.2	NA	0.0000		9999	17550	0	0	0
2019/11/28 21:26:02	BASE	0.78	75	1.54	63	6.6	69	1.4	325	0	999.2	NA	0.0000		9999	17620	0	0	0
2019/11/28 21:27:03	BASE	0.57	67	1.54	63	6.6	68	1.2	300	0	999.2	NA	0.0000		9999	17550	0	0	0
2019/11/28 21:28:01	BASE	0.20	56	1.54	63	6.5	68	0.9	274	0	999.2	NA	0.0000		9999	17590	0	0	0
2019/11/28 21:29:02	BASE	0.00	35	1.54	63	6.5	67	0.9	263	0	999.2	NA	0.0000		9999	17550	0	0	0
2019/11/28 21:30:02	BASE	0.00	263	1.54	63	6.4	67	0.8	263	0	999.2	NA	0.0000		9999	17620	0	0	0
2019/11/28 21:31:01	BASE	0.00	257	1.54	63	6.3	68	0.8	260	0	999.2	NA	0.0000		9999	17620	0	0	0
2019/11/28 21:32:02	BASE	0.00	266	1.54	63	6.1	69	0.8	286	0	999.2	NA	0.0000		9999	17590	0	0	0
2019/11/28 21:33:01	BASE	0.09	255	1.54	63	5.9	70	0.7	257	0	999.2	NA	0.0000		9999	17720	0	0	0
2019/11/28 21:34:01	BASE	0.09	253	1.39	72	5.5	71	0.7	258	0	999.2	NA	0.0000		9999	17550	0	0	0
2019/11/28 21:35:01	BASE	0.00	274	1.39	72	5.3	73	0.9	291	0	999.2	NA	0.0000		9999	17620	0	0	0
2019/11/28 21:36:02	BASE	0.00	298	1.18	66	5.2	75	1.1	251	0	999.2	NA	0.0000		9999	17590	0	0	0
2019/11/28 21:37:02	BASE	0.00	308	1.08	241	5.2	76	1.4	262	0	999.2	NA	0.0000		9999	17650	0	0	0
2019/11/28 21:38:02	BASE	0.16	265	1.39	223	5.2	77	1.5	264	0	999.2	NA	0.0000		9999	17590	0	0	0
2019/11/28 21:39:01	BASE	0.21	221	1.39	223	5.2	78	1.6	261	0	999.2	NA	0.0000		9999	17620	0	0	0
2019/11/28 21:40:02	BASE	0.05	217	1.39	223	5.1	78	1.5	251	0	999.2	NA	0.0000		9999	17650	0	0	0
2019/11/28 21:41:01	BASE	0.00	199	1.39	223	4.9	78	1.4	249	0	999.2	NA	0.0000		9999	17590	0	0	0
2019/11/28 21:42:01	BASE	0.00	179	1.39	223	4.7	79	1.3	244	0	999.2	NA	0.0000		9999	17620	0	0	0
2019/11/28 21:43:02	BASE	0.00	175	1.39	223	4.5	81	1.5	239	0	999.2	NA	0.0000		9999	17620	0	0	0
2019/11/28 21:44:02	BASE	0.00	174	1.39	223	4.5	82	1.6	253	0	999.2	NA	0.0000		9999	17620	0	0	0
2019/11/28 21:45:01	BASE	0.00	158	1.39	223	4.6	83	1.9	257	0	999.1	NA	0.0000		9999	17590	0	0	0
2019/11/28 21:46:02	BASE	0.00	345	1.39	223	4.8	83	2.1	235	0	999.1	NA	0.0000		9999	17680	0	0	0
2019/11/28 21:47:01	BASE	0.00	330	1.39	223	4.8	83	2.2	233	0	999.1	NA	0.0000		9999	17620	0	0	0
2019/11/28 21:48:01	BASE	0.00	358	1.29	214	4.8	83	2.2	221	0	999.1	NA	0.0000		9999	17620	0	0	0
2019/11/28 21:49:01	BASE	0.00	34	M	M	4.9	83	2.2	215	0	999.1	NA	0.0000		9999	17650	0	0	0
2019/11/28 21:50:02	BASE	0.00	40	M	M	4.9	83	2.2	209	0	999.1	NA	0.0000		9999	17550	0	0	0
2019/11/28 21:51:01	BASE	0.00	45	M	M	5.0	82	2.2	208	0	999.1	NA	0.0000		9999	17550	0	0	0
2019/11/28 21:52:01	BASE	0.00	35	M	M	5.2	82	2.4	209	0	999.1	NA	0.0000		9999	17550	0	0	0
2019/11/28 21:53:02	BASE	0.00	16	M	M	5.3	81	2.4	212	0	999.1	NA	0.0000		9999	17520	0	0	0
2019/11/28 21:54:02	BASE	0.00	18	M	M	5.4	81	2.4	215	0	999.1	NA	0.0000		9999	17550	0	0	0
2019/11/28 21:55:02	BASE	0.35	31	1.29	50	5.6	80	2.3	228	0	999.1	NA	0.0000		9999	17680	0	0	0
2019/11/28 21:56:02	BASE	0.93	44	1.54	61	5.6	78	2.1	229	0	999.1	NA	0.0000		9999	17550	0	0	0
2019/11/28 21:57:01	BASE	1.20	49	1.54	61	5.6	77	2.0	261	0	999.1	NA	0.0000		9999	0	0	0	0
2019/11/28 21:58:02	BASE	1.03	51	1.54	61	5.7	77	1.9	220	0	999.1	NA	0.0000		9999	17520	0	0	0
2019/11/28 21:59:02	BASE	0.99	56	1.54	61	5.6	76	1.7	237	0	999.1	NA	0.0000		9999	17520	0	0	0
2019/11/28 22:00:01	BASE	1.18	56	1.54	61	5.6	76	1.6	271	0	999.1	NA	0.0000		9999	17590	0	0	0
2019/11/28 22:01:02	BASE	0.87	62	1.54	61	5.6	76	1.6	210	0	999.1	NA	0.0000		9999	17620	0	0	0
2019/11/28 22:02:01	BASE	0.79	70	1.54	61	5.5	76	1.6	217	0	999.1	NA	0.0000		9999	0	0	0	0
2019/11/28 22:03:01	BASE	1.18	69	1.54	61	5.5	76	1.7	197	0	999.1	NA	0.0000		9999	17550	0	0	0
2019/11/28 22:04:02	BASE	0.91	67	1.54	61	5.6	76	1.8	191	0	999.1	NA	0.0000		9999	17550	0	0	0
2019/11/28 22:05:02	BASE	0.60	73	1.54	61	5.8	76	1.9	187	0	999.1	NA	0.0000		9999	17550	0	0	0
2019/11/28 22:06:01	BASE	0.60	81	1.49	66	5.9	76	1.9	195	0	999.1	NA	0.0000		9999	17650	0	0	0
2019/11/28 22:07:01	BASE	0.24	92	1.49	66	6.0	75	1.9	180	0	999.1	NA	0.0000		9999	17550	0	0	0
2019/11/28 22:08:01	BASE	0.00	107	1.49	66	6.2	74	1.8	179	0	999.1	NA	0.0000		9999	17620	0	0	0
2019/11/28 22:09:02	BASE	0.00	127	1.49	66	6.2	72	1.6	173	0	999.1	NA	0.0000		9999	17590	0	0	0
2019/11/28 22:10:01	BASE	0.00	135	1.49	66	6.3	71	1.4	170	0	999.1	NA	0.0000		9999	17590	0	0	0
2019/11/28 22:11:02	BASE	0.00	126	1.49	66	6.3	70	1.2	168	0	999.1	NA	0.0000		9999	17550	0	0	0
2019/11/28 22:12:01	BASE	0.00	123	1.49	66	6.3	69	1.0	166	0	999.1	NA	0.0000		9999	17450	0	0	0
2019/11/28 22:13:01	BASE	0.00	121	1.39	84	6.3	68	0.8	166	0	999.1	NA	0.0000		9999	17520	0	0	0
2019/11/28 22:14:01	BASE	0.00	116	1.39	84	6.3	67	0.6	165	0	999.1	NA	0.0000		9999	17550	0	0	0
2019/11/28 22:15:01	BASE	0.00	117	1.29	91	6.3	66	0.5	163	0	999.1	NA	0.0000		9999	17520	0	0	0
2019/11/28 22:16:01	BASE	0.00	120	M	M	6.3	66	0.4	161	0	999.1	NA	0.0000		9999	17550	0	0	0
2019/11/28 22:17:01	BASE	0.00	121	M	M	6.3	66	0.4	158	0	999.1	NA	0.0000		9999	17590	0	0	0
2019/11/28 22:18:01	BASE	0.00	124	M	M	6.3	65	0.3	156	0	999.1	NA	0.0000		9999	17620	0	0	0
2019/11/28 22:19:02	BASE	0.00	126	M	M	6.3	65	0.2	153	0	999.1	NA	0.0000		9999	17520	0	0	0
2019/11/28 22:20:01	BASE	0.00	128	M	M	6.3	65	0.2	151	0	999.1	NA	0.0000		9999	17490	0	0	0
2019/11/28 22:21:01	BASE	0.00	128	M	M	6.2	65	0.2	149	0	999.1	NA	0.0000		9999	17550	0	0	0
2019/11/28 22:22:01	BASE	0.00	124	M	M	6.2	66	0.2	147	0	999.1	NA	0.0000		9999	17520	0	0	0
2019/11/28 22:23:01	BASE	0.00	126	M	M	6.1	67	0.4	145	0	999.1	NA	0.0000		9999	17550	0	0	0
2019/11/28 22:24:01	BASE	0.00	121	M	M	6.2	67	0.5	143	0	999.1	NA	0.0000		9999	17550	0	0	0
2019/11/28 22:25:02	BASE	0.00	119	M	M	6.2	67	0.5	141	0	999.1	NA	0.0000		9999	17550	0	0	0
2019/11/28 22:26:02	BASE	0.00	118	M	M	6.3	67	0.6	139	0	999.1	NA	0.0000		9999	17550	0	0	0
2019/11/28 22:27:02	BASE	0.00	98	M	M	6.3	67	0.7	137	0	999.1	NA	0.0000		9999	17620	0	0	0
2019/11/28 22:28:01	BASE	0.00	72	M	M	6.4	67	0.8	136	0	999.1	NA	0.0000		9999	17680	0	0	0
2019/11/28 22:29:02	BASE	0.00	70	M	M	6.3	68	0.8	135	0	999.0	NA	0.0000		9999	17550	0	0	0
2019/11/28 22:30:02	BASE	0.00	85	M	M	6.3	69	1.0	134	0	999.0	NA	0.0000		9999	17550	0	0	0
2019/11/28 22:31:02	BASE	0.00	161	M	M	6.3	69	1.1	133	0	999.0	NA	0.0000		9999	17590	0	0	0
2019/11/28 22:32:02	BASE	0.00	214	M	M	6.3	69	1.1	131	0	999.0	NA	0.0000		9999	17520	0	0	0
2019/11/28 22:33:01	BASE	0.00	218	M	M	6.2	70	1.1	130	0	998.9	NA	0.0000		9999	6590	17620	0	0
2019/11/28 22:34:02	BASE	0.00	218	M	M	6.1	70	1.1	129	0	999.0	NA	0.0000		9999	6530	17390	0	0
2019/11/28 22:35:01	BASE	0.00	218	M	M	6.0	71	1.1	128	0	999.0	NA	0.0000		9999	6560	17520	0	0
2019/11/28 22:36:01	BASE	0.00	220	M	M	5.9	72	1.3	128	0	999.0	NA	0.0000		9999	6530	17490	0	0
2019/11/28 22:37:02	BASE	0.00	237	M	M	6.1	72	1.4	127	0	999.0	NA	0.0000		9999	6560	17550	0	0
2019/11/28 22:38:02	BASE	0.00	275	M	M	6.2	72	1.5	127	0	999.0	NA	0.0000		9999	6530	17550	0	0
2019/11/28 22:39:02	BASE	0.00	274	M	M	6.2	71	1.4	126	0	999.0	NA	0.0000		9999	6530	17490	0	0
2019/11/28 22:40:02	BASE	0.00	273	M	M	6.3	71	1.4	129	0	999.0	NA	0.0000		9999	6530	17550	0	0
2019/11/28 22:41:02	BASE	0.00	355	M	M	6.1	70	1.2	125	0	998.9	NA	0.0000		9999	6530	17490	0	0
2019/11/28 22:42:02	BASE	0.00	20	M	M	5.9	70	1.0	124	0	999.0	NA	0.0000		9999	17490	0	0	0
2019/11/28 22:43:02	BASE	0.00	12	M	M	5.7	71	0.8	124	0	999.0	NA	0.0000		9999	17420	0	0	0
2019/11/28 22:44:02	BASE	0.00	4	M	M	5.5	71	0.8	123	0	999.0	NA	0.0000		9999	17420	0	0	0
2019/11/28 22:45:02	BASE	0.00	2	M	M	5.4	72	0.7	122	0	999.0	NA	0.0000		9999	17520	0	0	0
2019/11/28 22:46:02	BASE	0.00	6	M	M	5.3	72	0.7	121	0	999.0	NA	0.0000		9999	17490	0	0	0
2019/11/28 22:47:02	BASE	0.00	14	M	M	5.2	73	0.7	119	0	998.9	NA	0.0000		9999	17520	0	0	0
2019/11/28 22:48:01	BASE	0.00	21	M	M	5.2	73	0.8	118	0	998.9	NA	0.0000		9999	17390	0	0	0
2019/11/28 22:49:02	BASE	0.00	24	M	M	5.2	73	0.7	116	0	998.9	NA	0.0000		9999	17450	0	0	0
2019/11/28 22:50:01	BASE	0.00	22	M	M	5.2	73	0.7	115	0	998.9	NA	0.0000		9999	17450	0	0	0
2019/11/28 22:51:02	BASE	0.00	16	M	M	5.2	73	0.7	113	0	998.9	NA	0.0000		9999	17420	0	0	0
2019/11/28 22:52:01	BASE	0.00	13	M	M	5.2	73	0.7	112	0	998.9	NA	0.0000		9999	17420	0	0	0
2019/11/28 22:53:01	BASE	0.00	18	M	M	5.1	73	0.7	111	0	998.9	NA	0.0000		9999	17450	0	0	0
2019/11/28 22:54:01	BASE	0.00	19	M	M	5.1	73	0.7	109	0	998.9	NA	0.0000		9999	17390	0	0	0
2019/11/28 22:55:01	BASE	0.00	29	M	M	5.2	73	0.8	109	0	998.9	NA	0.0000		9999	17420	0	0	0
2019/11/28 22:56:02	BASE	0.00	40	M	M	5.3	73	0.8	108	0	998.8	NA	0.0000		9999	17360	0	0	0
2019/11/28 22:57:01	BASE	0.00	50	M	M	5.4	72	0.8	107	0	998.9	NA	0.0000		9999	17390	0	0	0
2019/11/28 22:58:01	BASE	0.00	57	M	M	5.5	72	0.8	106	0	998.9	NA	0.0000		9999	17390	0	0	0
2019/11/28 22:59:01	BASE	0.00	51	M	M	5.5	71	0.8	105	0	998.8	NA	0.0000		9999	17260	0	0	0
2019/11/28 23:00:01	BASE	0.27	52	1.18	52	5.6	71	0.7	104	0	998.8	NA	0.0000		9999	17390	0	0	0
2019/11/28 23:01:01	BASE	0.27	54	1.18	52	5.7	70	0.6	103	0	998.8	NA	0.0000		9999	17390	0	0	0
2019/11/28 23:02:01	BASE	0.00	54	1.18	52	5.7	70	0.6	103	0	998.8	NA	0.0000		9999	17320	0	0	0
2019/11/28 23:03:01	BASE	0.00	56	1.18	52	5.6	69	0.5	102	0	998.8	NA	0.0000		9999	17390	0	0	0
2019/11/28 23:04:02	BASE	0.00	55	1.18	52	5.6	69	0.4	102	0	998.8	NA	0.0000		9999	17450	0	0	0
2019/11/28 23:05:02	BASE	0.00	56	1.18	52	5.6	69	0.4	101	0	998.8	NA	0.0000		9999	17230	0	0	0
2019/11/28 23:06:01	BASE	0.00	53	1.18	52	5.6	69	0.4	100	0	998.8	NA	0.0000		9999	17520	0	0	0
2019/11/28 23:07:02	BASE	0.00	52	1.18	52	5.5	69	0.3	99	0	998.8	NA	0.0000		9999	17390	0	0	0
2019/11/28 23:08:01	BASE	0.00	66	1.18	52	5.5	69	0.3	98	0	998.8	NA	0.0000		9999	17360	0	0	0
2019/11/28 23:09:01	BASE	0.00	73	1.18	52	5.4	69	0.2	97	0	998.8	NA	0.0000		9999	17030	0	0	0
2019/11/28 23:10:02	BASE	0.00	71	M	M	5.3	70	0.2	97	0	998.8	NA	0.0000		9999	17290	0	0	0
2019/11/28 23:11:03	BASE	0.00	70	M	M	5.3	70	0.2	95	0	998.8	NA	0.0000		9999	17390	0	0	0
2019/11/28 23:12:01	BASE	0.00	56	M	M	5.2	70	0.2	94	0	998.8	NA	0.0000		9999	17420	0	0	0
2019/11/28 23:13:01	BASE	0.00	32	M	M	5.2	70	0.2	93	0	998.8	NA	0.0000		9999	17520	0	0	0
2019/11/28 23:14:02	BASE	0.00	22	M	M	5.2	71	0.2	92	0	998.8	NA	0.0000		9999	17260	0	0	0
2019/11/28 23:15:01	BASE	0.34	36	1.23	34	5.2	71	0.3	91	0	998.8	NA	0.0000		9999	17190	0	0	0
2019/11/28 23:16:02	BASE	0.72	48	1.44	46	5.1	71	0.4	91	0	998.8	NA	0.0000		9999	17230	0	0	0
2019/11/28 23:17:01	BASE	1.09	48	1.54	48	5.2	71	0.4	90	0	998.8	NA	0.0000		9999	17320	0	0	0
2019/11/28 23:18:01	BASE	1.32	48	1.54	48	5.3	71	0.4	89	0	998.8	NA	0.0000		9999	17360	0	0	0
2019/11/28 23:19:02	BASE	1.10	51	1.54	48	5.3	70	0.3	88	0	998.8	NA	0.0000		9999	17390	0	0	0
2019/11/28 23:20:02	BASE	0.77	50	1.54	48	5.3	69	0.1	87	0	998.8	NA	0.0000		9999	17420	0	0	0
2019/11/28 23:21:01	BASE	0.72	45	1.54	48	5.3	69	0.1	86	0	998.8	NA	0.0000		9999	17360	0	0	0
2019/11/28 23:22:01	BASE	1.05	43	1.54	48	5.3	69	0.0	85	0	998.8	NA	0.0000		9999	17390	0	0	0
2019/11/28 23:23:02	BASE	1.16	40	1.54	48	5.2	69	-0.0	84	0	998.8	NA	0.0000		9999	17290	0	0	0
2019/11/28 23:24:01	BASE	1.12	35	1.54	48	5.1	70	0.0	83	0	998.8	NA	0.0000		9999	17320	0	0	0
2019/11/28 23:25:01	BASE	1.20	34	1.54	48	5.1	70	0.1	82	0	998.8	NA	0.0000		9999	17450	0	0	0
2019/11/28 23:26:02	BASE	1.28	32	1.54	48	5.1	70	0.1	81	0	998.8	NA	0.0000		9999	17360	0	0	0
2019/11/28 23:27:02	BASE	1.32	27	1.44	26	5.1	70	0.1	79	0	998.8	NA	0.0000		9999	17360	21590	0	0
2019/11/28 23:28:02	BASE	1.38	22	1.44	15	5.1	70	0.1	78	0	998.8	NA	0.0000		9999	17320	0	0	0
2019/11/28 23:29:02	BASE	1.37	21	1.44	25	5.1	70	0.0	77	0	998.8	NA	0.0000		9999	17320	0	0	0
2019/11/28 23:30:01	BASE	1.30	28	1.44	25	5.0	70	-0.0	76	0	998.8	NA	0.0000		9999	17260	0	0	0
2019/11/28 23:31:01	BASE	1.09	31	1.44	25	5.0	70	-0.1	75	0	998.8	NA	0.0000		9999	17260	0	0	0
2019/11/28 23:32:00	BASE	0.73	30	1.44	25	5.0	70	-0.1	74	0	998.8	NA	0.0000		9999	17360	0	0	0
2019/11/28 23:33:01	BASE	0.26	27	1.44	25	4.9	70	-0.1	73	0	998.8	NA	0.0000		9999	17260	0	0	0
2019/11/28 23:34:01	BASE	0.09	19	1.44	25	4.9	70	-0.1	72	0	998.8	NA	0.0000		9999	17160	0	0	0
2019/11/28 23:35:01	BASE	0.32	9	1.44	25	4.9	70	-0.1	71	0	998.8	NA	0.0000		9999	16830	0	0	0
2019/11/28 23:36:01	BASE	0.46	0	1.44	25	4.8	70	-0.1	70	0	998.8	NA	0.0000		9999	17160	0	0	0
2019/11/28 23:37:01	BASE	0.83	359	1.44	25	4.8	71	-0.1	69	0	998.8	NA	0.0000		9999	17130	0	0	0
2019/11/28 23:38:01	BASE	1.21	2	1.44	25	4.7	71	-0.2	68	0	998.7	NA	0.0000		9999	17230	0	0	0
2019/11/28 23:39:01	BASE	1.26	359	1.49	353	4.7	71	-0.1	67	0	998.8	NA	0.0000		9999	17320	0	0	0
2019/11/28 23:40:01	BASE	1.37	346	1.49	338	4.6	71	-0.2	66	0	998.8	NA	0.0000		9999	17090	0	0	0
2019/11/28 23:41:01	BASE	1.39	338	1.59	339	4.6	72	-0.1	65	0	998.7	NA	0.0000		9999	17230	0	0	0
2019/11/28 23:42:01	BASE	1.28	348	1.59	339	4.5	72	-0.1	64	0	998.6	NA	0.0000		9999	17190	0	0	0
2019/11/28 23:43:01	BASE	1.28	1	1.59	339	4.5	73	-0.0	63	0	998.6	NA	0.0000		9999	17260	0	0	0
2019/11/28 23:44:01	BASE	1.30	7	1.59	339	4.4	73	0.0	62	0	998.6	NA	0.0000		9999	17190	0	0	0
2019/11/28 23:45:01	BASE	1.21	5	1.59	339	4.5	73	0.1	61	0	998.6	NA	0.0000		9999	17190	0	0	0
2019/11/28 23:46:01	BASE	1.14	3	1.59	339	4.6	73	0.2	60	0	998.6	NA	0.0000		9999	17160	0	0	0
2019/11/28 23:47:02	BASE	0.79	4	1.59	339	4.6	73	0.2	59	0	998.6	NA	0.0000		9999	17090	0	0	0
2019/11/28 23:48:02	BASE	0.23	9	1.59	339	4.7	73	0.1	58	0	998.6	NA	0.0000		9999	17260	0	0	0
2019/11/28 23:49:02	BASE	0.56	6	1.59	339	4.7	72	0.1	57	0	998.6	NA	0.0000		9999	17260	0	0	0
2019/11/28 23:50:02	BASE	0.99	4	1.59	339	4.8	72	0.1	56	0	998.6	NA	0.0000		9999	17290	0	0	0
2019/11/28 23:51:02	BASE	0.81	5	1.44	10	4.8	71	0.0	55	0	998.6	NA	0.0000		9999	17360	0	0	0
2019/11/28 23:52:02	BASE	0.79	2	1.44	10	4.9	70	0.0	54	0	998.6	NA	0.0000		9999	17290	0	0	0
2019/11/28 23:53:01	BASE	0.83	359	1.44	10	5.0	70	-0.0	53	0	998.6	NA	0.0000		9999	17320	0	0	0
2019/11/28 23:54:01	BASE	1.02	355	1.34	350	5.1	69	-0.1	52	0	998.6	NA	0.0000		9999	17320	0	0	0
2019/11/28 23:55:01	BASE	0.94	357	1.34	350	5.2	69	-0.1	51	0	998.6	NA	0.0000		9999	17290	0	0	0
2019/11/28 23:56:01	BASE	0.98	2	1.54	10	5.2	69	-0.1	50	0	998.6	NA	0.0000		9999	17320	0	0	0
2019/11/28 23:57:02	BASE	1.36	9	1.59	9	5.2	69	-0.0	49	0	998.6	NA	0.0000		9999	17260	23100	0	0
2019/11/28 23:58:01	BASE	1.39	16	1.59	9	5.2	69	-0.0	49	0	998.6	NA	0.0000		9999	6040	17320	0	0
2019/11/28 23:59:03	BASE	1.41	16	1.59	9	5.2	69	0.0	48	0	998.6	NA	0.0000		9999	6040	17290	0	0